<?xml version="1.0" encoding="UTF-8" standalone="no" ?>
<gpx xmlns="http://www.topografix.com/GPX/1/1" xmlns:xsi="http://www.w3.org/2001/XMLSchema-instance" xsi:schemaLocation="http://www.topografix.com/GPX/1/1 http://www.topografix.com/GPX/1/1/gpx.xsd" version="1.1" creator="VisuGPX - https://www.visugpx.com">
  <metadata>
    <name>Col de Gebroulaz et col du Bouchet en Vanoise</name>
    <desc><![CDATA[Départ Val Thorens, quand la station est fermée, remonter la piste sous le télésiège de la Moraine, rejoindre le col de Thorens, puis sur le glacier de Chavière, se diriger vers le col de Gébroulaz.
Descente par le même itinéraire jusqu'à environ 2750 m et monter au col du Bouchet par une succession de croupes.
Du col redescendre au choix par les pistes ou par des vallons hors pistes, puis retour à la station par le même cheminement qu'à la montée]]></desc>
  </metadata>
  <trk>
    <name><![CDATA[Cols de Gebroulaz et Bouchet]]></name>
    <cmt><![CDATA[Vanoise 10 05 17]]></cmt>
    <desc><![CDATA[comment ...]]></desc>
    <trkseg>
      <trkpt lat="45.29518" lon="6.58543">
        <ele>2342</ele>
        <time>2017-05-10T06:37:14Z</time>
      </trkpt>
      <trkpt lat="45.29518" lon="6.58543">
        <ele>2342</ele>
        <time>2017-05-10T06:37:15Z</time>
      </trkpt>
      <trkpt lat="45.29521" lon="6.58543">
        <ele>2342</ele>
        <time>2017-05-10T06:37:20Z</time>
      </trkpt>
      <trkpt lat="45.29521" lon="6.58543">
        <ele>2336</ele>
        <time>2017-05-10T06:37:43Z</time>
      </trkpt>
      <trkpt lat="45.29518" lon="6.58549">
        <ele>2337</ele>
        <time>2017-05-10T06:38:51Z</time>
      </trkpt>
      <trkpt lat="45.29518" lon="6.58547">
        <ele>2332</ele>
        <time>2017-05-10T06:38:59Z</time>
      </trkpt>
      <trkpt lat="45.29516" lon="6.58545">
        <ele>2331</ele>
        <time>2017-05-10T06:40:51Z</time>
      </trkpt>
      <trkpt lat="45.29514" lon="6.58541">
        <ele>2331</ele>
        <time>2017-05-10T06:40:54Z</time>
      </trkpt>
      <trkpt lat="45.2951" lon="6.58537">
        <ele>2331</ele>
        <time>2017-05-10T06:40:58Z</time>
      </trkpt>
      <trkpt lat="45.29501" lon="6.58534">
        <ele>2333</ele>
        <time>2017-05-10T06:41:31Z</time>
      </trkpt>
      <trkpt lat="45.2949" lon="6.58537">
        <ele>2329</ele>
        <time>2017-05-10T06:41:39Z</time>
      </trkpt>
      <trkpt lat="45.29486" lon="6.58535">
        <ele>2330</ele>
        <time>2017-05-10T06:41:42Z</time>
      </trkpt>
      <trkpt lat="45.2948" lon="6.58536">
        <ele>2330</ele>
        <time>2017-05-10T06:41:46Z</time>
      </trkpt>
      <trkpt lat="45.29478" lon="6.58542">
        <ele>2330</ele>
        <time>2017-05-10T06:44:02Z</time>
      </trkpt>
      <trkpt lat="45.2947" lon="6.58534">
        <ele>2329</ele>
        <time>2017-05-10T06:45:08Z</time>
      </trkpt>
      <trkpt lat="45.29463" lon="6.58529">
        <ele>2334</ele>
        <time>2017-05-10T06:45:32Z</time>
      </trkpt>
      <trkpt lat="45.29461" lon="6.58523">
        <ele>2332</ele>
        <time>2017-05-10T06:45:52Z</time>
      </trkpt>
      <trkpt lat="45.29442" lon="6.58497">
        <ele>2330</ele>
        <time>2017-05-10T06:46:22Z</time>
      </trkpt>
      <trkpt lat="45.2942" lon="6.58468">
        <ele>2330</ele>
        <time>2017-05-10T06:46:52Z</time>
      </trkpt>
      <trkpt lat="45.29417" lon="6.58465">
        <ele>2330</ele>
        <time>2017-05-10T06:47:06Z</time>
      </trkpt>
      <trkpt lat="45.29413" lon="6.58465">
        <ele>2329</ele>
        <time>2017-05-10T06:47:13Z</time>
      </trkpt>
      <trkpt lat="45.29404" lon="6.58452">
        <ele>2326</ele>
        <time>2017-05-10T06:47:30Z</time>
      </trkpt>
      <trkpt lat="45.29399" lon="6.58431">
        <ele>2327</ele>
        <time>2017-05-10T06:47:55Z</time>
      </trkpt>
      <trkpt lat="45.29389" lon="6.58414">
        <ele>2327</ele>
        <time>2017-05-10T06:48:17Z</time>
      </trkpt>
      <trkpt lat="45.29375" lon="6.58396">
        <ele>2320</ele>
        <time>2017-05-10T06:48:34Z</time>
      </trkpt>
      <trkpt lat="45.29373" lon="6.58392">
        <ele>2320</ele>
        <time>2017-05-10T06:48:38Z</time>
      </trkpt>
      <trkpt lat="45.29356" lon="6.58372">
        <ele>2318</ele>
        <time>2017-05-10T06:49:00Z</time>
      </trkpt>
      <trkpt lat="45.29335" lon="6.58345">
        <ele>2325</ele>
        <time>2017-05-10T06:49:32Z</time>
      </trkpt>
      <trkpt lat="45.29321" lon="6.58331">
        <ele>2326</ele>
        <time>2017-05-10T06:49:54Z</time>
      </trkpt>
      <trkpt lat="45.29318" lon="6.58327">
        <ele>2330</ele>
        <time>2017-05-10T06:50:00Z</time>
      </trkpt>
      <trkpt lat="45.29315" lon="6.58326">
        <ele>2331</ele>
        <time>2017-05-10T06:50:04Z</time>
      </trkpt>
      <trkpt lat="45.293" lon="6.58322">
        <ele>2337</ele>
        <time>2017-05-10T06:50:24Z</time>
      </trkpt>
      <trkpt lat="45.29289" lon="6.58321">
        <ele>2338</ele>
        <time>2017-05-10T06:50:54Z</time>
      </trkpt>
      <trkpt lat="45.29276" lon="6.58323">
        <ele>2339</ele>
        <time>2017-05-10T06:51:07Z</time>
      </trkpt>
      <trkpt lat="45.29248" lon="6.58328">
        <ele>2341</ele>
        <time>2017-05-10T06:51:35Z</time>
      </trkpt>
      <trkpt lat="45.29222" lon="6.58333">
        <ele>2340</ele>
        <time>2017-05-10T06:52:05Z</time>
      </trkpt>
      <trkpt lat="45.29204" lon="6.58335">
        <ele>2341</ele>
        <time>2017-05-10T06:52:25Z</time>
      </trkpt>
      <trkpt lat="45.29203" lon="6.58339">
        <ele>2341</ele>
        <time>2017-05-10T06:52:28Z</time>
      </trkpt>
      <trkpt lat="45.292" lon="6.58336">
        <ele>2344</ele>
        <time>2017-05-10T06:56:31Z</time>
      </trkpt>
      <trkpt lat="45.29172" lon="6.58339">
        <ele>2347</ele>
        <time>2017-05-10T06:57:03Z</time>
      </trkpt>
      <trkpt lat="45.29169" lon="6.58339">
        <ele>2347</ele>
        <time>2017-05-10T06:57:06Z</time>
      </trkpt>
      <trkpt lat="45.29166" lon="6.5834">
        <ele>2347</ele>
        <time>2017-05-10T06:57:10Z</time>
      </trkpt>
      <trkpt lat="45.29162" lon="6.5834">
        <ele>2348</ele>
        <time>2017-05-10T06:58:20Z</time>
      </trkpt>
      <trkpt lat="45.29158" lon="6.5834">
        <ele>2348</ele>
        <time>2017-05-10T06:58:25Z</time>
      </trkpt>
      <trkpt lat="45.29151" lon="6.58338">
        <ele>2345</ele>
        <time>2017-05-10T06:58:31Z</time>
      </trkpt>
      <trkpt lat="45.29122" lon="6.58341">
        <ele>2347</ele>
        <time>2017-05-10T06:58:59Z</time>
      </trkpt>
      <trkpt lat="45.29109" lon="6.58342">
        <ele>2347</ele>
        <time>2017-05-10T06:59:07Z</time>
      </trkpt>
      <trkpt lat="45.29107" lon="6.58344">
        <ele>2347</ele>
        <time>2017-05-10T06:59:09Z</time>
      </trkpt>
      <trkpt lat="45.29099" lon="6.58346">
        <ele>2346</ele>
        <time>2017-05-10T06:59:15Z</time>
      </trkpt>
      <trkpt lat="45.29062" lon="6.5835">
        <ele>2348</ele>
        <time>2017-05-10T06:59:46Z</time>
      </trkpt>
      <trkpt lat="45.29025" lon="6.58355">
        <ele>2350</ele>
        <time>2017-05-10T07:00:19Z</time>
      </trkpt>
      <trkpt lat="45.28992" lon="6.58356">
        <ele>2352</ele>
        <time>2017-05-10T07:00:51Z</time>
      </trkpt>
      <trkpt lat="45.28974" lon="6.58358">
        <ele>2353</ele>
        <time>2017-05-10T07:01:08Z</time>
      </trkpt>
      <trkpt lat="45.28944" lon="6.58367">
        <ele>2357</ele>
        <time>2017-05-10T07:01:38Z</time>
      </trkpt>
      <trkpt lat="45.28933" lon="6.58373">
        <ele>2358</ele>
        <time>2017-05-10T07:01:50Z</time>
      </trkpt>
      <trkpt lat="45.28904" lon="6.58386">
        <ele>2360</ele>
        <time>2017-05-10T07:02:21Z</time>
      </trkpt>
      <trkpt lat="45.28875" lon="6.58398">
        <ele>2364</ele>
        <time>2017-05-10T07:02:53Z</time>
      </trkpt>
      <trkpt lat="45.28845" lon="6.5841">
        <ele>2366</ele>
        <time>2017-05-10T07:03:26Z</time>
      </trkpt>
      <trkpt lat="45.28813" lon="6.58422">
        <ele>2362</ele>
        <time>2017-05-10T07:03:56Z</time>
      </trkpt>
      <trkpt lat="45.28792" lon="6.58431">
        <ele>2364</ele>
        <time>2017-05-10T07:04:27Z</time>
      </trkpt>
      <trkpt lat="45.28762" lon="6.58445">
        <ele>2367</ele>
        <time>2017-05-10T07:04:59Z</time>
      </trkpt>
      <trkpt lat="45.28733" lon="6.58461">
        <ele>2372</ele>
        <time>2017-05-10T07:05:31Z</time>
      </trkpt>
      <trkpt lat="45.28729" lon="6.58462">
        <ele>2372</ele>
        <time>2017-05-10T07:05:34Z</time>
      </trkpt>
      <trkpt lat="45.28719" lon="6.5846">
        <ele>2374</ele>
        <time>2017-05-10T07:05:43Z</time>
      </trkpt>
      <trkpt lat="45.28688" lon="6.58463">
        <ele>2376</ele>
        <time>2017-05-10T07:06:14Z</time>
      </trkpt>
      <trkpt lat="45.28681" lon="6.58463">
        <ele>2377</ele>
        <time>2017-05-10T07:06:20Z</time>
      </trkpt>
      <trkpt lat="45.28678" lon="6.58462">
        <ele>2378</ele>
        <time>2017-05-10T07:06:23Z</time>
      </trkpt>
      <trkpt lat="45.28666" lon="6.58466">
        <ele>2380</ele>
        <time>2017-05-10T07:06:35Z</time>
      </trkpt>
      <trkpt lat="45.28637" lon="6.5847">
        <ele>2381</ele>
        <time>2017-05-10T07:07:08Z</time>
      </trkpt>
      <trkpt lat="45.28628" lon="6.58472">
        <ele>2383</ele>
        <time>2017-05-10T07:07:18Z</time>
      </trkpt>
      <trkpt lat="45.28619" lon="6.58469">
        <ele>2383</ele>
        <time>2017-05-10T07:07:27Z</time>
      </trkpt>
      <trkpt lat="45.28595" lon="6.58469">
        <ele>2384</ele>
        <time>2017-05-10T07:07:56Z</time>
      </trkpt>
      <trkpt lat="45.2858" lon="6.58458">
        <ele>2385</ele>
        <time>2017-05-10T07:08:13Z</time>
      </trkpt>
      <trkpt lat="45.28577" lon="6.58458">
        <ele>2385</ele>
        <time>2017-05-10T07:08:16Z</time>
      </trkpt>
      <trkpt lat="45.28574" lon="6.58456">
        <ele>2386</ele>
        <time>2017-05-10T07:08:21Z</time>
      </trkpt>
      <trkpt lat="45.28555" lon="6.58454">
        <ele>2390</ele>
        <time>2017-05-10T07:08:46Z</time>
      </trkpt>
      <trkpt lat="45.28552" lon="6.58454">
        <ele>2390</ele>
        <time>2017-05-10T07:08:50Z</time>
      </trkpt>
      <trkpt lat="45.28549" lon="6.58455">
        <ele>2392</ele>
        <time>2017-05-10T07:08:54Z</time>
      </trkpt>
      <trkpt lat="45.28524" lon="6.58459">
        <ele>2396</ele>
        <time>2017-05-10T07:09:23Z</time>
      </trkpt>
      <trkpt lat="45.28522" lon="6.58461">
        <ele>2397</ele>
        <time>2017-05-10T07:09:26Z</time>
      </trkpt>
      <trkpt lat="45.28492" lon="6.58489">
        <ele>2398</ele>
        <time>2017-05-10T07:10:11Z</time>
      </trkpt>
      <trkpt lat="45.28474" lon="6.58508">
        <ele>2397</ele>
        <time>2017-05-10T07:10:41Z</time>
      </trkpt>
      <trkpt lat="45.28462" lon="6.58513">
        <ele>2390</ele>
        <time>2017-05-10T07:10:42Z</time>
      </trkpt>
      <trkpt lat="45.28458" lon="6.58513">
        <ele>2392</ele>
        <time>2017-05-10T07:10:54Z</time>
      </trkpt>
      <trkpt lat="45.28455" lon="6.58516">
        <ele>2396</ele>
        <time>2017-05-10T07:10:59Z</time>
      </trkpt>
      <trkpt lat="45.28449" lon="6.58532">
        <ele>2400</ele>
        <time>2017-05-10T07:11:18Z</time>
      </trkpt>
      <trkpt lat="45.28437" lon="6.58552">
        <ele>2404</ele>
        <time>2017-05-10T07:11:44Z</time>
      </trkpt>
      <trkpt lat="45.28421" lon="6.58579">
        <ele>2407</ele>
        <time>2017-05-10T07:12:15Z</time>
      </trkpt>
      <trkpt lat="45.2842" lon="6.58583">
        <ele>2407</ele>
        <time>2017-05-10T07:12:20Z</time>
      </trkpt>
      <trkpt lat="45.28406" lon="6.58606">
        <ele>2411</ele>
        <time>2017-05-10T07:12:47Z</time>
      </trkpt>
      <trkpt lat="45.28397" lon="6.58625">
        <ele>2413</ele>
        <time>2017-05-10T07:13:06Z</time>
      </trkpt>
      <trkpt lat="45.28388" lon="6.58643">
        <ele>2414</ele>
        <time>2017-05-10T07:13:30Z</time>
      </trkpt>
      <trkpt lat="45.28382" lon="6.58659">
        <ele>2417</ele>
        <time>2017-05-10T07:13:46Z</time>
      </trkpt>
      <trkpt lat="45.28367" lon="6.58688">
        <ele>2418</ele>
        <time>2017-05-10T07:14:12Z</time>
      </trkpt>
      <trkpt lat="45.28366" lon="6.58694">
        <ele>2421</ele>
        <time>2017-05-10T07:14:17Z</time>
      </trkpt>
      <trkpt lat="45.28363" lon="6.58697">
        <ele>2424</ele>
        <time>2017-05-10T07:14:21Z</time>
      </trkpt>
      <trkpt lat="45.28357" lon="6.58713">
        <ele>2425</ele>
        <time>2017-05-10T07:14:34Z</time>
      </trkpt>
      <trkpt lat="45.28351" lon="6.58721">
        <ele>2424</ele>
        <time>2017-05-10T07:14:45Z</time>
      </trkpt>
      <trkpt lat="45.28349" lon="6.58728">
        <ele>2426</ele>
        <time>2017-05-10T07:15:24Z</time>
      </trkpt>
      <trkpt lat="45.28341" lon="6.58747">
        <ele>2426</ele>
        <time>2017-05-10T07:15:42Z</time>
      </trkpt>
      <trkpt lat="45.28338" lon="6.58751">
        <ele>2422</ele>
        <time>2017-05-10T07:15:46Z</time>
      </trkpt>
      <trkpt lat="45.28337" lon="6.58757">
        <ele>2422</ele>
        <time>2017-05-10T07:16:01Z</time>
      </trkpt>
      <trkpt lat="45.2833" lon="6.58781">
        <ele>2426</ele>
        <time>2017-05-10T07:16:24Z</time>
      </trkpt>
      <trkpt lat="45.28323" lon="6.58786">
        <ele>2427</ele>
        <time>2017-05-10T07:16:32Z</time>
      </trkpt>
      <trkpt lat="45.28318" lon="6.58805">
        <ele>2427</ele>
        <time>2017-05-10T07:16:48Z</time>
      </trkpt>
      <trkpt lat="45.28306" lon="6.58825">
        <ele>2433</ele>
        <time>2017-05-10T07:17:08Z</time>
      </trkpt>
      <trkpt lat="45.283" lon="6.58839">
        <ele>2438</ele>
        <time>2017-05-10T07:17:18Z</time>
      </trkpt>
      <trkpt lat="45.28298" lon="6.58843">
        <ele>2437</ele>
        <time>2017-05-10T07:17:22Z</time>
      </trkpt>
      <trkpt lat="45.28292" lon="6.58865">
        <ele>2428</ele>
        <time>2017-05-10T07:17:36Z</time>
      </trkpt>
      <trkpt lat="45.28278" lon="6.58905">
        <ele>2434</ele>
        <time>2017-05-10T07:18:06Z</time>
      </trkpt>
      <trkpt lat="45.28272" lon="6.58915">
        <ele>2433</ele>
        <time>2017-05-10T07:18:14Z</time>
      </trkpt>
      <trkpt lat="45.28258" lon="6.58952">
        <ele>2432</ele>
        <time>2017-05-10T07:18:46Z</time>
      </trkpt>
      <trkpt lat="45.28257" lon="6.58959">
        <ele>2434</ele>
        <time>2017-05-10T07:18:54Z</time>
      </trkpt>
      <trkpt lat="45.28253" lon="6.58964">
        <ele>2435</ele>
        <time>2017-05-10T07:19:02Z</time>
      </trkpt>
      <trkpt lat="45.28252" lon="6.5897">
        <ele>2440</ele>
        <time>2017-05-10T07:19:07Z</time>
      </trkpt>
      <trkpt lat="45.28248" lon="6.58975">
        <ele>2442</ele>
        <time>2017-05-10T07:19:12Z</time>
      </trkpt>
      <trkpt lat="45.28244" lon="6.58979">
        <ele>2445</ele>
        <time>2017-05-10T07:19:16Z</time>
      </trkpt>
      <trkpt lat="45.28244" lon="6.58984">
        <ele>2446</ele>
        <time>2017-05-10T07:19:22Z</time>
      </trkpt>
      <trkpt lat="45.28239" lon="6.58997">
        <ele>2444</ele>
        <time>2017-05-10T07:19:37Z</time>
      </trkpt>
      <trkpt lat="45.28236" lon="6.59002">
        <ele>2445</ele>
        <time>2017-05-10T07:19:41Z</time>
      </trkpt>
      <trkpt lat="45.28232" lon="6.59014">
        <ele>2444</ele>
        <time>2017-05-10T07:19:51Z</time>
      </trkpt>
      <trkpt lat="45.28223" lon="6.59025">
        <ele>2453</ele>
        <time>2017-05-10T07:20:11Z</time>
      </trkpt>
      <trkpt lat="45.28219" lon="6.59035">
        <ele>2454</ele>
        <time>2017-05-10T07:20:21Z</time>
      </trkpt>
      <trkpt lat="45.28214" lon="6.59037">
        <ele>2455</ele>
        <time>2017-05-10T07:20:25Z</time>
      </trkpt>
      <trkpt lat="45.28213" lon="6.59042">
        <ele>2457</ele>
        <time>2017-05-10T07:20:30Z</time>
      </trkpt>
      <trkpt lat="45.28213" lon="6.59048">
        <ele>2459</ele>
        <time>2017-05-10T07:21:54Z</time>
      </trkpt>
      <trkpt lat="45.28211" lon="6.59056">
        <ele>2462</ele>
        <time>2017-05-10T07:22:02Z</time>
      </trkpt>
      <trkpt lat="45.28209" lon="6.59062">
        <ele>2460</ele>
        <time>2017-05-10T07:23:13Z</time>
      </trkpt>
      <trkpt lat="45.28207" lon="6.59072">
        <ele>2459</ele>
        <time>2017-05-10T07:23:33Z</time>
      </trkpt>
      <trkpt lat="45.28204" lon="6.59075">
        <ele>2463</ele>
        <time>2017-05-10T07:23:44Z</time>
      </trkpt>
      <trkpt lat="45.28203" lon="6.5908">
        <ele>2463</ele>
        <time>2017-05-10T07:24:13Z</time>
      </trkpt>
      <trkpt lat="45.2819" lon="6.59092">
        <ele>2466</ele>
        <time>2017-05-10T07:24:32Z</time>
      </trkpt>
      <trkpt lat="45.28186" lon="6.59093">
        <ele>2466</ele>
        <time>2017-05-10T07:24:36Z</time>
      </trkpt>
      <trkpt lat="45.28175" lon="6.5911">
        <ele>2473</ele>
        <time>2017-05-10T07:25:05Z</time>
      </trkpt>
      <trkpt lat="45.28172" lon="6.5911">
        <ele>2474</ele>
        <time>2017-05-10T07:25:07Z</time>
      </trkpt>
      <trkpt lat="45.28169" lon="6.59114">
        <ele>2474</ele>
        <time>2017-05-10T07:25:10Z</time>
      </trkpt>
      <trkpt lat="45.28166" lon="6.59124">
        <ele>2489</ele>
        <time>2017-05-10T07:25:40Z</time>
      </trkpt>
      <trkpt lat="45.28161" lon="6.59131">
        <ele>2490</ele>
        <time>2017-05-10T07:25:51Z</time>
      </trkpt>
      <trkpt lat="45.28158" lon="6.59139">
        <ele>2490</ele>
        <time>2017-05-10T07:26:05Z</time>
      </trkpt>
      <trkpt lat="45.28152" lon="6.59143">
        <ele>2492</ele>
        <time>2017-05-10T07:26:11Z</time>
      </trkpt>
      <trkpt lat="45.28149" lon="6.59151">
        <ele>2492</ele>
        <time>2017-05-10T07:26:20Z</time>
      </trkpt>
      <trkpt lat="45.28147" lon="6.59154">
        <ele>2492</ele>
        <time>2017-05-10T07:26:28Z</time>
      </trkpt>
      <trkpt lat="45.28147" lon="6.59159">
        <ele>2494</ele>
        <time>2017-05-10T07:26:37Z</time>
      </trkpt>
      <trkpt lat="45.2814" lon="6.5917">
        <ele>2497</ele>
        <time>2017-05-10T07:26:57Z</time>
      </trkpt>
      <trkpt lat="45.28139" lon="6.59182">
        <ele>2502</ele>
        <time>2017-05-10T07:27:16Z</time>
      </trkpt>
      <trkpt lat="45.28137" lon="6.59187">
        <ele>2502</ele>
        <time>2017-05-10T07:27:20Z</time>
      </trkpt>
      <trkpt lat="45.28135" lon="6.59189">
        <ele>2505</ele>
        <time>2017-05-10T07:27:29Z</time>
      </trkpt>
      <trkpt lat="45.28126" lon="6.59205">
        <ele>2512</ele>
        <time>2017-05-10T07:27:50Z</time>
      </trkpt>
      <trkpt lat="45.28126" lon="6.59209">
        <ele>2514</ele>
        <time>2017-05-10T07:27:59Z</time>
      </trkpt>
      <trkpt lat="45.2812" lon="6.59226">
        <ele>2518</ele>
        <time>2017-05-10T07:28:25Z</time>
      </trkpt>
      <trkpt lat="45.28115" lon="6.59237">
        <ele>2516</ele>
        <time>2017-05-10T07:28:41Z</time>
      </trkpt>
      <trkpt lat="45.28111" lon="6.59238">
        <ele>2517</ele>
        <time>2017-05-10T07:28:48Z</time>
      </trkpt>
      <trkpt lat="45.28104" lon="6.5925">
        <ele>2517</ele>
        <time>2017-05-10T07:29:05Z</time>
      </trkpt>
      <trkpt lat="45.28104" lon="6.59256">
        <ele>2520</ele>
        <time>2017-05-10T07:29:12Z</time>
      </trkpt>
      <trkpt lat="45.2809" lon="6.59269">
        <ele>2530</ele>
        <time>2017-05-10T07:29:39Z</time>
      </trkpt>
      <trkpt lat="45.28086" lon="6.59268">
        <ele>2533</ele>
        <time>2017-05-10T07:29:47Z</time>
      </trkpt>
      <trkpt lat="45.28084" lon="6.59274">
        <ele>2533</ele>
        <time>2017-05-10T07:29:53Z</time>
      </trkpt>
      <trkpt lat="45.28076" lon="6.59279">
        <ele>2533</ele>
        <time>2017-05-10T07:30:05Z</time>
      </trkpt>
      <trkpt lat="45.28075" lon="6.59285">
        <ele>2534</ele>
        <time>2017-05-10T07:30:10Z</time>
      </trkpt>
      <trkpt lat="45.28071" lon="6.59285">
        <ele>2535</ele>
        <time>2017-05-10T07:30:14Z</time>
      </trkpt>
      <trkpt lat="45.28068" lon="6.59292">
        <ele>2533</ele>
        <time>2017-05-10T07:30:20Z</time>
      </trkpt>
      <trkpt lat="45.28064" lon="6.59292">
        <ele>2532</ele>
        <time>2017-05-10T07:30:26Z</time>
      </trkpt>
      <trkpt lat="45.2806" lon="6.59294">
        <ele>2531</ele>
        <time>2017-05-10T07:30:32Z</time>
      </trkpt>
      <trkpt lat="45.28053" lon="6.59294">
        <ele>2536</ele>
        <time>2017-05-10T07:30:50Z</time>
      </trkpt>
      <trkpt lat="45.28047" lon="6.59303">
        <ele>2540</ele>
        <time>2017-05-10T07:31:05Z</time>
      </trkpt>
      <trkpt lat="45.28042" lon="6.59302">
        <ele>2543</ele>
        <time>2017-05-10T07:31:15Z</time>
      </trkpt>
      <trkpt lat="45.28026" lon="6.59319">
        <ele>2550</ele>
        <time>2017-05-10T07:31:46Z</time>
      </trkpt>
      <trkpt lat="45.28022" lon="6.59322">
        <ele>2551</ele>
        <time>2017-05-10T07:31:49Z</time>
      </trkpt>
      <trkpt lat="45.2802" lon="6.59328">
        <ele>2552</ele>
        <time>2017-05-10T07:31:54Z</time>
      </trkpt>
      <trkpt lat="45.28017" lon="6.59331">
        <ele>2552</ele>
        <time>2017-05-10T07:31:58Z</time>
      </trkpt>
      <trkpt lat="45.28015" lon="6.59336">
        <ele>2551</ele>
        <time>2017-05-10T07:32:01Z</time>
      </trkpt>
      <trkpt lat="45.2801" lon="6.59343">
        <ele>2549</ele>
        <time>2017-05-10T07:32:13Z</time>
      </trkpt>
      <trkpt lat="45.28007" lon="6.59344">
        <ele>2549</ele>
        <time>2017-05-10T07:32:17Z</time>
      </trkpt>
      <trkpt lat="45.28004" lon="6.59345">
        <ele>2552</ele>
        <time>2017-05-10T07:32:22Z</time>
      </trkpt>
      <trkpt lat="45.28003" lon="6.5935">
        <ele>2552</ele>
        <time>2017-05-10T07:32:25Z</time>
      </trkpt>
      <trkpt lat="45.27999" lon="6.59353">
        <ele>2553</ele>
        <time>2017-05-10T07:32:30Z</time>
      </trkpt>
      <trkpt lat="45.27994" lon="6.59355">
        <ele>2554</ele>
        <time>2017-05-10T07:32:38Z</time>
      </trkpt>
      <trkpt lat="45.27981" lon="6.59371">
        <ele>2559</ele>
        <time>2017-05-10T07:33:07Z</time>
      </trkpt>
      <trkpt lat="45.27978" lon="6.59371">
        <ele>2560</ele>
        <time>2017-05-10T07:33:11Z</time>
      </trkpt>
      <trkpt lat="45.2797" lon="6.59382">
        <ele>2561</ele>
        <time>2017-05-10T07:33:34Z</time>
      </trkpt>
      <trkpt lat="45.27957" lon="6.59406">
        <ele>2568</ele>
        <time>2017-05-10T07:34:07Z</time>
      </trkpt>
      <trkpt lat="45.27954" lon="6.59409">
        <ele>2569</ele>
        <time>2017-05-10T07:34:12Z</time>
      </trkpt>
      <trkpt lat="45.27953" lon="6.59412">
        <ele>2572</ele>
        <time>2017-05-10T07:34:16Z</time>
      </trkpt>
      <trkpt lat="45.27951" lon="6.59415">
        <ele>2572</ele>
        <time>2017-05-10T07:34:20Z</time>
      </trkpt>
      <trkpt lat="45.27943" lon="6.59428">
        <ele>2572</ele>
        <time>2017-05-10T07:34:36Z</time>
      </trkpt>
      <trkpt lat="45.27929" lon="6.59443">
        <ele>2579</ele>
        <time>2017-05-10T07:35:08Z</time>
      </trkpt>
      <trkpt lat="45.27925" lon="6.59452">
        <ele>2581</ele>
        <time>2017-05-10T07:35:20Z</time>
      </trkpt>
      <trkpt lat="45.27921" lon="6.59454">
        <ele>2582</ele>
        <time>2017-05-10T07:35:26Z</time>
      </trkpt>
      <trkpt lat="45.27919" lon="6.59459">
        <ele>2583</ele>
        <time>2017-05-10T07:35:31Z</time>
      </trkpt>
      <trkpt lat="45.27916" lon="6.59462">
        <ele>2584</ele>
        <time>2017-05-10T07:35:37Z</time>
      </trkpt>
      <trkpt lat="45.27913" lon="6.59466">
        <ele>2586</ele>
        <time>2017-05-10T07:35:41Z</time>
      </trkpt>
      <trkpt lat="45.27911" lon="6.59474">
        <ele>2587</ele>
        <time>2017-05-10T07:35:48Z</time>
      </trkpt>
      <trkpt lat="45.27906" lon="6.59479">
        <ele>2586</ele>
        <time>2017-05-10T07:35:56Z</time>
      </trkpt>
      <trkpt lat="45.27902" lon="6.59479">
        <ele>2586</ele>
        <time>2017-05-10T07:36:04Z</time>
      </trkpt>
      <trkpt lat="45.27893" lon="6.59494">
        <ele>2587</ele>
        <time>2017-05-10T07:36:20Z</time>
      </trkpt>
      <trkpt lat="45.2789" lon="6.59501">
        <ele>2592</ele>
        <time>2017-05-10T07:36:27Z</time>
      </trkpt>
      <trkpt lat="45.27887" lon="6.59503">
        <ele>2593</ele>
        <time>2017-05-10T07:36:31Z</time>
      </trkpt>
      <trkpt lat="45.27884" lon="6.59507">
        <ele>2594</ele>
        <time>2017-05-10T07:36:37Z</time>
      </trkpt>
      <trkpt lat="45.27877" lon="6.59516">
        <ele>2597</ele>
        <time>2017-05-10T07:36:55Z</time>
      </trkpt>
      <trkpt lat="45.2787" lon="6.59526">
        <ele>2597</ele>
        <time>2017-05-10T07:37:09Z</time>
      </trkpt>
      <trkpt lat="45.27868" lon="6.59535">
        <ele>2598</ele>
        <time>2017-05-10T07:37:22Z</time>
      </trkpt>
      <trkpt lat="45.27866" lon="6.59538">
        <ele>2601</ele>
        <time>2017-05-10T07:37:26Z</time>
      </trkpt>
      <trkpt lat="45.27865" lon="6.59542">
        <ele>2598</ele>
        <time>2017-05-10T07:38:08Z</time>
      </trkpt>
      <trkpt lat="45.27864" lon="6.59547">
        <ele>2597</ele>
        <time>2017-05-10T07:38:16Z</time>
      </trkpt>
      <trkpt lat="45.27853" lon="6.59561">
        <ele>2601</ele>
        <time>2017-05-10T07:38:47Z</time>
      </trkpt>
      <trkpt lat="45.27841" lon="6.59579">
        <ele>2605</ele>
        <time>2017-05-10T07:39:13Z</time>
      </trkpt>
      <trkpt lat="45.27839" lon="6.59579">
        <ele>2606</ele>
        <time>2017-05-10T07:39:17Z</time>
      </trkpt>
      <trkpt lat="45.27839" lon="6.59585">
        <ele>2606</ele>
        <time>2017-05-10T07:39:23Z</time>
      </trkpt>
      <trkpt lat="45.27836" lon="6.59588">
        <ele>2607</ele>
        <time>2017-05-10T07:39:28Z</time>
      </trkpt>
      <trkpt lat="45.27835" lon="6.59591">
        <ele>2608</ele>
        <time>2017-05-10T07:39:33Z</time>
      </trkpt>
      <trkpt lat="45.27824" lon="6.59607">
        <ele>2615</ele>
        <time>2017-05-10T07:39:59Z</time>
      </trkpt>
      <trkpt lat="45.27822" lon="6.59612">
        <ele>2618</ele>
        <time>2017-05-10T07:40:11Z</time>
      </trkpt>
      <trkpt lat="45.27821" lon="6.59617">
        <ele>2619</ele>
        <time>2017-05-10T07:40:19Z</time>
      </trkpt>
      <trkpt lat="45.27817" lon="6.59621">
        <ele>2620</ele>
        <time>2017-05-10T07:40:24Z</time>
      </trkpt>
      <trkpt lat="45.27814" lon="6.59624">
        <ele>2620</ele>
        <time>2017-05-10T07:40:35Z</time>
      </trkpt>
      <trkpt lat="45.27811" lon="6.59634">
        <ele>2623</ele>
        <time>2017-05-10T07:40:47Z</time>
      </trkpt>
      <trkpt lat="45.27812" lon="6.59638">
        <ele>2624</ele>
        <time>2017-05-10T07:40:51Z</time>
      </trkpt>
      <trkpt lat="45.27808" lon="6.5964">
        <ele>2626</ele>
        <time>2017-05-10T07:41:00Z</time>
      </trkpt>
      <trkpt lat="45.27804" lon="6.59651">
        <ele>2627</ele>
        <time>2017-05-10T07:41:12Z</time>
      </trkpt>
      <trkpt lat="45.27797" lon="6.59658">
        <ele>2629</ele>
        <time>2017-05-10T07:41:23Z</time>
      </trkpt>
      <trkpt lat="45.27796" lon="6.59663">
        <ele>2631</ele>
        <time>2017-05-10T07:41:27Z</time>
      </trkpt>
      <trkpt lat="45.27793" lon="6.59667">
        <ele>2632</ele>
        <time>2017-05-10T07:41:34Z</time>
      </trkpt>
      <trkpt lat="45.2778" lon="6.59688">
        <ele>2634</ele>
        <time>2017-05-10T07:42:06Z</time>
      </trkpt>
      <trkpt lat="45.2777" lon="6.59703">
        <ele>2633</ele>
        <time>2017-05-10T07:42:23Z</time>
      </trkpt>
      <trkpt lat="45.27767" lon="6.59702">
        <ele>2633</ele>
        <time>2017-05-10T07:42:31Z</time>
      </trkpt>
      <trkpt lat="45.27765" lon="6.59705">
        <ele>2632</ele>
        <time>2017-05-10T07:42:34Z</time>
      </trkpt>
      <trkpt lat="45.27756" lon="6.5971">
        <ele>2643</ele>
        <time>2017-05-10T07:42:46Z</time>
      </trkpt>
      <trkpt lat="45.27752" lon="6.59719">
        <ele>2641</ele>
        <time>2017-05-10T07:42:59Z</time>
      </trkpt>
      <trkpt lat="45.27748" lon="6.59722">
        <ele>2643</ele>
        <time>2017-05-10T07:43:03Z</time>
      </trkpt>
      <trkpt lat="45.27743" lon="6.59731">
        <ele>2648</ele>
        <time>2017-05-10T07:43:20Z</time>
      </trkpt>
      <trkpt lat="45.27741" lon="6.59735">
        <ele>2649</ele>
        <time>2017-05-10T07:43:24Z</time>
      </trkpt>
      <trkpt lat="45.27739" lon="6.59737">
        <ele>2649</ele>
        <time>2017-05-10T07:43:29Z</time>
      </trkpt>
      <trkpt lat="45.27722" lon="6.59758">
        <ele>2651</ele>
        <time>2017-05-10T07:44:02Z</time>
      </trkpt>
      <trkpt lat="45.27714" lon="6.59772">
        <ele>2656</ele>
        <time>2017-05-10T07:44:32Z</time>
      </trkpt>
      <trkpt lat="45.27709" lon="6.59776">
        <ele>2657</ele>
        <time>2017-05-10T07:44:43Z</time>
      </trkpt>
      <trkpt lat="45.27706" lon="6.59782">
        <ele>2656</ele>
        <time>2017-05-10T07:44:57Z</time>
      </trkpt>
      <trkpt lat="45.27704" lon="6.59785">
        <ele>2657</ele>
        <time>2017-05-10T07:45:05Z</time>
      </trkpt>
      <trkpt lat="45.27702" lon="6.59788">
        <ele>2661</ele>
        <time>2017-05-10T07:45:09Z</time>
      </trkpt>
      <trkpt lat="45.27701" lon="6.59792">
        <ele>2662</ele>
        <time>2017-05-10T07:45:12Z</time>
      </trkpt>
      <trkpt lat="45.27696" lon="6.59804">
        <ele>2664</ele>
        <time>2017-05-10T07:45:27Z</time>
      </trkpt>
      <trkpt lat="45.27693" lon="6.59806">
        <ele>2665</ele>
        <time>2017-05-10T07:45:31Z</time>
      </trkpt>
      <trkpt lat="45.27688" lon="6.59814">
        <ele>2668</ele>
        <time>2017-05-10T07:45:44Z</time>
      </trkpt>
      <trkpt lat="45.27687" lon="6.59819">
        <ele>2670</ele>
        <time>2017-05-10T07:45:53Z</time>
      </trkpt>
      <trkpt lat="45.27683" lon="6.59827">
        <ele>2670</ele>
        <time>2017-05-10T07:46:06Z</time>
      </trkpt>
      <trkpt lat="45.2768" lon="6.5983">
        <ele>2672</ele>
        <time>2017-05-10T07:46:10Z</time>
      </trkpt>
      <trkpt lat="45.27675" lon="6.59835">
        <ele>2677</ele>
        <time>2017-05-10T07:46:20Z</time>
      </trkpt>
      <trkpt lat="45.27664" lon="6.59853">
        <ele>2676</ele>
        <time>2017-05-10T07:46:55Z</time>
      </trkpt>
      <trkpt lat="45.27663" lon="6.59856">
        <ele>2676</ele>
        <time>2017-05-10T07:47:00Z</time>
      </trkpt>
      <trkpt lat="45.27653" lon="6.59865">
        <ele>2673</ele>
        <time>2017-05-10T07:47:30Z</time>
      </trkpt>
      <trkpt lat="45.27648" lon="6.59872">
        <ele>2677</ele>
        <time>2017-05-10T07:47:43Z</time>
      </trkpt>
      <trkpt lat="45.27641" lon="6.59878">
        <ele>2680</ele>
        <time>2017-05-10T07:47:56Z</time>
      </trkpt>
      <trkpt lat="45.27639" lon="6.59881">
        <ele>2682</ele>
        <time>2017-05-10T07:48:03Z</time>
      </trkpt>
      <trkpt lat="45.27626" lon="6.59899">
        <ele>2685</ele>
        <time>2017-05-10T07:48:28Z</time>
      </trkpt>
      <trkpt lat="45.27622" lon="6.59901">
        <ele>2685</ele>
        <time>2017-05-10T07:48:32Z</time>
      </trkpt>
      <trkpt lat="45.2762" lon="6.59905">
        <ele>2686</ele>
        <time>2017-05-10T07:48:35Z</time>
      </trkpt>
      <trkpt lat="45.27618" lon="6.59906">
        <ele>2687</ele>
        <time>2017-05-10T07:48:41Z</time>
      </trkpt>
      <trkpt lat="45.27609" lon="6.59919">
        <ele>2690</ele>
        <time>2017-05-10T07:49:03Z</time>
      </trkpt>
      <trkpt lat="45.27608" lon="6.59923">
        <ele>2689</ele>
        <time>2017-05-10T07:49:09Z</time>
      </trkpt>
      <trkpt lat="45.27605" lon="6.59925">
        <ele>2689</ele>
        <time>2017-05-10T07:49:12Z</time>
      </trkpt>
      <trkpt lat="45.27604" lon="6.59928">
        <ele>2688</ele>
        <time>2017-05-10T07:49:18Z</time>
      </trkpt>
      <trkpt lat="45.27587" lon="6.59948">
        <ele>2695</ele>
        <time>2017-05-10T07:49:52Z</time>
      </trkpt>
      <trkpt lat="45.27583" lon="6.5995">
        <ele>2695</ele>
        <time>2017-05-10T07:49:57Z</time>
      </trkpt>
      <trkpt lat="45.27574" lon="6.59967">
        <ele>2699</ele>
        <time>2017-05-10T07:50:21Z</time>
      </trkpt>
      <trkpt lat="45.27567" lon="6.59973">
        <ele>2699</ele>
        <time>2017-05-10T07:50:34Z</time>
      </trkpt>
      <trkpt lat="45.27568" lon="6.59977">
        <ele>2700</ele>
        <time>2017-05-10T07:50:39Z</time>
      </trkpt>
      <trkpt lat="45.27565" lon="6.59985">
        <ele>2701</ele>
        <time>2017-05-10T07:50:48Z</time>
      </trkpt>
      <trkpt lat="45.2756" lon="6.59987">
        <ele>2701</ele>
        <time>2017-05-10T07:50:55Z</time>
      </trkpt>
      <trkpt lat="45.27561" lon="6.59995">
        <ele>2701</ele>
        <time>2017-05-10T07:51:00Z</time>
      </trkpt>
      <trkpt lat="45.27558" lon="6.59997">
        <ele>2701</ele>
        <time>2017-05-10T07:51:03Z</time>
      </trkpt>
      <trkpt lat="45.27557" lon="6.60001">
        <ele>2702</ele>
        <time>2017-05-10T07:51:06Z</time>
      </trkpt>
      <trkpt lat="45.27552" lon="6.60013">
        <ele>2702</ele>
        <time>2017-05-10T07:51:20Z</time>
      </trkpt>
      <trkpt lat="45.2755" lon="6.60018">
        <ele>2702</ele>
        <time>2017-05-10T07:51:23Z</time>
      </trkpt>
      <trkpt lat="45.27545" lon="6.60023">
        <ele>2703</ele>
        <time>2017-05-10T07:51:32Z</time>
      </trkpt>
      <trkpt lat="45.27545" lon="6.60028">
        <ele>2704</ele>
        <time>2017-05-10T07:51:40Z</time>
      </trkpt>
      <trkpt lat="45.2754" lon="6.60034">
        <ele>2708</ele>
        <time>2017-05-10T07:51:53Z</time>
      </trkpt>
      <trkpt lat="45.27533" lon="6.60049">
        <ele>2711</ele>
        <time>2017-05-10T07:52:08Z</time>
      </trkpt>
      <trkpt lat="45.2753" lon="6.60051">
        <ele>2712</ele>
        <time>2017-05-10T07:52:12Z</time>
      </trkpt>
      <trkpt lat="45.27528" lon="6.60055">
        <ele>2710</ele>
        <time>2017-05-10T07:52:21Z</time>
      </trkpt>
      <trkpt lat="45.27525" lon="6.60058">
        <ele>2711</ele>
        <time>2017-05-10T07:52:26Z</time>
      </trkpt>
      <trkpt lat="45.27524" lon="6.60069">
        <ele>2710</ele>
        <time>2017-05-10T07:52:36Z</time>
      </trkpt>
      <trkpt lat="45.27515" lon="6.60082">
        <ele>2709</ele>
        <time>2017-05-10T07:52:55Z</time>
      </trkpt>
      <trkpt lat="45.27514" lon="6.60088">
        <ele>2711</ele>
        <time>2017-05-10T07:53:02Z</time>
      </trkpt>
      <trkpt lat="45.27503" lon="6.60105">
        <ele>2714</ele>
        <time>2017-05-10T07:53:25Z</time>
      </trkpt>
      <trkpt lat="45.27499" lon="6.60107">
        <ele>2716</ele>
        <time>2017-05-10T07:53:30Z</time>
      </trkpt>
      <trkpt lat="45.27496" lon="6.6011">
        <ele>2719</ele>
        <time>2017-05-10T07:53:35Z</time>
      </trkpt>
      <trkpt lat="45.27493" lon="6.6011">
        <ele>2719</ele>
        <time>2017-05-10T07:53:40Z</time>
      </trkpt>
      <trkpt lat="45.27491" lon="6.60115">
        <ele>2720</ele>
        <time>2017-05-10T07:53:46Z</time>
      </trkpt>
      <trkpt lat="45.27491" lon="6.6012">
        <ele>2719</ele>
        <time>2017-05-10T07:53:48Z</time>
      </trkpt>
      <trkpt lat="45.27479" lon="6.60141">
        <ele>2718</ele>
        <time>2017-05-10T07:54:13Z</time>
      </trkpt>
      <trkpt lat="45.27476" lon="6.60142">
        <ele>2720</ele>
        <time>2017-05-10T07:54:17Z</time>
      </trkpt>
      <trkpt lat="45.27474" lon="6.60145">
        <ele>2722</ele>
        <time>2017-05-10T07:54:27Z</time>
      </trkpt>
      <trkpt lat="45.27472" lon="6.6015">
        <ele>2726</ele>
        <time>2017-05-10T07:54:32Z</time>
      </trkpt>
      <trkpt lat="45.27471" lon="6.60162">
        <ele>2726</ele>
        <time>2017-05-10T07:54:40Z</time>
      </trkpt>
      <trkpt lat="45.2747" lon="6.60167">
        <ele>2724</ele>
        <time>2017-05-10T07:54:46Z</time>
      </trkpt>
      <trkpt lat="45.27468" lon="6.60171">
        <ele>2724</ele>
        <time>2017-05-10T07:54:51Z</time>
      </trkpt>
      <trkpt lat="45.27462" lon="6.60189">
        <ele>2724</ele>
        <time>2017-05-10T07:55:10Z</time>
      </trkpt>
      <trkpt lat="45.27461" lon="6.60193">
        <ele>2726</ele>
        <time>2017-05-10T07:55:19Z</time>
      </trkpt>
      <trkpt lat="45.27458" lon="6.60196">
        <ele>2726</ele>
        <time>2017-05-10T07:55:28Z</time>
      </trkpt>
      <trkpt lat="45.27451" lon="6.6022">
        <ele>2731</ele>
        <time>2017-05-10T07:55:58Z</time>
      </trkpt>
      <trkpt lat="45.27445" lon="6.60229">
        <ele>2737</ele>
        <time>2017-05-10T07:56:09Z</time>
      </trkpt>
      <trkpt lat="45.27442" lon="6.60233">
        <ele>2737</ele>
        <time>2017-05-10T07:56:15Z</time>
      </trkpt>
      <trkpt lat="45.27442" lon="6.60238">
        <ele>2739</ele>
        <time>2017-05-10T07:56:20Z</time>
      </trkpt>
      <trkpt lat="45.27439" lon="6.60244">
        <ele>2740</ele>
        <time>2017-05-10T07:56:28Z</time>
      </trkpt>
      <trkpt lat="45.27436" lon="6.60255">
        <ele>2742</ele>
        <time>2017-05-10T07:56:42Z</time>
      </trkpt>
      <trkpt lat="45.27431" lon="6.60265">
        <ele>2744</ele>
        <time>2017-05-10T07:56:54Z</time>
      </trkpt>
      <trkpt lat="45.27429" lon="6.6027">
        <ele>2746</ele>
        <time>2017-05-10T07:57:08Z</time>
      </trkpt>
      <trkpt lat="45.2743" lon="6.60276">
        <ele>2747</ele>
        <time>2017-05-10T07:57:15Z</time>
      </trkpt>
      <trkpt lat="45.27425" lon="6.6029">
        <ele>2749</ele>
        <time>2017-05-10T07:57:36Z</time>
      </trkpt>
      <trkpt lat="45.27427" lon="6.60295">
        <ele>2747</ele>
        <time>2017-05-10T07:57:41Z</time>
      </trkpt>
      <trkpt lat="45.27425" lon="6.60301">
        <ele>2746</ele>
        <time>2017-05-10T07:57:47Z</time>
      </trkpt>
      <trkpt lat="45.27428" lon="6.60314">
        <ele>2746</ele>
        <time>2017-05-10T07:58:01Z</time>
      </trkpt>
      <trkpt lat="45.27433" lon="6.60329">
        <ele>2751</ele>
        <time>2017-05-10T07:58:19Z</time>
      </trkpt>
      <trkpt lat="45.27432" lon="6.60335">
        <ele>2754</ele>
        <time>2017-05-10T07:58:26Z</time>
      </trkpt>
      <trkpt lat="45.27435" lon="6.6034">
        <ele>2755</ele>
        <time>2017-05-10T07:58:34Z</time>
      </trkpt>
      <trkpt lat="45.2744" lon="6.60343">
        <ele>2756</ele>
        <time>2017-05-10T07:58:43Z</time>
      </trkpt>
      <trkpt lat="45.27446" lon="6.60351">
        <ele>2756</ele>
        <time>2017-05-10T07:59:00Z</time>
      </trkpt>
      <trkpt lat="45.27445" lon="6.60358">
        <ele>2757</ele>
        <time>2017-05-10T07:59:05Z</time>
      </trkpt>
      <trkpt lat="45.27446" lon="6.6037">
        <ele>2758</ele>
        <time>2017-05-10T07:59:17Z</time>
      </trkpt>
      <trkpt lat="45.27446" lon="6.60385">
        <ele>2764</ele>
        <time>2017-05-10T07:59:37Z</time>
      </trkpt>
      <trkpt lat="45.2745" lon="6.60388">
        <ele>2766</ele>
        <time>2017-05-10T07:59:45Z</time>
      </trkpt>
      <trkpt lat="45.27452" lon="6.60406">
        <ele>2768</ele>
        <time>2017-05-10T07:59:59Z</time>
      </trkpt>
      <trkpt lat="45.27449" lon="6.60412">
        <ele>2773</ele>
        <time>2017-05-10T08:00:16Z</time>
      </trkpt>
      <trkpt lat="45.27448" lon="6.60425">
        <ele>2773</ele>
        <time>2017-05-10T08:00:32Z</time>
      </trkpt>
      <trkpt lat="45.27448" lon="6.60431">
        <ele>2775</ele>
        <time>2017-05-10T08:00:38Z</time>
      </trkpt>
      <trkpt lat="45.27443" lon="6.60435">
        <ele>2780</ele>
        <time>2017-05-10T08:00:44Z</time>
      </trkpt>
      <trkpt lat="45.27441" lon="6.60446">
        <ele>2786</ele>
        <time>2017-05-10T08:00:59Z</time>
      </trkpt>
      <trkpt lat="45.27441" lon="6.60452">
        <ele>2790</ele>
        <time>2017-05-10T08:01:06Z</time>
      </trkpt>
      <trkpt lat="45.27439" lon="6.60458">
        <ele>2790</ele>
        <time>2017-05-10T08:01:15Z</time>
      </trkpt>
      <trkpt lat="45.27439" lon="6.60463">
        <ele>2790</ele>
        <time>2017-05-10T08:01:21Z</time>
      </trkpt>
      <trkpt lat="45.27433" lon="6.60474">
        <ele>2798</ele>
        <time>2017-05-10T08:01:38Z</time>
      </trkpt>
      <trkpt lat="45.27433" lon="6.60482">
        <ele>2796</ele>
        <time>2017-05-10T08:01:43Z</time>
      </trkpt>
      <trkpt lat="45.27436" lon="6.60486">
        <ele>2791</ele>
        <time>2017-05-10T08:01:54Z</time>
      </trkpt>
      <trkpt lat="45.27433" lon="6.60491">
        <ele>2790</ele>
        <time>2017-05-10T08:02:02Z</time>
      </trkpt>
      <trkpt lat="45.27429" lon="6.60494">
        <ele>2793</ele>
        <time>2017-05-10T08:02:09Z</time>
      </trkpt>
      <trkpt lat="45.27425" lon="6.60499">
        <ele>2794</ele>
        <time>2017-05-10T08:02:25Z</time>
      </trkpt>
      <trkpt lat="45.27413" lon="6.6053">
        <ele>2796</ele>
        <time>2017-05-10T08:02:58Z</time>
      </trkpt>
      <trkpt lat="45.27403" lon="6.60557">
        <ele>2796</ele>
        <time>2017-05-10T08:03:29Z</time>
      </trkpt>
      <trkpt lat="45.27393" lon="6.60584">
        <ele>2798</ele>
        <time>2017-05-10T08:03:59Z</time>
      </trkpt>
      <trkpt lat="45.27383" lon="6.60617">
        <ele>2800</ele>
        <time>2017-05-10T08:04:31Z</time>
      </trkpt>
      <trkpt lat="45.27376" lon="6.60643">
        <ele>2801</ele>
        <time>2017-05-10T08:04:50Z</time>
      </trkpt>
      <trkpt lat="45.27373" lon="6.60645">
        <ele>2802</ele>
        <time>2017-05-10T08:04:55Z</time>
      </trkpt>
      <trkpt lat="45.27372" lon="6.60648">
        <ele>2802</ele>
        <time>2017-05-10T08:04:59Z</time>
      </trkpt>
      <trkpt lat="45.27366" lon="6.60652">
        <ele>2803</ele>
        <time>2017-05-10T08:05:10Z</time>
      </trkpt>
      <trkpt lat="45.27363" lon="6.60653">
        <ele>2804</ele>
        <time>2017-05-10T08:05:16Z</time>
      </trkpt>
      <trkpt lat="45.27353" lon="6.60659">
        <ele>2809</ele>
        <time>2017-05-10T08:05:30Z</time>
      </trkpt>
      <trkpt lat="45.27351" lon="6.60664">
        <ele>2811</ele>
        <time>2017-05-10T08:05:38Z</time>
      </trkpt>
      <trkpt lat="45.27349" lon="6.60666">
        <ele>2811</ele>
        <time>2017-05-10T08:05:41Z</time>
      </trkpt>
      <trkpt lat="45.27346" lon="6.6067">
        <ele>2814</ele>
        <time>2017-05-10T08:05:47Z</time>
      </trkpt>
      <trkpt lat="45.27343" lon="6.60672">
        <ele>2814</ele>
        <time>2017-05-10T08:06:01Z</time>
      </trkpt>
      <trkpt lat="45.27336" lon="6.60676">
        <ele>2821</ele>
        <time>2017-05-10T08:06:08Z</time>
      </trkpt>
      <trkpt lat="45.27333" lon="6.60679">
        <ele>2823</ele>
        <time>2017-05-10T08:06:18Z</time>
      </trkpt>
      <trkpt lat="45.27332" lon="6.60685">
        <ele>2820</ele>
        <time>2017-05-10T08:06:22Z</time>
      </trkpt>
      <trkpt lat="45.27331" lon="6.60691">
        <ele>2821</ele>
        <time>2017-05-10T08:06:25Z</time>
      </trkpt>
      <trkpt lat="45.27321" lon="6.60699">
        <ele>2822</ele>
        <time>2017-05-10T08:06:41Z</time>
      </trkpt>
      <trkpt lat="45.27317" lon="6.60697">
        <ele>2822</ele>
        <time>2017-05-10T08:06:45Z</time>
      </trkpt>
      <trkpt lat="45.27307" lon="6.6069">
        <ele>2824</ele>
        <time>2017-05-10T08:07:06Z</time>
      </trkpt>
      <trkpt lat="45.27304" lon="6.60687">
        <ele>2824</ele>
        <time>2017-05-10T08:07:12Z</time>
      </trkpt>
      <trkpt lat="45.27291" lon="6.60665">
        <ele>2824</ele>
        <time>2017-05-10T08:07:43Z</time>
      </trkpt>
      <trkpt lat="45.27286" lon="6.6066">
        <ele>2824</ele>
        <time>2017-05-10T08:07:51Z</time>
      </trkpt>
      <trkpt lat="45.27284" lon="6.60651">
        <ele>2822</ele>
        <time>2017-05-10T08:08:01Z</time>
      </trkpt>
      <trkpt lat="45.27282" lon="6.60629">
        <ele>2823</ele>
        <time>2017-05-10T08:08:20Z</time>
      </trkpt>
      <trkpt lat="45.27283" lon="6.60626">
        <ele>2824</ele>
        <time>2017-05-10T08:08:25Z</time>
      </trkpt>
      <trkpt lat="45.27286" lon="6.60622">
        <ele>2826</ele>
        <time>2017-05-10T08:08:32Z</time>
      </trkpt>
      <trkpt lat="45.27293" lon="6.60623">
        <ele>2827</ele>
        <time>2017-05-10T08:08:59Z</time>
      </trkpt>
      <trkpt lat="45.27297" lon="6.60622">
        <ele>2828</ele>
        <time>2017-05-10T08:09:09Z</time>
      </trkpt>
      <trkpt lat="45.273" lon="6.60625">
        <ele>2828</ele>
        <time>2017-05-10T08:09:19Z</time>
      </trkpt>
      <trkpt lat="45.27301" lon="6.60619">
        <ele>2827</ele>
        <time>2017-05-10T08:09:31Z</time>
      </trkpt>
      <trkpt lat="45.27305" lon="6.60601">
        <ele>2824</ele>
        <time>2017-05-10T08:09:37Z</time>
      </trkpt>
      <trkpt lat="45.27303" lon="6.60592">
        <ele>2821</ele>
        <time>2017-05-10T08:09:43Z</time>
      </trkpt>
      <trkpt lat="45.27299" lon="6.6058">
        <ele>2818</ele>
        <time>2017-05-10T08:09:52Z</time>
      </trkpt>
      <trkpt lat="45.27296" lon="6.60578">
        <ele>2817</ele>
        <time>2017-05-10T08:09:56Z</time>
      </trkpt>
      <trkpt lat="45.27297" lon="6.60574">
        <ele>2817</ele>
        <time>2017-05-10T08:10:06Z</time>
      </trkpt>
      <trkpt lat="45.27299" lon="6.6057">
        <ele>2817</ele>
        <time>2017-05-10T08:10:09Z</time>
      </trkpt>
      <trkpt lat="45.27306" lon="6.6056">
        <ele>2816</ele>
        <time>2017-05-10T08:10:17Z</time>
      </trkpt>
      <trkpt lat="45.2731" lon="6.6056">
        <ele>2816</ele>
        <time>2017-05-10T08:10:20Z</time>
      </trkpt>
      <trkpt lat="45.27313" lon="6.60568">
        <ele>2814</ele>
        <time>2017-05-10T08:10:30Z</time>
      </trkpt>
      <trkpt lat="45.27313" lon="6.60564">
        <ele>2813</ele>
        <time>2017-05-10T08:12:48Z</time>
      </trkpt>
      <trkpt lat="45.27314" lon="6.6056">
        <ele>2813</ele>
        <time>2017-05-10T08:12:53Z</time>
      </trkpt>
      <trkpt lat="45.27316" lon="6.60558">
        <ele>2812</ele>
        <time>2017-05-10T08:12:58Z</time>
      </trkpt>
      <trkpt lat="45.2732" lon="6.60557">
        <ele>2811</ele>
        <time>2017-05-10T08:13:05Z</time>
      </trkpt>
      <trkpt lat="45.27323" lon="6.60558">
        <ele>2810</ele>
        <time>2017-05-10T08:13:10Z</time>
      </trkpt>
      <trkpt lat="45.27324" lon="6.60554">
        <ele>2810</ele>
        <time>2017-05-10T08:13:16Z</time>
      </trkpt>
      <trkpt lat="45.27324" lon="6.60546">
        <ele>2810</ele>
        <time>2017-05-10T08:13:23Z</time>
      </trkpt>
      <trkpt lat="45.27322" lon="6.60546">
        <ele>2810</ele>
        <time>2017-05-10T08:19:00Z</time>
      </trkpt>
      <trkpt lat="45.2732" lon="6.60549">
        <ele>2806</ele>
        <time>2017-05-10T08:19:05Z</time>
      </trkpt>
      <trkpt lat="45.27319" lon="6.60553">
        <ele>2805</ele>
        <time>2017-05-10T08:19:08Z</time>
      </trkpt>
      <trkpt lat="45.27316" lon="6.60557">
        <ele>2804</ele>
        <time>2017-05-10T08:19:19Z</time>
      </trkpt>
      <trkpt lat="45.27316" lon="6.60563">
        <ele>2805</ele>
        <time>2017-05-10T08:19:26Z</time>
      </trkpt>
      <trkpt lat="45.27315" lon="6.60568">
        <ele>2805</ele>
        <time>2017-05-10T08:19:31Z</time>
      </trkpt>
      <trkpt lat="45.27315" lon="6.6057">
        <ele>2812</ele>
        <time>2017-05-10T08:23:52Z</time>
      </trkpt>
      <trkpt lat="45.27315" lon="6.60571">
        <ele>2814</ele>
        <time>2017-05-10T08:28:29Z</time>
      </trkpt>
      <trkpt lat="45.27312" lon="6.60584">
        <ele>2812</ele>
        <time>2017-05-10T08:30:41Z</time>
      </trkpt>
      <trkpt lat="45.27305" lon="6.60609">
        <ele>2811</ele>
        <time>2017-05-10T08:31:10Z</time>
      </trkpt>
      <trkpt lat="45.27298" lon="6.60634">
        <ele>2813</ele>
        <time>2017-05-10T08:31:43Z</time>
      </trkpt>
      <trkpt lat="45.27294" lon="6.60641">
        <ele>2815</ele>
        <time>2017-05-10T08:31:52Z</time>
      </trkpt>
      <trkpt lat="45.27287" lon="6.60647">
        <ele>2816</ele>
        <time>2017-05-10T08:32:01Z</time>
      </trkpt>
      <trkpt lat="45.27284" lon="6.60652">
        <ele>2817</ele>
        <time>2017-05-10T08:32:07Z</time>
      </trkpt>
      <trkpt lat="45.27278" lon="6.60669">
        <ele>2820</ele>
        <time>2017-05-10T08:32:29Z</time>
      </trkpt>
      <trkpt lat="45.27277" lon="6.60674">
        <ele>2820</ele>
        <time>2017-05-10T08:32:35Z</time>
      </trkpt>
      <trkpt lat="45.27271" lon="6.60684">
        <ele>2823</ele>
        <time>2017-05-10T08:32:51Z</time>
      </trkpt>
      <trkpt lat="45.27268" lon="6.60692">
        <ele>2824</ele>
        <time>2017-05-10T08:33:05Z</time>
      </trkpt>
      <trkpt lat="45.27261" lon="6.60699">
        <ele>2830</ele>
        <time>2017-05-10T08:33:34Z</time>
      </trkpt>
      <trkpt lat="45.27258" lon="6.607">
        <ele>2831</ele>
        <time>2017-05-10T08:33:39Z</time>
      </trkpt>
      <trkpt lat="45.27254" lon="6.60701">
        <ele>2832</ele>
        <time>2017-05-10T08:33:53Z</time>
      </trkpt>
      <trkpt lat="45.27251" lon="6.60703">
        <ele>2833</ele>
        <time>2017-05-10T08:34:03Z</time>
      </trkpt>
      <trkpt lat="45.27237" lon="6.60722">
        <ele>2836</ele>
        <time>2017-05-10T08:34:40Z</time>
      </trkpt>
      <trkpt lat="45.27228" lon="6.6073">
        <ele>2839</ele>
        <time>2017-05-10T08:35:00Z</time>
      </trkpt>
      <trkpt lat="45.27228" lon="6.60735">
        <ele>2840</ele>
        <time>2017-05-10T08:35:08Z</time>
      </trkpt>
      <trkpt lat="45.27214" lon="6.60748">
        <ele>2843</ele>
        <time>2017-05-10T08:35:42Z</time>
      </trkpt>
      <trkpt lat="45.27204" lon="6.60759">
        <ele>2847</ele>
        <time>2017-05-10T08:36:08Z</time>
      </trkpt>
      <trkpt lat="45.27193" lon="6.60771">
        <ele>2851</ele>
        <time>2017-05-10T08:36:40Z</time>
      </trkpt>
      <trkpt lat="45.27185" lon="6.60789">
        <ele>2859</ele>
        <time>2017-05-10T08:37:15Z</time>
      </trkpt>
      <trkpt lat="45.27183" lon="6.60792">
        <ele>2861</ele>
        <time>2017-05-10T08:37:23Z</time>
      </trkpt>
      <trkpt lat="45.27183" lon="6.60797">
        <ele>2862</ele>
        <time>2017-05-10T08:37:29Z</time>
      </trkpt>
      <trkpt lat="45.27177" lon="6.60805">
        <ele>2863</ele>
        <time>2017-05-10T08:37:41Z</time>
      </trkpt>
      <trkpt lat="45.27176" lon="6.60811">
        <ele>2863</ele>
        <time>2017-05-10T08:37:52Z</time>
      </trkpt>
      <trkpt lat="45.27168" lon="6.60828">
        <ele>2868</ele>
        <time>2017-05-10T08:38:24Z</time>
      </trkpt>
      <trkpt lat="45.27165" lon="6.60836">
        <ele>2869</ele>
        <time>2017-05-10T08:38:35Z</time>
      </trkpt>
      <trkpt lat="45.27163" lon="6.60839">
        <ele>2872</ele>
        <time>2017-05-10T08:38:42Z</time>
      </trkpt>
      <trkpt lat="45.27161" lon="6.60843">
        <ele>2874</ele>
        <time>2017-05-10T08:38:49Z</time>
      </trkpt>
      <trkpt lat="45.27161" lon="6.60848">
        <ele>2876</ele>
        <time>2017-05-10T08:39:02Z</time>
      </trkpt>
      <trkpt lat="45.27161" lon="6.60857">
        <ele>2877</ele>
        <time>2017-05-10T08:39:13Z</time>
      </trkpt>
      <trkpt lat="45.27159" lon="6.6086">
        <ele>2877</ele>
        <time>2017-05-10T08:39:18Z</time>
      </trkpt>
      <trkpt lat="45.27155" lon="6.60881">
        <ele>2885</ele>
        <time>2017-05-10T08:39:49Z</time>
      </trkpt>
      <trkpt lat="45.27153" lon="6.60894">
        <ele>2892</ele>
        <time>2017-05-10T08:40:03Z</time>
      </trkpt>
      <trkpt lat="45.27151" lon="6.60896">
        <ele>2892</ele>
        <time>2017-05-10T08:40:07Z</time>
      </trkpt>
      <trkpt lat="45.27145" lon="6.60922">
        <ele>2890</ele>
        <time>2017-05-10T08:40:43Z</time>
      </trkpt>
      <trkpt lat="45.27142" lon="6.60933">
        <ele>2893</ele>
        <time>2017-05-10T08:40:58Z</time>
      </trkpt>
      <trkpt lat="45.27142" lon="6.60938">
        <ele>2893</ele>
        <time>2017-05-10T08:41:08Z</time>
      </trkpt>
      <trkpt lat="45.27137" lon="6.60949">
        <ele>2893</ele>
        <time>2017-05-10T08:41:21Z</time>
      </trkpt>
      <trkpt lat="45.27132" lon="6.60974">
        <ele>2899</ele>
        <time>2017-05-10T08:41:52Z</time>
      </trkpt>
      <trkpt lat="45.27131" lon="6.6098">
        <ele>2900</ele>
        <time>2017-05-10T08:41:58Z</time>
      </trkpt>
      <trkpt lat="45.27132" lon="6.60995">
        <ele>2901</ele>
        <time>2017-05-10T08:42:24Z</time>
      </trkpt>
      <trkpt lat="45.27133" lon="6.61001">
        <ele>2898</ele>
        <time>2017-05-10T08:42:28Z</time>
      </trkpt>
      <trkpt lat="45.27132" lon="6.61005">
        <ele>2899</ele>
        <time>2017-05-10T08:42:37Z</time>
      </trkpt>
      <trkpt lat="45.27129" lon="6.61009">
        <ele>2901</ele>
        <time>2017-05-10T08:42:43Z</time>
      </trkpt>
      <trkpt lat="45.2713" lon="6.61014">
        <ele>2902</ele>
        <time>2017-05-10T08:42:49Z</time>
      </trkpt>
      <trkpt lat="45.27128" lon="6.61025">
        <ele>2906</ele>
        <time>2017-05-10T08:43:04Z</time>
      </trkpt>
      <trkpt lat="45.27127" lon="6.61034">
        <ele>2906</ele>
        <time>2017-05-10T08:43:16Z</time>
      </trkpt>
      <trkpt lat="45.27125" lon="6.61038">
        <ele>2905</ele>
        <time>2017-05-10T08:43:20Z</time>
      </trkpt>
      <trkpt lat="45.27122" lon="6.61066">
        <ele>2914</ele>
        <time>2017-05-10T08:43:52Z</time>
      </trkpt>
      <trkpt lat="45.27122" lon="6.61071">
        <ele>2915</ele>
        <time>2017-05-10T08:43:58Z</time>
      </trkpt>
      <trkpt lat="45.2712" lon="6.6108">
        <ele>2920</ele>
        <time>2017-05-10T08:44:10Z</time>
      </trkpt>
      <trkpt lat="45.27116" lon="6.61108">
        <ele>2927</ele>
        <time>2017-05-10T08:44:44Z</time>
      </trkpt>
      <trkpt lat="45.27114" lon="6.61115">
        <ele>2928</ele>
        <time>2017-05-10T08:44:52Z</time>
      </trkpt>
      <trkpt lat="45.27114" lon="6.61121">
        <ele>2926</ele>
        <time>2017-05-10T08:45:00Z</time>
      </trkpt>
      <trkpt lat="45.27112" lon="6.61127">
        <ele>2924</ele>
        <time>2017-05-10T08:45:07Z</time>
      </trkpt>
      <trkpt lat="45.27109" lon="6.6113">
        <ele>2924</ele>
        <time>2017-05-10T08:45:13Z</time>
      </trkpt>
      <trkpt lat="45.27108" lon="6.61135">
        <ele>2924</ele>
        <time>2017-05-10T08:45:19Z</time>
      </trkpt>
      <trkpt lat="45.27105" lon="6.61138">
        <ele>2925</ele>
        <time>2017-05-10T08:45:22Z</time>
      </trkpt>
      <trkpt lat="45.27097" lon="6.61167">
        <ele>2925</ele>
        <time>2017-05-10T08:46:00Z</time>
      </trkpt>
      <trkpt lat="45.27097" lon="6.61173">
        <ele>2928</ele>
        <time>2017-05-10T08:46:07Z</time>
      </trkpt>
      <trkpt lat="45.27095" lon="6.61177">
        <ele>2929</ele>
        <time>2017-05-10T08:46:11Z</time>
      </trkpt>
      <trkpt lat="45.27095" lon="6.61181">
        <ele>2928</ele>
        <time>2017-05-10T08:46:16Z</time>
      </trkpt>
      <trkpt lat="45.27095" lon="6.61191">
        <ele>2929</ele>
        <time>2017-05-10T08:46:27Z</time>
      </trkpt>
      <trkpt lat="45.2709" lon="6.61197">
        <ele>2930</ele>
        <time>2017-05-10T08:46:34Z</time>
      </trkpt>
      <trkpt lat="45.27086" lon="6.61217">
        <ele>2930</ele>
        <time>2017-05-10T08:47:00Z</time>
      </trkpt>
      <trkpt lat="45.27084" lon="6.6122">
        <ele>2928</ele>
        <time>2017-05-10T08:47:06Z</time>
      </trkpt>
      <trkpt lat="45.27084" lon="6.61225">
        <ele>2929</ele>
        <time>2017-05-10T08:47:14Z</time>
      </trkpt>
      <trkpt lat="45.27081" lon="6.61229">
        <ele>2929</ele>
        <time>2017-05-10T08:47:25Z</time>
      </trkpt>
      <trkpt lat="45.27077" lon="6.61239">
        <ele>2934</ele>
        <time>2017-05-10T08:47:39Z</time>
      </trkpt>
      <trkpt lat="45.27074" lon="6.61244">
        <ele>2935</ele>
        <time>2017-05-10T08:47:44Z</time>
      </trkpt>
      <trkpt lat="45.27077" lon="6.61247">
        <ele>2938</ele>
        <time>2017-05-10T08:47:48Z</time>
      </trkpt>
      <trkpt lat="45.27078" lon="6.61252">
        <ele>2939</ele>
        <time>2017-05-10T08:47:55Z</time>
      </trkpt>
      <trkpt lat="45.27077" lon="6.61257">
        <ele>2941</ele>
        <time>2017-05-10T08:48:04Z</time>
      </trkpt>
      <trkpt lat="45.27079" lon="6.61264">
        <ele>2941</ele>
        <time>2017-05-10T08:48:11Z</time>
      </trkpt>
      <trkpt lat="45.27074" lon="6.61275">
        <ele>2944</ele>
        <time>2017-05-10T08:48:24Z</time>
      </trkpt>
      <trkpt lat="45.27072" lon="6.61279">
        <ele>2945</ele>
        <time>2017-05-10T08:48:30Z</time>
      </trkpt>
      <trkpt lat="45.27071" lon="6.61292">
        <ele>2947</ele>
        <time>2017-05-10T08:48:50Z</time>
      </trkpt>
      <trkpt lat="45.27069" lon="6.61295">
        <ele>2948</ele>
        <time>2017-05-10T08:49:00Z</time>
      </trkpt>
      <trkpt lat="45.27058" lon="6.61294">
        <ele>2948</ele>
        <time>2017-05-10T08:49:20Z</time>
      </trkpt>
      <trkpt lat="45.27051" lon="6.61294">
        <ele>2951</ele>
        <time>2017-05-10T08:49:34Z</time>
      </trkpt>
      <trkpt lat="45.27048" lon="6.61294">
        <ele>2953</ele>
        <time>2017-05-10T08:49:45Z</time>
      </trkpt>
      <trkpt lat="45.27045" lon="6.61293">
        <ele>2954</ele>
        <time>2017-05-10T08:50:00Z</time>
      </trkpt>
      <trkpt lat="45.27042" lon="6.61291">
        <ele>2954</ele>
        <time>2017-05-10T08:50:06Z</time>
      </trkpt>
      <trkpt lat="45.27039" lon="6.61289">
        <ele>2955</ele>
        <time>2017-05-10T08:50:13Z</time>
      </trkpt>
      <trkpt lat="45.27037" lon="6.61291">
        <ele>2956</ele>
        <time>2017-05-10T08:50:22Z</time>
      </trkpt>
      <trkpt lat="45.27036" lon="6.61302">
        <ele>2959</ele>
        <time>2017-05-10T08:50:35Z</time>
      </trkpt>
      <trkpt lat="45.27042" lon="6.61321">
        <ele>2964</ele>
        <time>2017-05-10T08:51:04Z</time>
      </trkpt>
      <trkpt lat="45.27043" lon="6.61324">
        <ele>2964</ele>
        <time>2017-05-10T08:51:12Z</time>
      </trkpt>
      <trkpt lat="45.27044" lon="6.61328">
        <ele>2963</ele>
        <time>2017-05-10T08:51:23Z</time>
      </trkpt>
      <trkpt lat="45.27047" lon="6.61331">
        <ele>2964</ele>
        <time>2017-05-10T08:51:28Z</time>
      </trkpt>
      <trkpt lat="45.27048" lon="6.61336">
        <ele>2967</ele>
        <time>2017-05-10T08:51:35Z</time>
      </trkpt>
      <trkpt lat="45.27047" lon="6.61342">
        <ele>2970</ele>
        <time>2017-05-10T08:51:46Z</time>
      </trkpt>
      <trkpt lat="45.27049" lon="6.61349">
        <ele>2973</ele>
        <time>2017-05-10T08:51:51Z</time>
      </trkpt>
      <trkpt lat="45.27046" lon="6.61348">
        <ele>2975</ele>
        <time>2017-05-10T08:52:00Z</time>
      </trkpt>
      <trkpt lat="45.2704" lon="6.61346">
        <ele>2976</ele>
        <time>2017-05-10T08:52:11Z</time>
      </trkpt>
      <trkpt lat="45.27038" lon="6.6135">
        <ele>2979</ele>
        <time>2017-05-10T08:52:18Z</time>
      </trkpt>
      <trkpt lat="45.27042" lon="6.61363">
        <ele>2983</ele>
        <time>2017-05-10T08:52:34Z</time>
      </trkpt>
      <trkpt lat="45.27049" lon="6.61383">
        <ele>2984</ele>
        <time>2017-05-10T08:52:54Z</time>
      </trkpt>
      <trkpt lat="45.27049" lon="6.61389">
        <ele>2983</ele>
        <time>2017-05-10T08:53:01Z</time>
      </trkpt>
      <trkpt lat="45.27053" lon="6.61395">
        <ele>2982</ele>
        <time>2017-05-10T08:53:09Z</time>
      </trkpt>
      <trkpt lat="45.27052" lon="6.61401">
        <ele>2983</ele>
        <time>2017-05-10T08:53:17Z</time>
      </trkpt>
      <trkpt lat="45.27049" lon="6.61404">
        <ele>2984</ele>
        <time>2017-05-10T08:53:25Z</time>
      </trkpt>
      <trkpt lat="45.27046" lon="6.61407">
        <ele>2985</ele>
        <time>2017-05-10T08:53:30Z</time>
      </trkpt>
      <trkpt lat="45.27046" lon="6.61413">
        <ele>2986</ele>
        <time>2017-05-10T08:53:37Z</time>
      </trkpt>
      <trkpt lat="45.27049" lon="6.61428">
        <ele>2991</ele>
        <time>2017-05-10T08:53:57Z</time>
      </trkpt>
      <trkpt lat="45.27047" lon="6.61434">
        <ele>2991</ele>
        <time>2017-05-10T08:54:09Z</time>
      </trkpt>
      <trkpt lat="45.27047" lon="6.61442">
        <ele>2993</ele>
        <time>2017-05-10T08:54:18Z</time>
      </trkpt>
      <trkpt lat="45.27048" lon="6.61449">
        <ele>2992</ele>
        <time>2017-05-10T08:54:35Z</time>
      </trkpt>
      <trkpt lat="45.27046" lon="6.61453">
        <ele>2992</ele>
        <time>2017-05-10T08:54:43Z</time>
      </trkpt>
      <trkpt lat="45.27052" lon="6.61464">
        <ele>2995</ele>
        <time>2017-05-10T08:54:59Z</time>
      </trkpt>
      <trkpt lat="45.27055" lon="6.61471">
        <ele>2999</ele>
        <time>2017-05-10T08:55:33Z</time>
      </trkpt>
      <trkpt lat="45.27061" lon="6.61479">
        <ele>3001</ele>
        <time>2017-05-10T08:55:57Z</time>
      </trkpt>
      <trkpt lat="45.27067" lon="6.61496">
        <ele>3006</ele>
        <time>2017-05-10T08:56:13Z</time>
      </trkpt>
      <trkpt lat="45.27073" lon="6.61501">
        <ele>3009</ele>
        <time>2017-05-10T08:56:26Z</time>
      </trkpt>
      <trkpt lat="45.27074" lon="6.61505">
        <ele>3012</ele>
        <time>2017-05-10T08:56:34Z</time>
      </trkpt>
      <trkpt lat="45.27071" lon="6.61508">
        <ele>3012</ele>
        <time>2017-05-10T08:56:41Z</time>
      </trkpt>
      <trkpt lat="45.27064" lon="6.61517">
        <ele>3016</ele>
        <time>2017-05-10T08:57:00Z</time>
      </trkpt>
      <trkpt lat="45.27065" lon="6.61522">
        <ele>3016</ele>
        <time>2017-05-10T08:57:06Z</time>
      </trkpt>
      <trkpt lat="45.27068" lon="6.61526">
        <ele>3017</ele>
        <time>2017-05-10T08:57:12Z</time>
      </trkpt>
      <trkpt lat="45.27072" lon="6.61529">
        <ele>3020</ele>
        <time>2017-05-10T08:57:18Z</time>
      </trkpt>
      <trkpt lat="45.27075" lon="6.61531">
        <ele>3021</ele>
        <time>2017-05-10T08:57:26Z</time>
      </trkpt>
      <trkpt lat="45.27085" lon="6.6154">
        <ele>3024</ele>
        <time>2017-05-10T08:57:51Z</time>
      </trkpt>
      <trkpt lat="45.27085" lon="6.61545">
        <ele>3025</ele>
        <time>2017-05-10T08:57:58Z</time>
      </trkpt>
      <trkpt lat="45.27083" lon="6.61547">
        <ele>3026</ele>
        <time>2017-05-10T08:58:03Z</time>
      </trkpt>
      <trkpt lat="45.27083" lon="6.61551">
        <ele>3026</ele>
        <time>2017-05-10T08:58:11Z</time>
      </trkpt>
      <trkpt lat="45.27083" lon="6.6156">
        <ele>3025</ele>
        <time>2017-05-10T08:58:26Z</time>
      </trkpt>
      <trkpt lat="45.27081" lon="6.61564">
        <ele>3026</ele>
        <time>2017-05-10T08:58:32Z</time>
      </trkpt>
      <trkpt lat="45.27074" lon="6.61572">
        <ele>3027</ele>
        <time>2017-05-10T08:58:53Z</time>
      </trkpt>
      <trkpt lat="45.27063" lon="6.61581">
        <ele>3030</ele>
        <time>2017-05-10T08:59:21Z</time>
      </trkpt>
      <trkpt lat="45.27058" lon="6.61583">
        <ele>3032</ele>
        <time>2017-05-10T08:59:37Z</time>
      </trkpt>
      <trkpt lat="45.27045" lon="6.61583">
        <ele>3036</ele>
        <time>2017-05-10T09:00:00Z</time>
      </trkpt>
      <trkpt lat="45.2704" lon="6.61584">
        <ele>3039</ele>
        <time>2017-05-10T09:00:10Z</time>
      </trkpt>
      <trkpt lat="45.2704" lon="6.61588">
        <ele>3039</ele>
        <time>2017-05-10T09:00:19Z</time>
      </trkpt>
      <trkpt lat="45.27041" lon="6.61592">
        <ele>3042</ele>
        <time>2017-05-10T09:00:25Z</time>
      </trkpt>
      <trkpt lat="45.27044" lon="6.61599">
        <ele>3046</ele>
        <time>2017-05-10T09:00:39Z</time>
      </trkpt>
      <trkpt lat="45.27048" lon="6.61615">
        <ele>3050</ele>
        <time>2017-05-10T09:01:03Z</time>
      </trkpt>
      <trkpt lat="45.27055" lon="6.61634">
        <ele>3050</ele>
        <time>2017-05-10T09:01:31Z</time>
      </trkpt>
      <trkpt lat="45.27053" lon="6.61638">
        <ele>3051</ele>
        <time>2017-05-10T09:01:45Z</time>
      </trkpt>
      <trkpt lat="45.27051" lon="6.61639">
        <ele>3051</ele>
        <time>2017-05-10T09:01:51Z</time>
      </trkpt>
      <trkpt lat="45.27045" lon="6.61641">
        <ele>3052</ele>
        <time>2017-05-10T09:02:04Z</time>
      </trkpt>
      <trkpt lat="45.27039" lon="6.6164">
        <ele>3052</ele>
        <time>2017-05-10T09:02:15Z</time>
      </trkpt>
      <trkpt lat="45.27036" lon="6.61639">
        <ele>3053</ele>
        <time>2017-05-10T09:02:19Z</time>
      </trkpt>
      <trkpt lat="45.27034" lon="6.61642">
        <ele>3057</ele>
        <time>2017-05-10T09:02:31Z</time>
      </trkpt>
      <trkpt lat="45.27038" lon="6.61663">
        <ele>3064</ele>
        <time>2017-05-10T09:03:03Z</time>
      </trkpt>
      <trkpt lat="45.27036" lon="6.61666">
        <ele>3066</ele>
        <time>2017-05-10T09:03:12Z</time>
      </trkpt>
      <trkpt lat="45.2703" lon="6.61669">
        <ele>3068</ele>
        <time>2017-05-10T09:03:22Z</time>
      </trkpt>
      <trkpt lat="45.27029" lon="6.61672">
        <ele>3069</ele>
        <time>2017-05-10T09:03:27Z</time>
      </trkpt>
      <trkpt lat="45.27018" lon="6.61681">
        <ele>3074</ele>
        <time>2017-05-10T09:03:58Z</time>
      </trkpt>
      <trkpt lat="45.27013" lon="6.61683">
        <ele>3075</ele>
        <time>2017-05-10T09:04:11Z</time>
      </trkpt>
      <trkpt lat="45.27007" lon="6.61687">
        <ele>3077</ele>
        <time>2017-05-10T09:04:24Z</time>
      </trkpt>
      <trkpt lat="45.27006" lon="6.61695">
        <ele>3079</ele>
        <time>2017-05-10T09:04:36Z</time>
      </trkpt>
      <trkpt lat="45.27001" lon="6.61716">
        <ele>3086</ele>
        <time>2017-05-10T09:05:04Z</time>
      </trkpt>
      <trkpt lat="45.26989" lon="6.61735">
        <ele>3093</ele>
        <time>2017-05-10T09:05:36Z</time>
      </trkpt>
      <trkpt lat="45.26987" lon="6.61738">
        <ele>3093</ele>
        <time>2017-05-10T09:05:41Z</time>
      </trkpt>
      <trkpt lat="45.26986" lon="6.61742">
        <ele>3094</ele>
        <time>2017-05-10T09:05:47Z</time>
      </trkpt>
      <trkpt lat="45.26989" lon="6.61745">
        <ele>3094</ele>
        <time>2017-05-10T09:05:53Z</time>
      </trkpt>
      <trkpt lat="45.26992" lon="6.61753">
        <ele>3096</ele>
        <time>2017-05-10T09:06:04Z</time>
      </trkpt>
      <trkpt lat="45.27002" lon="6.61771">
        <ele>3101</ele>
        <time>2017-05-10T09:06:37Z</time>
      </trkpt>
      <trkpt lat="45.27003" lon="6.61775">
        <ele>3102</ele>
        <time>2017-05-10T09:06:52Z</time>
      </trkpt>
      <trkpt lat="45.27004" lon="6.61779">
        <ele>3106</ele>
        <time>2017-05-10T09:16:37Z</time>
      </trkpt>
      <trkpt lat="45.27004" lon="6.61788">
        <ele>3106</ele>
        <time>2017-05-10T09:16:47Z</time>
      </trkpt>
      <trkpt lat="45.27004" lon="6.61796">
        <ele>3107</ele>
        <time>2017-05-10T09:16:59Z</time>
      </trkpt>
      <trkpt lat="45.27007" lon="6.61796">
        <ele>3110</ele>
        <time>2017-05-10T09:17:49Z</time>
      </trkpt>
      <trkpt lat="45.27008" lon="6.618">
        <ele>3108</ele>
        <time>2017-05-10T09:32:12Z</time>
      </trkpt>
      <trkpt lat="45.27008" lon="6.61804">
        <ele>3108</ele>
        <time>2017-05-10T09:32:17Z</time>
      </trkpt>
      <trkpt lat="45.27007" lon="6.61809">
        <ele>3105</ele>
        <time>2017-05-10T09:32:23Z</time>
      </trkpt>
      <trkpt lat="45.2701" lon="6.61816">
        <ele>3105</ele>
        <time>2017-05-10T09:32:57Z</time>
      </trkpt>
      <trkpt lat="45.27013" lon="6.61843">
        <ele>3106</ele>
        <time>2017-05-10T09:33:29Z</time>
      </trkpt>
      <trkpt lat="45.27014" lon="6.61852">
        <ele>3106</ele>
        <time>2017-05-10T09:33:38Z</time>
      </trkpt>
      <trkpt lat="45.27013" lon="6.61855">
        <ele>3107</ele>
        <time>2017-05-10T09:33:43Z</time>
      </trkpt>
      <trkpt lat="45.27018" lon="6.61875">
        <ele>3108</ele>
        <time>2017-05-10T09:34:05Z</time>
      </trkpt>
      <trkpt lat="45.27022" lon="6.619">
        <ele>3113</ele>
        <time>2017-05-10T09:34:38Z</time>
      </trkpt>
      <trkpt lat="45.27026" lon="6.61929">
        <ele>3117</ele>
        <time>2017-05-10T09:35:10Z</time>
      </trkpt>
      <trkpt lat="45.27029" lon="6.61942">
        <ele>3116</ele>
        <time>2017-05-10T09:35:23Z</time>
      </trkpt>
      <trkpt lat="45.27029" lon="6.61946">
        <ele>3117</ele>
        <time>2017-05-10T09:35:27Z</time>
      </trkpt>
      <trkpt lat="45.27033" lon="6.61979">
        <ele>3122</ele>
        <time>2017-05-10T09:36:00Z</time>
      </trkpt>
      <trkpt lat="45.27037" lon="6.62011">
        <ele>3123</ele>
        <time>2017-05-10T09:36:32Z</time>
      </trkpt>
      <trkpt lat="45.27044" lon="6.6204">
        <ele>3124</ele>
        <time>2017-05-10T09:37:04Z</time>
      </trkpt>
      <trkpt lat="45.27052" lon="6.62069">
        <ele>3129</ele>
        <time>2017-05-10T09:37:34Z</time>
      </trkpt>
      <trkpt lat="45.27056" lon="6.62086">
        <ele>3135</ele>
        <time>2017-05-10T09:42:28Z</time>
      </trkpt>
      <trkpt lat="45.27059" lon="6.62099">
        <ele>3136</ele>
        <time>2017-05-10T09:42:37Z</time>
      </trkpt>
      <trkpt lat="45.27064" lon="6.62135">
        <ele>3138</ele>
        <time>2017-05-10T09:43:07Z</time>
      </trkpt>
      <trkpt lat="45.27067" lon="6.62171">
        <ele>3140</ele>
        <time>2017-05-10T09:43:39Z</time>
      </trkpt>
      <trkpt lat="45.27069" lon="6.62175">
        <ele>3140</ele>
        <time>2017-05-10T09:43:42Z</time>
      </trkpt>
      <trkpt lat="45.27075" lon="6.62211">
        <ele>3143</ele>
        <time>2017-05-10T09:44:15Z</time>
      </trkpt>
      <trkpt lat="45.27082" lon="6.62244">
        <ele>3145</ele>
        <time>2017-05-10T09:44:45Z</time>
      </trkpt>
      <trkpt lat="45.27089" lon="6.62281">
        <ele>3147</ele>
        <time>2017-05-10T09:45:19Z</time>
      </trkpt>
      <trkpt lat="45.27091" lon="6.62305">
        <ele>3148</ele>
        <time>2017-05-10T09:45:40Z</time>
      </trkpt>
      <trkpt lat="45.27092" lon="6.6231">
        <ele>3148</ele>
        <time>2017-05-10T09:45:45Z</time>
      </trkpt>
      <trkpt lat="45.27092" lon="6.62337">
        <ele>3149</ele>
        <time>2017-05-10T09:46:09Z</time>
      </trkpt>
      <trkpt lat="45.27093" lon="6.62355">
        <ele>3150</ele>
        <time>2017-05-10T09:46:31Z</time>
      </trkpt>
      <trkpt lat="45.27093" lon="6.62359">
        <ele>3152</ele>
        <time>2017-05-10T09:48:04Z</time>
      </trkpt>
      <trkpt lat="45.27096" lon="6.62361">
        <ele>3153</ele>
        <time>2017-05-10T09:48:39Z</time>
      </trkpt>
      <trkpt lat="45.27105" lon="6.62357">
        <ele>3156</ele>
        <time>2017-05-10T09:48:51Z</time>
      </trkpt>
      <trkpt lat="45.27118" lon="6.62343">
        <ele>3160</ele>
        <time>2017-05-10T09:49:12Z</time>
      </trkpt>
      <trkpt lat="45.27142" lon="6.62316">
        <ele>3161</ele>
        <time>2017-05-10T09:49:44Z</time>
      </trkpt>
      <trkpt lat="45.27153" lon="6.623">
        <ele>3162</ele>
        <time>2017-05-10T09:49:59Z</time>
      </trkpt>
      <trkpt lat="45.27173" lon="6.62263">
        <ele>3162</ele>
        <time>2017-05-10T09:50:31Z</time>
      </trkpt>
      <trkpt lat="45.27195" lon="6.62229">
        <ele>3163</ele>
        <time>2017-05-10T09:51:02Z</time>
      </trkpt>
      <trkpt lat="45.27215" lon="6.62195">
        <ele>3164</ele>
        <time>2017-05-10T09:51:34Z</time>
      </trkpt>
      <trkpt lat="45.27222" lon="6.62186">
        <ele>3165</ele>
        <time>2017-05-10T09:51:42Z</time>
      </trkpt>
      <trkpt lat="45.27238" lon="6.62163">
        <ele>3162</ele>
        <time>2017-05-10T09:52:09Z</time>
      </trkpt>
      <trkpt lat="45.27257" lon="6.62133">
        <ele>3158</ele>
        <time>2017-05-10T09:52:39Z</time>
      </trkpt>
      <trkpt lat="45.27269" lon="6.62112">
        <ele>3160</ele>
        <time>2017-05-10T09:52:58Z</time>
      </trkpt>
      <trkpt lat="45.2729" lon="6.62077">
        <ele>3163</ele>
        <time>2017-05-10T09:53:29Z</time>
      </trkpt>
      <trkpt lat="45.27297" lon="6.62064">
        <ele>3162</ele>
        <time>2017-05-10T09:53:42Z</time>
      </trkpt>
      <trkpt lat="45.27307" lon="6.62047">
        <ele>3162</ele>
        <time>2017-05-10T09:54:00Z</time>
      </trkpt>
      <trkpt lat="45.27308" lon="6.62042">
        <ele>3163</ele>
        <time>2017-05-10T09:54:05Z</time>
      </trkpt>
      <trkpt lat="45.27315" lon="6.62026">
        <ele>3163</ele>
        <time>2017-05-10T09:54:23Z</time>
      </trkpt>
      <trkpt lat="45.27327" lon="6.62002">
        <ele>3170</ele>
        <time>2017-05-10T09:54:57Z</time>
      </trkpt>
      <trkpt lat="45.27332" lon="6.6199">
        <ele>3171</ele>
        <time>2017-05-10T09:55:17Z</time>
      </trkpt>
      <trkpt lat="45.27331" lon="6.61986">
        <ele>3172</ele>
        <time>2017-05-10T09:55:24Z</time>
      </trkpt>
      <trkpt lat="45.27333" lon="6.61983">
        <ele>3172</ele>
        <time>2017-05-10T09:55:29Z</time>
      </trkpt>
      <trkpt lat="45.27338" lon="6.61959">
        <ele>3176</ele>
        <time>2017-05-10T09:56:02Z</time>
      </trkpt>
      <trkpt lat="45.27343" lon="6.61936">
        <ele>3180</ele>
        <time>2017-05-10T09:56:33Z</time>
      </trkpt>
      <trkpt lat="45.27347" lon="6.61916">
        <ele>3184</ele>
        <time>2017-05-10T09:57:05Z</time>
      </trkpt>
      <trkpt lat="45.2735" lon="6.61908">
        <ele>3186</ele>
        <time>2017-05-10T09:57:19Z</time>
      </trkpt>
      <trkpt lat="45.27349" lon="6.61904">
        <ele>3187</ele>
        <time>2017-05-10T09:57:24Z</time>
      </trkpt>
      <trkpt lat="45.27353" lon="6.61904">
        <ele>3186</ele>
        <time>2017-05-10T09:57:27Z</time>
      </trkpt>
      <trkpt lat="45.27356" lon="6.61907">
        <ele>3187</ele>
        <time>2017-05-10T09:57:34Z</time>
      </trkpt>
      <trkpt lat="45.27368" lon="6.61921">
        <ele>3189</ele>
        <time>2017-05-10T09:58:09Z</time>
      </trkpt>
      <trkpt lat="45.27378" lon="6.61936">
        <ele>3194</ele>
        <time>2017-05-10T09:58:43Z</time>
      </trkpt>
      <trkpt lat="45.27383" lon="6.61946">
        <ele>3194</ele>
        <time>2017-05-10T09:59:06Z</time>
      </trkpt>
      <trkpt lat="45.27386" lon="6.61946">
        <ele>3195</ele>
        <time>2017-05-10T09:59:11Z</time>
      </trkpt>
      <trkpt lat="45.27391" lon="6.61957">
        <ele>3196</ele>
        <time>2017-05-10T09:59:29Z</time>
      </trkpt>
      <trkpt lat="45.27394" lon="6.61955">
        <ele>3199</ele>
        <time>2017-05-10T09:59:37Z</time>
      </trkpt>
      <trkpt lat="45.27402" lon="6.61946">
        <ele>3201</ele>
        <time>2017-05-10T09:59:58Z</time>
      </trkpt>
      <trkpt lat="45.27414" lon="6.61933">
        <ele>3202</ele>
        <time>2017-05-10T10:00:32Z</time>
      </trkpt>
      <trkpt lat="45.27426" lon="6.61919">
        <ele>3208</ele>
        <time>2017-05-10T10:01:05Z</time>
      </trkpt>
      <trkpt lat="45.2744" lon="6.61904">
        <ele>3214</ele>
        <time>2017-05-10T10:01:38Z</time>
      </trkpt>
      <trkpt lat="45.27451" lon="6.61889">
        <ele>3219</ele>
        <time>2017-05-10T10:02:10Z</time>
      </trkpt>
      <trkpt lat="45.27454" lon="6.61883">
        <ele>3221</ele>
        <time>2017-05-10T10:02:20Z</time>
      </trkpt>
      <trkpt lat="45.2746" lon="6.6188">
        <ele>3223</ele>
        <time>2017-05-10T10:02:33Z</time>
      </trkpt>
      <trkpt lat="45.27468" lon="6.61877">
        <ele>3231</ele>
        <time>2017-05-10T10:02:54Z</time>
      </trkpt>
      <trkpt lat="45.27477" lon="6.61871">
        <ele>3236</ele>
        <time>2017-05-10T10:03:29Z</time>
      </trkpt>
      <trkpt lat="45.27489" lon="6.6187">
        <ele>3237</ele>
        <time>2017-05-10T10:04:03Z</time>
      </trkpt>
      <trkpt lat="45.27491" lon="6.61874">
        <ele>3236</ele>
        <time>2017-05-10T10:04:09Z</time>
      </trkpt>
      <trkpt lat="45.27494" lon="6.61875">
        <ele>3237</ele>
        <time>2017-05-10T10:04:13Z</time>
      </trkpt>
      <trkpt lat="45.27497" lon="6.61879">
        <ele>3239</ele>
        <time>2017-05-10T10:04:21Z</time>
      </trkpt>
      <trkpt lat="45.27498" lon="6.61887">
        <ele>3242</ele>
        <time>2017-05-10T10:04:48Z</time>
      </trkpt>
      <trkpt lat="45.275" lon="6.61895">
        <ele>3242</ele>
        <time>2017-05-10T10:05:06Z</time>
      </trkpt>
      <trkpt lat="45.27502" lon="6.61898">
        <ele>3242</ele>
        <time>2017-05-10T10:05:11Z</time>
      </trkpt>
      <trkpt lat="45.27505" lon="6.61916">
        <ele>3242</ele>
        <time>2017-05-10T10:05:31Z</time>
      </trkpt>
      <trkpt lat="45.27506" lon="6.6192">
        <ele>3243</ele>
        <time>2017-05-10T10:05:39Z</time>
      </trkpt>
      <trkpt lat="45.2751" lon="6.61941">
        <ele>3247</ele>
        <time>2017-05-10T10:06:12Z</time>
      </trkpt>
      <trkpt lat="45.27515" lon="6.61956">
        <ele>3250</ele>
        <time>2017-05-10T10:06:43Z</time>
      </trkpt>
      <trkpt lat="45.27516" lon="6.6197">
        <ele>3253</ele>
        <time>2017-05-10T10:07:01Z</time>
      </trkpt>
      <trkpt lat="45.2752" lon="6.61985">
        <ele>3255</ele>
        <time>2017-05-10T10:07:28Z</time>
      </trkpt>
      <trkpt lat="45.27522" lon="6.61997">
        <ele>3258</ele>
        <time>2017-05-10T10:07:46Z</time>
      </trkpt>
      <trkpt lat="45.27523" lon="6.62005">
        <ele>3260</ele>
        <time>2017-05-10T10:07:59Z</time>
      </trkpt>
      <trkpt lat="45.27521" lon="6.62008">
        <ele>3261</ele>
        <time>2017-05-10T10:08:08Z</time>
      </trkpt>
      <trkpt lat="45.27521" lon="6.62012">
        <ele>3261</ele>
        <time>2017-05-10T10:08:14Z</time>
      </trkpt>
      <trkpt lat="45.27524" lon="6.62032">
        <ele>3263</ele>
        <time>2017-05-10T10:08:45Z</time>
      </trkpt>
      <trkpt lat="45.27526" lon="6.62045">
        <ele>3267</ele>
        <time>2017-05-10T10:09:09Z</time>
      </trkpt>
      <trkpt lat="45.27528" lon="6.62066">
        <ele>3270</ele>
        <time>2017-05-10T10:09:40Z</time>
      </trkpt>
      <trkpt lat="45.2753" lon="6.62076">
        <ele>3271</ele>
        <time>2017-05-10T10:09:53Z</time>
      </trkpt>
      <trkpt lat="45.27532" lon="6.62076">
        <ele>3272</ele>
        <time>2017-05-10T10:10:00Z</time>
      </trkpt>
      <trkpt lat="45.27536" lon="6.62074">
        <ele>3272</ele>
        <time>2017-05-10T10:10:28Z</time>
      </trkpt>
      <trkpt lat="45.27545" lon="6.62076">
        <ele>3273</ele>
        <time>2017-05-10T10:10:55Z</time>
      </trkpt>
      <trkpt lat="45.27551" lon="6.62078">
        <ele>3278</ele>
        <time>2017-05-10T10:11:17Z</time>
      </trkpt>
      <trkpt lat="45.27561" lon="6.62095">
        <ele>3285</ele>
        <time>2017-05-10T10:11:47Z</time>
      </trkpt>
      <trkpt lat="45.27562" lon="6.621">
        <ele>3285</ele>
        <time>2017-05-10T10:11:54Z</time>
      </trkpt>
      <trkpt lat="45.27568" lon="6.62116">
        <ele>3286</ele>
        <time>2017-05-10T10:12:26Z</time>
      </trkpt>
      <trkpt lat="45.27574" lon="6.62135">
        <ele>3288</ele>
        <time>2017-05-10T10:13:09Z</time>
      </trkpt>
      <trkpt lat="45.27577" lon="6.62156">
        <ele>3292</ele>
        <time>2017-05-10T10:13:43Z</time>
      </trkpt>
      <trkpt lat="45.27577" lon="6.62178">
        <ele>3292</ele>
        <time>2017-05-10T10:14:16Z</time>
      </trkpt>
      <trkpt lat="45.27577" lon="6.62182">
        <ele>3293</ele>
        <time>2017-05-10T10:14:22Z</time>
      </trkpt>
      <trkpt lat="45.27582" lon="6.62198">
        <ele>3299</ele>
        <time>2017-05-10T10:14:50Z</time>
      </trkpt>
      <trkpt lat="45.2759" lon="6.62216">
        <ele>3304</ele>
        <time>2017-05-10T10:15:20Z</time>
      </trkpt>
      <trkpt lat="45.27592" lon="6.62219">
        <ele>3304</ele>
        <time>2017-05-10T10:15:25Z</time>
      </trkpt>
      <trkpt lat="45.27593" lon="6.62224">
        <ele>3303</ele>
        <time>2017-05-10T10:15:29Z</time>
      </trkpt>
      <trkpt lat="45.27608" lon="6.62244">
        <ele>3309</ele>
        <time>2017-05-10T10:16:14Z</time>
      </trkpt>
      <trkpt lat="45.2761" lon="6.62248">
        <ele>3310</ele>
        <time>2017-05-10T10:16:21Z</time>
      </trkpt>
      <trkpt lat="45.27615" lon="6.62254">
        <ele>3314</ele>
        <time>2017-05-10T10:16:33Z</time>
      </trkpt>
      <trkpt lat="45.27621" lon="6.62281">
        <ele>3316</ele>
        <time>2017-05-10T10:17:07Z</time>
      </trkpt>
      <trkpt lat="45.27623" lon="6.62295">
        <ele>3317</ele>
        <time>2017-05-10T10:17:23Z</time>
      </trkpt>
      <trkpt lat="45.27629" lon="6.62315">
        <ele>3318</ele>
        <time>2017-05-10T10:17:49Z</time>
      </trkpt>
      <trkpt lat="45.2763" lon="6.62319">
        <ele>3319</ele>
        <time>2017-05-10T10:17:53Z</time>
      </trkpt>
      <trkpt lat="45.2763" lon="6.62328">
        <ele>3324</ele>
        <time>2017-05-10T10:18:38Z</time>
      </trkpt>
      <trkpt lat="45.27632" lon="6.62333">
        <ele>3326</ele>
        <time>2017-05-10T10:19:25Z</time>
      </trkpt>
      <trkpt lat="45.27633" lon="6.62365">
        <ele>3322</ele>
        <time>2017-05-10T10:19:54Z</time>
      </trkpt>
      <trkpt lat="45.27634" lon="6.62378">
        <ele>3322</ele>
        <time>2017-05-10T10:20:08Z</time>
      </trkpt>
      <trkpt lat="45.27639" lon="6.62408">
        <ele>3323</ele>
        <time>2017-05-10T10:20:41Z</time>
      </trkpt>
      <trkpt lat="45.27645" lon="6.62423">
        <ele>3324</ele>
        <time>2017-05-10T10:21:01Z</time>
      </trkpt>
      <trkpt lat="45.27649" lon="6.62443">
        <ele>3326</ele>
        <time>2017-05-10T10:21:22Z</time>
      </trkpt>
      <trkpt lat="45.27655" lon="6.62471">
        <ele>3327</ele>
        <time>2017-05-10T10:21:53Z</time>
      </trkpt>
      <trkpt lat="45.27659" lon="6.62502">
        <ele>3329</ele>
        <time>2017-05-10T10:22:26Z</time>
      </trkpt>
      <trkpt lat="45.2766" lon="6.62516">
        <ele>3327</ele>
        <time>2017-05-10T10:22:40Z</time>
      </trkpt>
      <trkpt lat="45.27663" lon="6.62542">
        <ele>3331</ele>
        <time>2017-05-10T10:23:11Z</time>
      </trkpt>
      <trkpt lat="45.27665" lon="6.62564">
        <ele>3333</ele>
        <time>2017-05-10T10:23:42Z</time>
      </trkpt>
      <trkpt lat="45.27665" lon="6.6257">
        <ele>3334</ele>
        <time>2017-05-10T10:23:48Z</time>
      </trkpt>
      <trkpt lat="45.27663" lon="6.62583">
        <ele>3336</ele>
        <time>2017-05-10T10:24:08Z</time>
      </trkpt>
      <trkpt lat="45.27659" lon="6.62608">
        <ele>3344</ele>
        <time>2017-05-10T10:24:42Z</time>
      </trkpt>
      <trkpt lat="45.27656" lon="6.6262">
        <ele>3349</ele>
        <time>2017-05-10T10:25:02Z</time>
      </trkpt>
      <trkpt lat="45.2765" lon="6.62635">
        <ele>3349</ele>
        <time>2017-05-10T10:25:27Z</time>
      </trkpt>
      <trkpt lat="45.27648" lon="6.62638">
        <ele>3351</ele>
        <time>2017-05-10T10:25:32Z</time>
      </trkpt>
      <trkpt lat="45.27649" lon="6.62642">
        <ele>3352</ele>
        <time>2017-05-10T10:25:41Z</time>
      </trkpt>
      <trkpt lat="45.27651" lon="6.62646">
        <ele>3355</ele>
        <time>2017-05-10T10:25:47Z</time>
      </trkpt>
      <trkpt lat="45.27666" lon="6.62658">
        <ele>3360</ele>
        <time>2017-05-10T10:26:25Z</time>
      </trkpt>
      <trkpt lat="45.27669" lon="6.62662">
        <ele>3361</ele>
        <time>2017-05-10T10:26:32Z</time>
      </trkpt>
      <trkpt lat="45.27671" lon="6.62663">
        <ele>3362</ele>
        <time>2017-05-10T10:26:45Z</time>
      </trkpt>
      <trkpt lat="45.27674" lon="6.62666">
        <ele>3362</ele>
        <time>2017-05-10T10:26:55Z</time>
      </trkpt>
      <trkpt lat="45.27674" lon="6.6267">
        <ele>3364</ele>
        <time>2017-05-10T10:27:19Z</time>
      </trkpt>
      <trkpt lat="45.27672" lon="6.62673">
        <ele>3365</ele>
        <time>2017-05-10T10:27:22Z</time>
      </trkpt>
      <trkpt lat="45.2767" lon="6.62676">
        <ele>3367</ele>
        <time>2017-05-10T10:27:29Z</time>
      </trkpt>
      <trkpt lat="45.27669" lon="6.6268">
        <ele>3366</ele>
        <time>2017-05-10T10:27:50Z</time>
      </trkpt>
      <trkpt lat="45.27666" lon="6.62682">
        <ele>3368</ele>
        <time>2017-05-10T10:28:08Z</time>
      </trkpt>
      <trkpt lat="45.27665" lon="6.62687">
        <ele>3372</ele>
        <time>2017-05-10T10:28:15Z</time>
      </trkpt>
      <trkpt lat="45.2766" lon="6.62702">
        <ele>3376</ele>
        <time>2017-05-10T10:28:46Z</time>
      </trkpt>
      <trkpt lat="45.27662" lon="6.62705">
        <ele>3376</ele>
        <time>2017-05-10T10:28:57Z</time>
      </trkpt>
      <trkpt lat="45.27658" lon="6.62708">
        <ele>3375</ele>
        <time>2017-05-10T10:29:07Z</time>
      </trkpt>
      <trkpt lat="45.27651" lon="6.62716">
        <ele>3378</ele>
        <time>2017-05-10T10:29:28Z</time>
      </trkpt>
      <trkpt lat="45.2765" lon="6.6272">
        <ele>3377</ele>
        <time>2017-05-10T10:29:34Z</time>
      </trkpt>
      <trkpt lat="45.27644" lon="6.62724">
        <ele>3378</ele>
        <time>2017-05-10T10:29:46Z</time>
      </trkpt>
      <trkpt lat="45.27641" lon="6.62731">
        <ele>3379</ele>
        <time>2017-05-10T10:30:22Z</time>
      </trkpt>
      <trkpt lat="45.27641" lon="6.62735">
        <ele>3381</ele>
        <time>2017-05-10T10:30:38Z</time>
      </trkpt>
      <trkpt lat="45.27638" lon="6.62738">
        <ele>3382</ele>
        <time>2017-05-10T10:30:49Z</time>
      </trkpt>
      <trkpt lat="45.27634" lon="6.62739">
        <ele>3385</ele>
        <time>2017-05-10T10:31:03Z</time>
      </trkpt>
      <trkpt lat="45.27632" lon="6.62744">
        <ele>3386</ele>
        <time>2017-05-10T10:31:10Z</time>
      </trkpt>
      <trkpt lat="45.2763" lon="6.62745">
        <ele>3386</ele>
        <time>2017-05-10T10:31:15Z</time>
      </trkpt>
      <trkpt lat="45.27628" lon="6.62748">
        <ele>3385</ele>
        <time>2017-05-10T10:31:24Z</time>
      </trkpt>
      <trkpt lat="45.27622" lon="6.62752">
        <ele>3385</ele>
        <time>2017-05-10T10:31:36Z</time>
      </trkpt>
      <trkpt lat="45.27617" lon="6.62756">
        <ele>3391</ele>
        <time>2017-05-10T10:32:05Z</time>
      </trkpt>
      <trkpt lat="45.2761" lon="6.62759">
        <ele>3390</ele>
        <time>2017-05-10T10:32:18Z</time>
      </trkpt>
      <trkpt lat="45.27614" lon="6.6276">
        <ele>3391</ele>
        <time>2017-05-10T10:32:57Z</time>
      </trkpt>
      <trkpt lat="45.27617" lon="6.6276">
        <ele>3392</ele>
        <time>2017-05-10T10:33:02Z</time>
      </trkpt>
      <trkpt lat="45.27623" lon="6.62762">
        <ele>3401</ele>
        <time>2017-05-10T10:33:17Z</time>
      </trkpt>
      <trkpt lat="45.27626" lon="6.62766">
        <ele>3403</ele>
        <time>2017-05-10T10:33:32Z</time>
      </trkpt>
      <trkpt lat="45.27631" lon="6.62769">
        <ele>3402</ele>
        <time>2017-05-10T10:33:56Z</time>
      </trkpt>
      <trkpt lat="45.27635" lon="6.6277">
        <ele>3403</ele>
        <time>2017-05-10T10:34:00Z</time>
      </trkpt>
      <trkpt lat="45.27637" lon="6.62772">
        <ele>3403</ele>
        <time>2017-05-10T10:34:11Z</time>
      </trkpt>
      <trkpt lat="45.27643" lon="6.62773">
        <ele>3408</ele>
        <time>2017-05-10T10:34:23Z</time>
      </trkpt>
      <trkpt lat="45.2766" lon="6.62777">
        <ele>3415</ele>
        <time>2017-05-10T10:34:59Z</time>
      </trkpt>
      <trkpt lat="45.27658" lon="6.62773">
        <ele>3416</ele>
        <time>2017-05-10T10:35:18Z</time>
      </trkpt>
      <trkpt lat="45.27655" lon="6.62774">
        <ele>3417</ele>
        <time>2017-05-10T10:35:24Z</time>
      </trkpt>
      <trkpt lat="45.27653" lon="6.62777">
        <ele>3417</ele>
        <time>2017-05-10T10:35:37Z</time>
      </trkpt>
      <trkpt lat="45.27647" lon="6.6278">
        <ele>3415</ele>
        <time>2017-05-10T10:36:04Z</time>
      </trkpt>
      <trkpt lat="45.27645" lon="6.62783">
        <ele>3415</ele>
        <time>2017-05-10T10:36:12Z</time>
      </trkpt>
      <trkpt lat="45.27642" lon="6.62783">
        <ele>3414</ele>
        <time>2017-05-10T10:36:19Z</time>
      </trkpt>
      <trkpt lat="45.27639" lon="6.62785">
        <ele>3412</ele>
        <time>2017-05-10T10:36:27Z</time>
      </trkpt>
      <trkpt lat="45.27637" lon="6.62788">
        <ele>3412</ele>
        <time>2017-05-10T10:36:42Z</time>
      </trkpt>
      <trkpt lat="45.27627" lon="6.62793">
        <ele>3416</ele>
        <time>2017-05-10T10:37:08Z</time>
      </trkpt>
      <trkpt lat="45.27625" lon="6.62794">
        <ele>3416</ele>
        <time>2017-05-10T10:37:15Z</time>
      </trkpt>
      <trkpt lat="45.27622" lon="6.62796">
        <ele>3416</ele>
        <time>2017-05-10T10:37:22Z</time>
      </trkpt>
      <trkpt lat="45.27616" lon="6.62799">
        <ele>3418</ele>
        <time>2017-05-10T10:37:39Z</time>
      </trkpt>
      <trkpt lat="45.2762" lon="6.62802">
        <ele>3421</ele>
        <time>2017-05-10T10:38:15Z</time>
      </trkpt>
      <trkpt lat="45.27632" lon="6.62805">
        <ele>3426</ele>
        <time>2017-05-10T10:38:44Z</time>
      </trkpt>
      <trkpt lat="45.27637" lon="6.62808">
        <ele>3430</ele>
        <time>2017-05-10T10:38:58Z</time>
      </trkpt>
      <trkpt lat="45.27641" lon="6.62809">
        <ele>3430</ele>
        <time>2017-05-10T10:39:14Z</time>
      </trkpt>
      <trkpt lat="45.27651" lon="6.62813">
        <ele>3434</ele>
        <time>2017-05-10T10:39:42Z</time>
      </trkpt>
      <trkpt lat="45.27649" lon="6.62815">
        <ele>3436</ele>
        <time>2017-05-10T10:39:55Z</time>
      </trkpt>
      <trkpt lat="45.27646" lon="6.62816">
        <ele>3435</ele>
        <time>2017-05-10T10:39:59Z</time>
      </trkpt>
      <trkpt lat="45.27643" lon="6.62819">
        <ele>3433</ele>
        <time>2017-05-10T10:40:06Z</time>
      </trkpt>
      <trkpt lat="45.27641" lon="6.6282">
        <ele>3432</ele>
        <time>2017-05-10T10:40:12Z</time>
      </trkpt>
      <trkpt lat="45.27639" lon="6.62823">
        <ele>3430</ele>
        <time>2017-05-10T10:40:18Z</time>
      </trkpt>
      <trkpt lat="45.27636" lon="6.62824">
        <ele>3428</ele>
        <time>2017-05-10T10:40:28Z</time>
      </trkpt>
      <trkpt lat="45.27638" lon="6.62827">
        <ele>3427</ele>
        <time>2017-05-10T10:40:35Z</time>
      </trkpt>
      <trkpt lat="45.27644" lon="6.6283">
        <ele>3426</ele>
        <time>2017-05-10T10:41:00Z</time>
      </trkpt>
      <trkpt lat="45.27643" lon="6.62826">
        <ele>3426</ele>
        <time>2017-05-10T10:41:22Z</time>
      </trkpt>
      <trkpt lat="45.27643" lon="6.62826">
        <ele>3433</ele>
        <time>2017-05-10T10:52:08Z</time>
      </trkpt>
      <trkpt lat="45.27643" lon="6.62826">
        <ele>3432</ele>
        <time>2017-05-10T10:56:49Z</time>
      </trkpt>
      <trkpt lat="45.2764" lon="6.62824">
        <ele>3432</ele>
        <time>2017-05-10T11:00:25Z</time>
      </trkpt>
      <trkpt lat="45.2764" lon="6.62824">
        <ele>3435</ele>
        <time>2017-05-10T11:01:12Z</time>
      </trkpt>
      <trkpt lat="45.27642" lon="6.62823">
        <ele>3436</ele>
        <time>2017-05-10T11:05:16Z</time>
      </trkpt>
      <trkpt lat="45.27642" lon="6.62823">
        <ele>3436</ele>
        <time>2017-05-10T11:07:42Z</time>
      </trkpt>
      <trkpt lat="45.27644" lon="6.6282">
        <ele>3437</ele>
        <time>2017-05-10T11:07:48Z</time>
      </trkpt>
      <trkpt lat="45.27643" lon="6.62816">
        <ele>3437</ele>
        <time>2017-05-10T11:07:59Z</time>
      </trkpt>
      <trkpt lat="45.27644" lon="6.62812">
        <ele>3436</ele>
        <time>2017-05-10T11:08:34Z</time>
      </trkpt>
      <trkpt lat="45.27645" lon="6.62808">
        <ele>3434</ele>
        <time>2017-05-10T11:08:37Z</time>
      </trkpt>
      <trkpt lat="45.27647" lon="6.62805">
        <ele>3432</ele>
        <time>2017-05-10T11:08:43Z</time>
      </trkpt>
      <trkpt lat="45.27648" lon="6.62801">
        <ele>3430</ele>
        <time>2017-05-10T11:08:47Z</time>
      </trkpt>
      <trkpt lat="45.27648" lon="6.62792">
        <ele>3426</ele>
        <time>2017-05-10T11:08:53Z</time>
      </trkpt>
      <trkpt lat="45.27646" lon="6.62789">
        <ele>3424</ele>
        <time>2017-05-10T11:08:57Z</time>
      </trkpt>
      <trkpt lat="45.27647" lon="6.6279">
        <ele>3420</ele>
        <time>2017-05-10T11:11:18Z</time>
      </trkpt>
      <trkpt lat="45.27646" lon="6.62794">
        <ele>3419</ele>
        <time>2017-05-10T11:11:30Z</time>
      </trkpt>
      <trkpt lat="45.27647" lon="6.62798">
        <ele>3420</ele>
        <time>2017-05-10T11:11:48Z</time>
      </trkpt>
      <trkpt lat="45.27647" lon="6.62806">
        <ele>3424</ele>
        <time>2017-05-10T11:12:29Z</time>
      </trkpt>
      <trkpt lat="45.27647" lon="6.62815">
        <ele>3430</ele>
        <time>2017-05-10T11:12:52Z</time>
      </trkpt>
      <trkpt lat="45.27646" lon="6.62818">
        <ele>3432</ele>
        <time>2017-05-10T11:13:05Z</time>
      </trkpt>
      <trkpt lat="45.27643" lon="6.62821">
        <ele>3433</ele>
        <time>2017-05-10T11:13:13Z</time>
      </trkpt>
      <trkpt lat="45.27641" lon="6.62828">
        <ele>3434</ele>
        <time>2017-05-10T11:13:32Z</time>
      </trkpt>
      <trkpt lat="45.27643" lon="6.62826">
        <ele>3434</ele>
        <time>2017-05-10T11:13:59Z</time>
      </trkpt>
      <trkpt lat="45.27645" lon="6.62823">
        <ele>3435</ele>
        <time>2017-05-10T11:15:38Z</time>
      </trkpt>
      <trkpt lat="45.27646" lon="6.62826">
        <ele>3435</ele>
        <time>2017-05-10T11:17:02Z</time>
      </trkpt>
      <trkpt lat="45.27643" lon="6.62827">
        <ele>3434</ele>
        <time>2017-05-10T11:18:27Z</time>
      </trkpt>
      <trkpt lat="45.27642" lon="6.62823">
        <ele>3435</ele>
        <time>2017-05-10T11:18:47Z</time>
      </trkpt>
      <trkpt lat="45.2764" lon="6.62826">
        <ele>3440</ele>
        <time>2017-05-10T11:20:01Z</time>
      </trkpt>
      <trkpt lat="45.2764" lon="6.6283">
        <ele>3440</ele>
        <time>2017-05-10T11:25:07Z</time>
      </trkpt>
      <trkpt lat="45.27639" lon="6.62828">
        <ele>3440</ele>
        <time>2017-05-10T11:25:37Z</time>
      </trkpt>
      <trkpt lat="45.27639" lon="6.62826">
        <ele>3440</ele>
        <time>2017-05-10T11:30:23Z</time>
      </trkpt>
      <trkpt lat="45.27636" lon="6.62824">
        <ele>3438</ele>
        <time>2017-05-10T11:30:25Z</time>
      </trkpt>
      <trkpt lat="45.27633" lon="6.62823">
        <ele>3437</ele>
        <time>2017-05-10T11:34:22Z</time>
      </trkpt>
      <trkpt lat="45.27635" lon="6.62819">
        <ele>3437</ele>
        <time>2017-05-10T11:38:39Z</time>
      </trkpt>
      <trkpt lat="45.27628" lon="6.62814">
        <ele>3435</ele>
        <time>2017-05-10T11:38:43Z</time>
      </trkpt>
      <trkpt lat="45.2763" lon="6.62811">
        <ele>3433</ele>
        <time>2017-05-10T11:38:46Z</time>
      </trkpt>
      <trkpt lat="45.2764" lon="6.62807">
        <ele>3430</ele>
        <time>2017-05-10T11:38:52Z</time>
      </trkpt>
      <trkpt lat="45.27638" lon="6.62804">
        <ele>3429</ele>
        <time>2017-05-10T11:39:08Z</time>
      </trkpt>
      <trkpt lat="45.27635" lon="6.62803">
        <ele>3429</ele>
        <time>2017-05-10T11:39:10Z</time>
      </trkpt>
      <trkpt lat="45.27626" lon="6.6279">
        <ele>3421</ele>
        <time>2017-05-10T11:39:36Z</time>
      </trkpt>
      <trkpt lat="45.27624" lon="6.62786">
        <ele>3419</ele>
        <time>2017-05-10T11:39:41Z</time>
      </trkpt>
      <trkpt lat="45.27622" lon="6.62784">
        <ele>3418</ele>
        <time>2017-05-10T11:39:49Z</time>
      </trkpt>
      <trkpt lat="45.27618" lon="6.62782">
        <ele>3417</ele>
        <time>2017-05-10T11:39:51Z</time>
      </trkpt>
      <trkpt lat="45.27553" lon="6.62739">
        <ele>3391</ele>
        <time>2017-05-10T11:40:21Z</time>
      </trkpt>
      <trkpt lat="45.27529" lon="6.62722">
        <ele>3384</ele>
        <time>2017-05-10T11:40:40Z</time>
      </trkpt>
      <trkpt lat="45.27519" lon="6.62713">
        <ele>3382</ele>
        <time>2017-05-10T11:40:50Z</time>
      </trkpt>
      <trkpt lat="45.27513" lon="6.62709">
        <ele>3380</ele>
        <time>2017-05-10T11:40:52Z</time>
      </trkpt>
      <trkpt lat="45.27503" lon="6.62706">
        <ele>3378</ele>
        <time>2017-05-10T11:40:55Z</time>
      </trkpt>
      <trkpt lat="45.27504" lon="6.62701">
        <ele>3376</ele>
        <time>2017-05-10T11:40:57Z</time>
      </trkpt>
      <trkpt lat="45.27513" lon="6.62697">
        <ele>3373</ele>
        <time>2017-05-10T11:40:59Z</time>
      </trkpt>
      <trkpt lat="45.27551" lon="6.62693">
        <ele>3368</ele>
        <time>2017-05-10T11:41:07Z</time>
      </trkpt>
      <trkpt lat="45.27553" lon="6.6269">
        <ele>3368</ele>
        <time>2017-05-10T11:41:08Z</time>
      </trkpt>
      <trkpt lat="45.2755" lon="6.62684">
        <ele>3367</ele>
        <time>2017-05-10T11:41:09Z</time>
      </trkpt>
      <trkpt lat="45.27542" lon="6.62678">
        <ele>3365</ele>
        <time>2017-05-10T11:41:11Z</time>
      </trkpt>
      <trkpt lat="45.27527" lon="6.62664">
        <ele>3361</ele>
        <time>2017-05-10T11:41:15Z</time>
      </trkpt>
      <trkpt lat="45.27526" lon="6.62657">
        <ele>3360</ele>
        <time>2017-05-10T11:41:16Z</time>
      </trkpt>
      <trkpt lat="45.27529" lon="6.62653">
        <ele>3358</ele>
        <time>2017-05-10T11:41:17Z</time>
      </trkpt>
      <trkpt lat="45.27539" lon="6.62649">
        <ele>3356</ele>
        <time>2017-05-10T11:41:19Z</time>
      </trkpt>
      <trkpt lat="45.27544" lon="6.62647">
        <ele>3355</ele>
        <time>2017-05-10T11:41:20Z</time>
      </trkpt>
      <trkpt lat="45.27547" lon="6.6264">
        <ele>3354</ele>
        <time>2017-05-10T11:41:21Z</time>
      </trkpt>
      <trkpt lat="45.27545" lon="6.62633">
        <ele>3352</ele>
        <time>2017-05-10T11:41:22Z</time>
      </trkpt>
      <trkpt lat="45.27536" lon="6.62622">
        <ele>3350</ele>
        <time>2017-05-10T11:41:24Z</time>
      </trkpt>
      <trkpt lat="45.27512" lon="6.62602">
        <ele>3348</ele>
        <time>2017-05-10T11:41:29Z</time>
      </trkpt>
      <trkpt lat="45.27495" lon="6.6258">
        <ele>3346</ele>
        <time>2017-05-10T11:41:34Z</time>
      </trkpt>
      <trkpt lat="45.27492" lon="6.62574">
        <ele>3346</ele>
        <time>2017-05-10T11:41:35Z</time>
      </trkpt>
      <trkpt lat="45.27493" lon="6.62568">
        <ele>3345</ele>
        <time>2017-05-10T11:41:36Z</time>
      </trkpt>
      <trkpt lat="45.275" lon="6.62563">
        <ele>3343</ele>
        <time>2017-05-10T11:41:38Z</time>
      </trkpt>
      <trkpt lat="45.27501" lon="6.62557">
        <ele>3342</ele>
        <time>2017-05-10T11:41:39Z</time>
      </trkpt>
      <trkpt lat="45.275" lon="6.62554">
        <ele>3342</ele>
        <time>2017-05-10T11:41:40Z</time>
      </trkpt>
      <trkpt lat="45.27498" lon="6.6255">
        <ele>3341</ele>
        <time>2017-05-10T11:42:27Z</time>
      </trkpt>
      <trkpt lat="45.27496" lon="6.62549">
        <ele>3341</ele>
        <time>2017-05-10T11:42:37Z</time>
      </trkpt>
      <trkpt lat="45.27499" lon="6.62545">
        <ele>3341</ele>
        <time>2017-05-10T11:44:20Z</time>
      </trkpt>
      <trkpt lat="45.27498" lon="6.62529">
        <ele>3338</ele>
        <time>2017-05-10T11:44:23Z</time>
      </trkpt>
      <trkpt lat="45.27501" lon="6.62524">
        <ele>3337</ele>
        <time>2017-05-10T11:44:24Z</time>
      </trkpt>
      <trkpt lat="45.275" lon="6.62517">
        <ele>3335</ele>
        <time>2017-05-10T11:44:25Z</time>
      </trkpt>
      <trkpt lat="45.27503" lon="6.62504">
        <ele>3332</ele>
        <time>2017-05-10T11:44:27Z</time>
      </trkpt>
      <trkpt lat="45.27501" lon="6.62498">
        <ele>3331</ele>
        <time>2017-05-10T11:44:28Z</time>
      </trkpt>
      <trkpt lat="45.27503" lon="6.62482">
        <ele>3328</ele>
        <time>2017-05-10T11:44:30Z</time>
      </trkpt>
      <trkpt lat="45.27499" lon="6.62468">
        <ele>3326</ele>
        <time>2017-05-10T11:44:32Z</time>
      </trkpt>
      <trkpt lat="45.275" lon="6.6246">
        <ele>3325</ele>
        <time>2017-05-10T11:44:33Z</time>
      </trkpt>
      <trkpt lat="45.27493" lon="6.6245">
        <ele>3322</ele>
        <time>2017-05-10T11:44:35Z</time>
      </trkpt>
      <trkpt lat="45.27494" lon="6.62442">
        <ele>3320</ele>
        <time>2017-05-10T11:44:36Z</time>
      </trkpt>
      <trkpt lat="45.2749" lon="6.62438">
        <ele>3320</ele>
        <time>2017-05-10T11:44:37Z</time>
      </trkpt>
      <trkpt lat="45.27486" lon="6.6244">
        <ele>3318</ele>
        <time>2017-05-10T11:45:16Z</time>
      </trkpt>
      <trkpt lat="45.27479" lon="6.62439">
        <ele>3317</ele>
        <time>2017-05-10T11:45:18Z</time>
      </trkpt>
      <trkpt lat="45.27478" lon="6.62435">
        <ele>3316</ele>
        <time>2017-05-10T11:45:19Z</time>
      </trkpt>
      <trkpt lat="45.27478" lon="6.62429">
        <ele>3314</ele>
        <time>2017-05-10T11:45:20Z</time>
      </trkpt>
      <trkpt lat="45.27475" lon="6.62425">
        <ele>3313</ele>
        <time>2017-05-10T11:45:21Z</time>
      </trkpt>
      <trkpt lat="45.27471" lon="6.62426">
        <ele>3312</ele>
        <time>2017-05-10T11:45:22Z</time>
      </trkpt>
      <trkpt lat="45.27467" lon="6.62426">
        <ele>3312</ele>
        <time>2017-05-10T11:45:23Z</time>
      </trkpt>
      <trkpt lat="45.27466" lon="6.62423">
        <ele>3311</ele>
        <time>2017-05-10T11:45:24Z</time>
      </trkpt>
      <trkpt lat="45.27466" lon="6.62419">
        <ele>3310</ele>
        <time>2017-05-10T11:45:25Z</time>
      </trkpt>
      <trkpt lat="45.27466" lon="6.62414">
        <ele>3309</ele>
        <time>2017-05-10T11:45:26Z</time>
      </trkpt>
      <trkpt lat="45.27465" lon="6.62409">
        <ele>3308</ele>
        <time>2017-05-10T11:45:27Z</time>
      </trkpt>
      <trkpt lat="45.2746" lon="6.62411">
        <ele>3307</ele>
        <time>2017-05-10T11:45:28Z</time>
      </trkpt>
      <trkpt lat="45.27457" lon="6.62412">
        <ele>3307</ele>
        <time>2017-05-10T11:45:29Z</time>
      </trkpt>
      <trkpt lat="45.27454" lon="6.62412">
        <ele>3305</ele>
        <time>2017-05-10T11:45:30Z</time>
      </trkpt>
      <trkpt lat="45.27453" lon="6.62407">
        <ele>3304</ele>
        <time>2017-05-10T11:45:31Z</time>
      </trkpt>
      <trkpt lat="45.27453" lon="6.62402">
        <ele>3303</ele>
        <time>2017-05-10T11:45:32Z</time>
      </trkpt>
      <trkpt lat="45.2746" lon="6.62379">
        <ele>3298</ele>
        <time>2017-05-10T11:45:38Z</time>
      </trkpt>
      <trkpt lat="45.27458" lon="6.62373">
        <ele>3296</ele>
        <time>2017-05-10T11:45:39Z</time>
      </trkpt>
      <trkpt lat="45.27454" lon="6.62372">
        <ele>3296</ele>
        <time>2017-05-10T11:45:40Z</time>
      </trkpt>
      <trkpt lat="45.27448" lon="6.62375">
        <ele>3293</ele>
        <time>2017-05-10T11:45:42Z</time>
      </trkpt>
      <trkpt lat="45.27437" lon="6.62384">
        <ele>3291</ele>
        <time>2017-05-10T11:45:48Z</time>
      </trkpt>
      <trkpt lat="45.27434" lon="6.62385">
        <ele>3289</ele>
        <time>2017-05-10T11:46:27Z</time>
      </trkpt>
      <trkpt lat="45.27435" lon="6.6238">
        <ele>3287</ele>
        <time>2017-05-10T11:46:43Z</time>
      </trkpt>
      <trkpt lat="45.27438" lon="6.62368">
        <ele>3285</ele>
        <time>2017-05-10T11:46:45Z</time>
      </trkpt>
      <trkpt lat="45.27487" lon="6.62214">
        <ele>3277</ele>
        <time>2017-05-10T11:47:07Z</time>
      </trkpt>
      <trkpt lat="45.27486" lon="6.6221">
        <ele>3277</ele>
        <time>2017-05-10T11:47:08Z</time>
      </trkpt>
      <trkpt lat="45.27482" lon="6.62215">
        <ele>3277</ele>
        <time>2017-05-10T11:47:10Z</time>
      </trkpt>
      <trkpt lat="45.27479" lon="6.62212">
        <ele>3275</ele>
        <time>2017-05-10T11:47:11Z</time>
      </trkpt>
      <trkpt lat="45.27478" lon="6.62206">
        <ele>3273</ele>
        <time>2017-05-10T11:47:12Z</time>
      </trkpt>
      <trkpt lat="45.27478" lon="6.62185">
        <ele>3270</ele>
        <time>2017-05-10T11:47:15Z</time>
      </trkpt>
      <trkpt lat="45.27474" lon="6.62125">
        <ele>3267</ele>
        <time>2017-05-10T11:47:23Z</time>
      </trkpt>
      <trkpt lat="45.27473" lon="6.62105">
        <ele>3266</ele>
        <time>2017-05-10T11:47:26Z</time>
      </trkpt>
      <trkpt lat="45.27471" lon="6.62101">
        <ele>3266</ele>
        <time>2017-05-10T11:47:27Z</time>
      </trkpt>
      <trkpt lat="45.27467" lon="6.62102">
        <ele>3264</ele>
        <time>2017-05-10T11:47:28Z</time>
      </trkpt>
      <trkpt lat="45.27463" lon="6.62101">
        <ele>3263</ele>
        <time>2017-05-10T11:47:29Z</time>
      </trkpt>
      <trkpt lat="45.27461" lon="6.62095">
        <ele>3262</ele>
        <time>2017-05-10T11:47:30Z</time>
      </trkpt>
      <trkpt lat="45.27461" lon="6.62083">
        <ele>3261</ele>
        <time>2017-05-10T11:47:32Z</time>
      </trkpt>
      <trkpt lat="45.2746" lon="6.62077">
        <ele>3260</ele>
        <time>2017-05-10T11:47:33Z</time>
      </trkpt>
      <trkpt lat="45.27457" lon="6.62073">
        <ele>3258</ele>
        <time>2017-05-10T11:47:34Z</time>
      </trkpt>
      <trkpt lat="45.27453" lon="6.62075">
        <ele>3257</ele>
        <time>2017-05-10T11:47:35Z</time>
      </trkpt>
      <trkpt lat="45.2745" lon="6.62071">
        <ele>3255</ele>
        <time>2017-05-10T11:47:36Z</time>
      </trkpt>
      <trkpt lat="45.27449" lon="6.62064">
        <ele>3254</ele>
        <time>2017-05-10T11:47:37Z</time>
      </trkpt>
      <trkpt lat="45.27451" lon="6.62044">
        <ele>3252</ele>
        <time>2017-05-10T11:47:40Z</time>
      </trkpt>
      <trkpt lat="45.27457" lon="6.62004">
        <ele>3249</ele>
        <time>2017-05-10T11:47:46Z</time>
      </trkpt>
      <trkpt lat="45.27459" lon="6.61982">
        <ele>3260</ele>
        <time>2017-05-10T11:47:49Z</time>
      </trkpt>
      <trkpt lat="45.27459" lon="6.61975">
        <ele>3256</ele>
        <time>2017-05-10T11:47:50Z</time>
      </trkpt>
      <trkpt lat="45.27455" lon="6.61974">
        <ele>3253</ele>
        <time>2017-05-10T11:47:51Z</time>
      </trkpt>
      <trkpt lat="45.27451" lon="6.61977">
        <ele>3249</ele>
        <time>2017-05-10T11:47:52Z</time>
      </trkpt>
      <trkpt lat="45.27449" lon="6.61981">
        <ele>3247</ele>
        <time>2017-05-10T11:47:53Z</time>
      </trkpt>
      <trkpt lat="45.27445" lon="6.61981">
        <ele>3244</ele>
        <time>2017-05-10T11:47:54Z</time>
      </trkpt>
      <trkpt lat="45.27443" lon="6.61975">
        <ele>3242</ele>
        <time>2017-05-10T11:47:55Z</time>
      </trkpt>
      <trkpt lat="45.27443" lon="6.61964">
        <ele>3238</ele>
        <time>2017-05-10T11:47:57Z</time>
      </trkpt>
      <trkpt lat="45.2744" lon="6.61959">
        <ele>3235</ele>
        <time>2017-05-10T11:47:58Z</time>
      </trkpt>
      <trkpt lat="45.27437" lon="6.61958">
        <ele>3234</ele>
        <time>2017-05-10T11:47:59Z</time>
      </trkpt>
      <trkpt lat="45.27435" lon="6.61963">
        <ele>3233</ele>
        <time>2017-05-10T11:48:00Z</time>
      </trkpt>
      <trkpt lat="45.27431" lon="6.61966">
        <ele>3231</ele>
        <time>2017-05-10T11:48:01Z</time>
      </trkpt>
      <trkpt lat="45.27427" lon="6.61964">
        <ele>3229</ele>
        <time>2017-05-10T11:48:02Z</time>
      </trkpt>
      <trkpt lat="45.27425" lon="6.61957">
        <ele>3226</ele>
        <time>2017-05-10T11:48:03Z</time>
      </trkpt>
      <trkpt lat="45.27424" lon="6.61941">
        <ele>3223</ele>
        <time>2017-05-10T11:48:05Z</time>
      </trkpt>
      <trkpt lat="45.27424" lon="6.61923">
        <ele>3221</ele>
        <time>2017-05-10T11:48:07Z</time>
      </trkpt>
      <trkpt lat="45.27416" lon="6.61909">
        <ele>3218</ele>
        <time>2017-05-10T11:48:09Z</time>
      </trkpt>
      <trkpt lat="45.2741" lon="6.61919">
        <ele>3216</ele>
        <time>2017-05-10T11:48:10Z</time>
      </trkpt>
      <trkpt lat="45.27403" lon="6.61922">
        <ele>3214</ele>
        <time>2017-05-10T11:48:11Z</time>
      </trkpt>
      <trkpt lat="45.27397" lon="6.61918">
        <ele>3212</ele>
        <time>2017-05-10T11:48:12Z</time>
      </trkpt>
      <trkpt lat="45.27389" lon="6.619">
        <ele>3208</ele>
        <time>2017-05-10T11:48:14Z</time>
      </trkpt>
      <trkpt lat="45.27384" lon="6.61874">
        <ele>3206</ele>
        <time>2017-05-10T11:48:17Z</time>
      </trkpt>
      <trkpt lat="45.27384" lon="6.61866">
        <ele>3206</ele>
        <time>2017-05-10T11:48:18Z</time>
      </trkpt>
      <trkpt lat="45.27379" lon="6.61855">
        <ele>3205</ele>
        <time>2017-05-10T11:48:20Z</time>
      </trkpt>
      <trkpt lat="45.27379" lon="6.61861">
        <ele>3204</ele>
        <time>2017-05-10T11:48:21Z</time>
      </trkpt>
      <trkpt lat="45.27377" lon="6.61864">
        <ele>3204</ele>
        <time>2017-05-10T11:48:29Z</time>
      </trkpt>
      <trkpt lat="45.27377" lon="6.61868">
        <ele>3202</ele>
        <time>2017-05-10T11:49:15Z</time>
      </trkpt>
      <trkpt lat="45.27375" lon="6.61886">
        <ele>3201</ele>
        <time>2017-05-10T11:49:19Z</time>
      </trkpt>
      <trkpt lat="45.27375" lon="6.619">
        <ele>3201</ele>
        <time>2017-05-10T11:49:23Z</time>
      </trkpt>
      <trkpt lat="45.27372" lon="6.61902">
        <ele>3201</ele>
        <time>2017-05-10T11:50:35Z</time>
      </trkpt>
      <trkpt lat="45.27369" lon="6.61902">
        <ele>3200</ele>
        <time>2017-05-10T11:50:36Z</time>
      </trkpt>
      <trkpt lat="45.27365" lon="6.61898">
        <ele>3200</ele>
        <time>2017-05-10T11:50:37Z</time>
      </trkpt>
      <trkpt lat="45.27359" lon="6.61886">
        <ele>3197</ele>
        <time>2017-05-10T11:50:39Z</time>
      </trkpt>
      <trkpt lat="45.27354" lon="6.61883">
        <ele>3195</ele>
        <time>2017-05-10T11:50:40Z</time>
      </trkpt>
      <trkpt lat="45.27349" lon="6.61883">
        <ele>3194</ele>
        <time>2017-05-10T11:50:41Z</time>
      </trkpt>
      <trkpt lat="45.27343" lon="6.61886">
        <ele>3191</ele>
        <time>2017-05-10T11:50:42Z</time>
      </trkpt>
      <trkpt lat="45.27337" lon="6.61882">
        <ele>3187</ele>
        <time>2017-05-10T11:50:43Z</time>
      </trkpt>
      <trkpt lat="45.27332" lon="6.61874">
        <ele>3186</ele>
        <time>2017-05-10T11:50:44Z</time>
      </trkpt>
      <trkpt lat="45.27325" lon="6.61873">
        <ele>3183</ele>
        <time>2017-05-10T11:50:45Z</time>
      </trkpt>
      <trkpt lat="45.2732" lon="6.61876">
        <ele>3181</ele>
        <time>2017-05-10T11:50:46Z</time>
      </trkpt>
      <trkpt lat="45.27314" lon="6.61872">
        <ele>3179</ele>
        <time>2017-05-10T11:50:47Z</time>
      </trkpt>
      <trkpt lat="45.27311" lon="6.61866">
        <ele>3178</ele>
        <time>2017-05-10T11:50:48Z</time>
      </trkpt>
      <trkpt lat="45.27305" lon="6.61862">
        <ele>3176</ele>
        <time>2017-05-10T11:50:49Z</time>
      </trkpt>
      <trkpt lat="45.273" lon="6.61866">
        <ele>3175</ele>
        <time>2017-05-10T11:50:50Z</time>
      </trkpt>
      <trkpt lat="45.27295" lon="6.61867">
        <ele>3173</ele>
        <time>2017-05-10T11:50:51Z</time>
      </trkpt>
      <trkpt lat="45.27291" lon="6.61861">
        <ele>3172</ele>
        <time>2017-05-10T11:50:52Z</time>
      </trkpt>
      <trkpt lat="45.27289" lon="6.61855">
        <ele>3170</ele>
        <time>2017-05-10T11:50:53Z</time>
      </trkpt>
      <trkpt lat="45.27284" lon="6.61853">
        <ele>3168</ele>
        <time>2017-05-10T11:50:54Z</time>
      </trkpt>
      <trkpt lat="45.2728" lon="6.61857">
        <ele>3166</ele>
        <time>2017-05-10T11:50:55Z</time>
      </trkpt>
      <trkpt lat="45.27274" lon="6.61857">
        <ele>3165</ele>
        <time>2017-05-10T11:50:56Z</time>
      </trkpt>
      <trkpt lat="45.27271" lon="6.61852">
        <ele>3162</ele>
        <time>2017-05-10T11:50:57Z</time>
      </trkpt>
      <trkpt lat="45.27269" lon="6.61846">
        <ele>3161</ele>
        <time>2017-05-10T11:50:58Z</time>
      </trkpt>
      <trkpt lat="45.27264" lon="6.61847">
        <ele>3159</ele>
        <time>2017-05-10T11:50:59Z</time>
      </trkpt>
      <trkpt lat="45.27255" lon="6.61858">
        <ele>3156</ele>
        <time>2017-05-10T11:51:01Z</time>
      </trkpt>
      <trkpt lat="45.27226" lon="6.61888">
        <ele>3151</ele>
        <time>2017-05-10T11:51:07Z</time>
      </trkpt>
      <trkpt lat="45.27213" lon="6.61894">
        <ele>3149</ele>
        <time>2017-05-10T11:51:09Z</time>
      </trkpt>
      <trkpt lat="45.27208" lon="6.6189">
        <ele>3147</ele>
        <time>2017-05-10T11:51:10Z</time>
      </trkpt>
      <trkpt lat="45.27207" lon="6.61883">
        <ele>3146</ele>
        <time>2017-05-10T11:51:11Z</time>
      </trkpt>
      <trkpt lat="45.2721" lon="6.61869">
        <ele>3144</ele>
        <time>2017-05-10T11:51:13Z</time>
      </trkpt>
      <trkpt lat="45.27214" lon="6.61854">
        <ele>3142</ele>
        <time>2017-05-10T11:51:15Z</time>
      </trkpt>
      <trkpt lat="45.27213" lon="6.61845">
        <ele>3140</ele>
        <time>2017-05-10T11:51:16Z</time>
      </trkpt>
      <trkpt lat="45.27208" lon="6.61842">
        <ele>3139</ele>
        <time>2017-05-10T11:51:17Z</time>
      </trkpt>
      <trkpt lat="45.27197" lon="6.61845">
        <ele>3136</ele>
        <time>2017-05-10T11:51:19Z</time>
      </trkpt>
      <trkpt lat="45.27172" lon="6.61852">
        <ele>3130</ele>
        <time>2017-05-10T11:51:23Z</time>
      </trkpt>
      <trkpt lat="45.2717" lon="6.61847">
        <ele>3129</ele>
        <time>2017-05-10T11:51:24Z</time>
      </trkpt>
      <trkpt lat="45.27171" lon="6.6184">
        <ele>3128</ele>
        <time>2017-05-10T11:51:25Z</time>
      </trkpt>
      <trkpt lat="45.27172" lon="6.61834">
        <ele>3127</ele>
        <time>2017-05-10T11:51:26Z</time>
      </trkpt>
      <trkpt lat="45.27169" lon="6.61828">
        <ele>3125</ele>
        <time>2017-05-10T11:51:27Z</time>
      </trkpt>
      <trkpt lat="45.27164" lon="6.61826">
        <ele>3123</ele>
        <time>2017-05-10T11:51:28Z</time>
      </trkpt>
      <trkpt lat="45.27157" lon="6.61824">
        <ele>3121</ele>
        <time>2017-05-10T11:51:29Z</time>
      </trkpt>
      <trkpt lat="45.27153" lon="6.61817">
        <ele>3119</ele>
        <time>2017-05-10T11:51:30Z</time>
      </trkpt>
      <trkpt lat="45.27154" lon="6.61808">
        <ele>3117</ele>
        <time>2017-05-10T11:51:31Z</time>
      </trkpt>
      <trkpt lat="45.27161" lon="6.61793">
        <ele>3115</ele>
        <time>2017-05-10T11:51:33Z</time>
      </trkpt>
      <trkpt lat="45.27169" lon="6.61781">
        <ele>3113</ele>
        <time>2017-05-10T11:51:35Z</time>
      </trkpt>
      <trkpt lat="45.2717" lon="6.61774">
        <ele>3112</ele>
        <time>2017-05-10T11:51:36Z</time>
      </trkpt>
      <trkpt lat="45.27167" lon="6.61768">
        <ele>3111</ele>
        <time>2017-05-10T11:51:37Z</time>
      </trkpt>
      <trkpt lat="45.27154" lon="6.61762">
        <ele>3108</ele>
        <time>2017-05-10T11:51:39Z</time>
      </trkpt>
      <trkpt lat="45.27088" lon="6.61741">
        <ele>3097</ele>
        <time>2017-05-10T11:51:49Z</time>
      </trkpt>
      <trkpt lat="45.27084" lon="6.61739">
        <ele>3099</ele>
        <time>2017-05-10T11:54:53Z</time>
      </trkpt>
      <trkpt lat="45.27068" lon="6.61731">
        <ele>3096</ele>
        <time>2017-05-10T11:55:00Z</time>
      </trkpt>
      <trkpt lat="45.27068" lon="6.61725">
        <ele>3095</ele>
        <time>2017-05-10T11:55:01Z</time>
      </trkpt>
      <trkpt lat="45.2707" lon="6.6172">
        <ele>3093</ele>
        <time>2017-05-10T11:55:02Z</time>
      </trkpt>
      <trkpt lat="45.27074" lon="6.6171">
        <ele>3091</ele>
        <time>2017-05-10T11:55:04Z</time>
      </trkpt>
      <trkpt lat="45.27071" lon="6.61705">
        <ele>3089</ele>
        <time>2017-05-10T11:55:05Z</time>
      </trkpt>
      <trkpt lat="45.27066" lon="6.61703">
        <ele>3087</ele>
        <time>2017-05-10T11:55:06Z</time>
      </trkpt>
      <trkpt lat="45.2706" lon="6.61701">
        <ele>3085</ele>
        <time>2017-05-10T11:55:07Z</time>
      </trkpt>
      <trkpt lat="45.27058" lon="6.61694">
        <ele>3083</ele>
        <time>2017-05-10T11:55:08Z</time>
      </trkpt>
      <trkpt lat="45.2706" lon="6.61689">
        <ele>3080</ele>
        <time>2017-05-10T11:55:09Z</time>
      </trkpt>
      <trkpt lat="45.27064" lon="6.61685">
        <ele>3079</ele>
        <time>2017-05-10T11:55:10Z</time>
      </trkpt>
      <trkpt lat="45.27067" lon="6.6168">
        <ele>3077</ele>
        <time>2017-05-10T11:55:11Z</time>
      </trkpt>
      <trkpt lat="45.27066" lon="6.61673">
        <ele>3075</ele>
        <time>2017-05-10T11:55:12Z</time>
      </trkpt>
      <trkpt lat="45.27063" lon="6.61667">
        <ele>3074</ele>
        <time>2017-05-10T11:55:13Z</time>
      </trkpt>
      <trkpt lat="45.27057" lon="6.61665">
        <ele>3072</ele>
        <time>2017-05-10T11:55:14Z</time>
      </trkpt>
      <trkpt lat="45.27055" lon="6.61658">
        <ele>3068</ele>
        <time>2017-05-10T11:55:15Z</time>
      </trkpt>
      <trkpt lat="45.27058" lon="6.6165">
        <ele>3065</ele>
        <time>2017-05-10T11:55:16Z</time>
      </trkpt>
      <trkpt lat="45.27062" lon="6.61645">
        <ele>3063</ele>
        <time>2017-05-10T11:55:17Z</time>
      </trkpt>
      <trkpt lat="45.27079" lon="6.61631">
        <ele>3057</ele>
        <time>2017-05-10T11:55:21Z</time>
      </trkpt>
      <trkpt lat="45.27081" lon="6.61626">
        <ele>3055</ele>
        <time>2017-05-10T11:55:22Z</time>
      </trkpt>
      <trkpt lat="45.27075" lon="6.61619">
        <ele>3054</ele>
        <time>2017-05-10T11:55:23Z</time>
      </trkpt>
      <trkpt lat="45.27069" lon="6.61615">
        <ele>3052</ele>
        <time>2017-05-10T11:55:24Z</time>
      </trkpt>
      <trkpt lat="45.27068" lon="6.61609">
        <ele>3050</ele>
        <time>2017-05-10T11:55:25Z</time>
      </trkpt>
      <trkpt lat="45.2707" lon="6.61606">
        <ele>3048</ele>
        <time>2017-05-10T11:55:26Z</time>
      </trkpt>
      <trkpt lat="45.27078" lon="6.61598">
        <ele>3041</ele>
        <time>2017-05-10T11:55:48Z</time>
      </trkpt>
      <trkpt lat="45.27077" lon="6.61595">
        <ele>3041</ele>
        <time>2017-05-10T11:55:49Z</time>
      </trkpt>
      <trkpt lat="45.27072" lon="6.6159">
        <ele>3040</ele>
        <time>2017-05-10T11:55:50Z</time>
      </trkpt>
      <trkpt lat="45.27069" lon="6.61581">
        <ele>3040</ele>
        <time>2017-05-10T11:55:51Z</time>
      </trkpt>
      <trkpt lat="45.2707" lon="6.61571">
        <ele>3038</ele>
        <time>2017-05-10T11:55:52Z</time>
      </trkpt>
      <trkpt lat="45.27073" lon="6.61558">
        <ele>3035</ele>
        <time>2017-05-10T11:55:54Z</time>
      </trkpt>
      <trkpt lat="45.2707" lon="6.61552">
        <ele>3034</ele>
        <time>2017-05-10T11:55:55Z</time>
      </trkpt>
      <trkpt lat="45.27066" lon="6.61549">
        <ele>3033</ele>
        <time>2017-05-10T11:55:56Z</time>
      </trkpt>
      <trkpt lat="45.27064" lon="6.61542">
        <ele>3032</ele>
        <time>2017-05-10T11:55:57Z</time>
      </trkpt>
      <trkpt lat="45.27068" lon="6.61537">
        <ele>3028</ele>
        <time>2017-05-10T11:55:58Z</time>
      </trkpt>
      <trkpt lat="45.27072" lon="6.61534">
        <ele>3027</ele>
        <time>2017-05-10T11:55:59Z</time>
      </trkpt>
      <trkpt lat="45.27072" lon="6.61526">
        <ele>3024</ele>
        <time>2017-05-10T11:56:00Z</time>
      </trkpt>
      <trkpt lat="45.27068" lon="6.6152">
        <ele>3021</ele>
        <time>2017-05-10T11:56:01Z</time>
      </trkpt>
      <trkpt lat="45.27066" lon="6.61512">
        <ele>3019</ele>
        <time>2017-05-10T11:56:02Z</time>
      </trkpt>
      <trkpt lat="45.27068" lon="6.61506">
        <ele>3018</ele>
        <time>2017-05-10T11:56:03Z</time>
      </trkpt>
      <trkpt lat="45.27079" lon="6.61494">
        <ele>3015</ele>
        <time>2017-05-10T11:56:06Z</time>
      </trkpt>
      <trkpt lat="45.27078" lon="6.61488">
        <ele>3014</ele>
        <time>2017-05-10T11:56:07Z</time>
      </trkpt>
      <trkpt lat="45.27074" lon="6.61484">
        <ele>3012</ele>
        <time>2017-05-10T11:56:08Z</time>
      </trkpt>
      <trkpt lat="45.27062" lon="6.61481">
        <ele>3011</ele>
        <time>2017-05-10T11:56:10Z</time>
      </trkpt>
      <trkpt lat="45.27056" lon="6.6148">
        <ele>3010</ele>
        <time>2017-05-10T11:56:11Z</time>
      </trkpt>
      <trkpt lat="45.27052" lon="6.61476">
        <ele>3009</ele>
        <time>2017-05-10T11:56:12Z</time>
      </trkpt>
      <trkpt lat="45.27052" lon="6.6147">
        <ele>3007</ele>
        <time>2017-05-10T11:56:13Z</time>
      </trkpt>
      <trkpt lat="45.27061" lon="6.6146">
        <ele>3004</ele>
        <time>2017-05-10T11:56:15Z</time>
      </trkpt>
      <trkpt lat="45.27061" lon="6.61452">
        <ele>3002</ele>
        <time>2017-05-10T11:56:16Z</time>
      </trkpt>
      <trkpt lat="45.27056" lon="6.61445">
        <ele>3000</ele>
        <time>2017-05-10T11:56:17Z</time>
      </trkpt>
      <trkpt lat="45.27045" lon="6.61433">
        <ele>2997</ele>
        <time>2017-05-10T11:56:19Z</time>
      </trkpt>
      <trkpt lat="45.27045" lon="6.61426">
        <ele>2996</ele>
        <time>2017-05-10T11:56:20Z</time>
      </trkpt>
      <trkpt lat="45.2705" lon="6.61423">
        <ele>2994</ele>
        <time>2017-05-10T11:56:21Z</time>
      </trkpt>
      <trkpt lat="45.2705" lon="6.61416">
        <ele>2993</ele>
        <time>2017-05-10T11:56:22Z</time>
      </trkpt>
      <trkpt lat="45.27048" lon="6.61409">
        <ele>2991</ele>
        <time>2017-05-10T11:56:23Z</time>
      </trkpt>
      <trkpt lat="45.2705" lon="6.61402">
        <ele>2990</ele>
        <time>2017-05-10T11:56:24Z</time>
      </trkpt>
      <trkpt lat="45.27051" lon="6.61393">
        <ele>2987</ele>
        <time>2017-05-10T11:56:25Z</time>
      </trkpt>
      <trkpt lat="45.27046" lon="6.61373">
        <ele>2985</ele>
        <time>2017-05-10T11:56:27Z</time>
      </trkpt>
      <trkpt lat="45.27033" lon="6.61336">
        <ele>2981</ele>
        <time>2017-05-10T11:56:34Z</time>
      </trkpt>
      <trkpt lat="45.27028" lon="6.61315">
        <ele>2997</ele>
        <time>2017-05-10T11:56:37Z</time>
      </trkpt>
      <trkpt lat="45.27022" lon="6.61272">
        <ele>2981</ele>
        <time>2017-05-10T11:56:42Z</time>
      </trkpt>
      <trkpt lat="45.27022" lon="6.61247">
        <ele>2973</ele>
        <time>2017-05-10T11:56:46Z</time>
      </trkpt>
      <trkpt lat="45.2703" lon="6.61245">
        <ele>2969</ele>
        <time>2017-05-10T11:56:50Z</time>
      </trkpt>
      <trkpt lat="45.27035" lon="6.6126">
        <ele>2965</ele>
        <time>2017-05-10T11:56:52Z</time>
      </trkpt>
      <trkpt lat="45.27042" lon="6.61275">
        <ele>2962</ele>
        <time>2017-05-10T11:56:54Z</time>
      </trkpt>
      <trkpt lat="45.2705" lon="6.6129">
        <ele>2959</ele>
        <time>2017-05-10T11:56:56Z</time>
      </trkpt>
      <trkpt lat="45.27071" lon="6.61312">
        <ele>2954</ele>
        <time>2017-05-10T11:57:00Z</time>
      </trkpt>
      <trkpt lat="45.27083" lon="6.61314">
        <ele>2952</ele>
        <time>2017-05-10T11:57:02Z</time>
      </trkpt>
      <trkpt lat="45.27101" lon="6.613">
        <ele>2950</ele>
        <time>2017-05-10T11:57:06Z</time>
      </trkpt>
      <trkpt lat="45.27118" lon="6.61284">
        <ele>2947</ele>
        <time>2017-05-10T11:57:10Z</time>
      </trkpt>
      <trkpt lat="45.27115" lon="6.61267">
        <ele>2943</ele>
        <time>2017-05-10T11:57:12Z</time>
      </trkpt>
      <trkpt lat="45.2712" lon="6.61252">
        <ele>2941</ele>
        <time>2017-05-10T11:57:14Z</time>
      </trkpt>
      <trkpt lat="45.27122" lon="6.61235">
        <ele>2936</ele>
        <time>2017-05-10T11:57:16Z</time>
      </trkpt>
      <trkpt lat="45.27114" lon="6.61218">
        <ele>2933</ele>
        <time>2017-05-10T11:57:18Z</time>
      </trkpt>
      <trkpt lat="45.27121" lon="6.61204">
        <ele>2930</ele>
        <time>2017-05-10T11:57:20Z</time>
      </trkpt>
      <trkpt lat="45.27131" lon="6.6119">
        <ele>2926</ele>
        <time>2017-05-10T11:57:22Z</time>
      </trkpt>
      <trkpt lat="45.27128" lon="6.61171">
        <ele>2924</ele>
        <time>2017-05-10T11:57:24Z</time>
      </trkpt>
      <trkpt lat="45.27131" lon="6.61154">
        <ele>2922</ele>
        <time>2017-05-10T11:57:26Z</time>
      </trkpt>
      <trkpt lat="45.27142" lon="6.61142">
        <ele>2919</ele>
        <time>2017-05-10T11:57:28Z</time>
      </trkpt>
      <trkpt lat="45.27144" lon="6.61125">
        <ele>2916</ele>
        <time>2017-05-10T11:57:30Z</time>
      </trkpt>
      <trkpt lat="45.27141" lon="6.61106">
        <ele>2915</ele>
        <time>2017-05-10T11:57:32Z</time>
      </trkpt>
      <trkpt lat="45.2714" lon="6.61073">
        <ele>2912</ele>
        <time>2017-05-10T11:57:35Z</time>
      </trkpt>
      <trkpt lat="45.27151" lon="6.61056">
        <ele>2908</ele>
        <time>2017-05-10T11:57:37Z</time>
      </trkpt>
      <trkpt lat="45.27156" lon="6.61046">
        <ele>2906</ele>
        <time>2017-05-10T11:57:38Z</time>
      </trkpt>
      <trkpt lat="45.27157" lon="6.61034">
        <ele>2905</ele>
        <time>2017-05-10T11:57:39Z</time>
      </trkpt>
      <trkpt lat="45.27151" lon="6.61015">
        <ele>2902</ele>
        <time>2017-05-10T11:57:41Z</time>
      </trkpt>
      <trkpt lat="45.2715" lon="6.60996">
        <ele>2900</ele>
        <time>2017-05-10T11:57:43Z</time>
      </trkpt>
      <trkpt lat="45.27158" lon="6.60979">
        <ele>2897</ele>
        <time>2017-05-10T11:57:45Z</time>
      </trkpt>
      <trkpt lat="45.27158" lon="6.60968">
        <ele>2896</ele>
        <time>2017-05-10T11:57:46Z</time>
      </trkpt>
      <trkpt lat="45.2715" lon="6.60951">
        <ele>2894</ele>
        <time>2017-05-10T11:57:48Z</time>
      </trkpt>
      <trkpt lat="45.27149" lon="6.60941">
        <ele>2892</ele>
        <time>2017-05-10T11:57:49Z</time>
      </trkpt>
      <trkpt lat="45.27152" lon="6.60933">
        <ele>2891</ele>
        <time>2017-05-10T11:57:50Z</time>
      </trkpt>
      <trkpt lat="45.27159" lon="6.60926">
        <ele>2890</ele>
        <time>2017-05-10T11:57:52Z</time>
      </trkpt>
      <trkpt lat="45.27171" lon="6.60919">
        <ele>2888</ele>
        <time>2017-05-10T11:57:55Z</time>
      </trkpt>
      <trkpt lat="45.27175" lon="6.60913">
        <ele>2887</ele>
        <time>2017-05-10T11:57:56Z</time>
      </trkpt>
      <trkpt lat="45.27175" lon="6.60908">
        <ele>2887</ele>
        <time>2017-05-10T11:57:57Z</time>
      </trkpt>
      <trkpt lat="45.27173" lon="6.60905">
        <ele>2891</ele>
        <time>2017-05-10T11:58:59Z</time>
      </trkpt>
      <trkpt lat="45.27171" lon="6.60902">
        <ele>2891</ele>
        <time>2017-05-10T11:59:03Z</time>
      </trkpt>
      <trkpt lat="45.27168" lon="6.60898">
        <ele>2888</ele>
        <time>2017-05-10T11:59:05Z</time>
      </trkpt>
      <trkpt lat="45.27163" lon="6.60897">
        <ele>2887</ele>
        <time>2017-05-10T11:59:07Z</time>
      </trkpt>
      <trkpt lat="45.27162" lon="6.60896">
        <ele>2885</ele>
        <time>2017-05-10T12:01:27Z</time>
      </trkpt>
      <trkpt lat="45.27163" lon="6.60892">
        <ele>2883</ele>
        <time>2017-05-10T12:02:33Z</time>
      </trkpt>
      <trkpt lat="45.27162" lon="6.60886">
        <ele>2880</ele>
        <time>2017-05-10T12:02:35Z</time>
      </trkpt>
      <trkpt lat="45.27162" lon="6.6088">
        <ele>2879</ele>
        <time>2017-05-10T12:02:36Z</time>
      </trkpt>
      <trkpt lat="45.27162" lon="6.60872">
        <ele>2877</ele>
        <time>2017-05-10T12:02:37Z</time>
      </trkpt>
      <trkpt lat="45.27165" lon="6.60865">
        <ele>2875</ele>
        <time>2017-05-10T12:02:38Z</time>
      </trkpt>
      <trkpt lat="45.2717" lon="6.60861">
        <ele>2874</ele>
        <time>2017-05-10T12:02:39Z</time>
      </trkpt>
      <trkpt lat="45.27173" lon="6.60854">
        <ele>2872</ele>
        <time>2017-05-10T12:02:40Z</time>
      </trkpt>
      <trkpt lat="45.27172" lon="6.60846">
        <ele>2871</ele>
        <time>2017-05-10T12:02:41Z</time>
      </trkpt>
      <trkpt lat="45.27171" lon="6.60839">
        <ele>2869</ele>
        <time>2017-05-10T12:02:42Z</time>
      </trkpt>
      <trkpt lat="45.27176" lon="6.60833">
        <ele>2867</ele>
        <time>2017-05-10T12:02:43Z</time>
      </trkpt>
      <trkpt lat="45.27182" lon="6.60831">
        <ele>2867</ele>
        <time>2017-05-10T12:02:44Z</time>
      </trkpt>
      <trkpt lat="45.27184" lon="6.60824">
        <ele>2865</ele>
        <time>2017-05-10T12:02:45Z</time>
      </trkpt>
      <trkpt lat="45.27182" lon="6.60807">
        <ele>2862</ele>
        <time>2017-05-10T12:02:47Z</time>
      </trkpt>
      <trkpt lat="45.27186" lon="6.60801">
        <ele>2861</ele>
        <time>2017-05-10T12:02:48Z</time>
      </trkpt>
      <trkpt lat="45.27197" lon="6.60797">
        <ele>2859</ele>
        <time>2017-05-10T12:02:50Z</time>
      </trkpt>
      <trkpt lat="45.27201" lon="6.60789">
        <ele>2857</ele>
        <time>2017-05-10T12:02:51Z</time>
      </trkpt>
      <trkpt lat="45.272" lon="6.60781">
        <ele>2855</ele>
        <time>2017-05-10T12:02:52Z</time>
      </trkpt>
      <trkpt lat="45.27198" lon="6.60771">
        <ele>2853</ele>
        <time>2017-05-10T12:02:53Z</time>
      </trkpt>
      <trkpt lat="45.27201" lon="6.60764">
        <ele>2851</ele>
        <time>2017-05-10T12:02:54Z</time>
      </trkpt>
      <trkpt lat="45.27207" lon="6.60761">
        <ele>2849</ele>
        <time>2017-05-10T12:02:55Z</time>
      </trkpt>
      <trkpt lat="45.27212" lon="6.6076">
        <ele>2848</ele>
        <time>2017-05-10T12:02:56Z</time>
      </trkpt>
      <trkpt lat="45.27216" lon="6.60752">
        <ele>2846</ele>
        <time>2017-05-10T12:02:57Z</time>
      </trkpt>
      <trkpt lat="45.27215" lon="6.60743">
        <ele>2844</ele>
        <time>2017-05-10T12:02:58Z</time>
      </trkpt>
      <trkpt lat="45.27212" lon="6.60734">
        <ele>2842</ele>
        <time>2017-05-10T12:02:59Z</time>
      </trkpt>
      <trkpt lat="45.27213" lon="6.60724">
        <ele>2840</ele>
        <time>2017-05-10T12:03:00Z</time>
      </trkpt>
      <trkpt lat="45.27218" lon="6.6072">
        <ele>2838</ele>
        <time>2017-05-10T12:03:01Z</time>
      </trkpt>
      <trkpt lat="45.27224" lon="6.60715">
        <ele>2836</ele>
        <time>2017-05-10T12:03:02Z</time>
      </trkpt>
      <trkpt lat="45.27226" lon="6.60707">
        <ele>2834</ele>
        <time>2017-05-10T12:03:03Z</time>
      </trkpt>
      <trkpt lat="45.27228" lon="6.60699">
        <ele>2832</ele>
        <time>2017-05-10T12:03:04Z</time>
      </trkpt>
      <trkpt lat="45.27234" lon="6.60696">
        <ele>2830</ele>
        <time>2017-05-10T12:03:05Z</time>
      </trkpt>
      <trkpt lat="45.27238" lon="6.60688">
        <ele>2828</ele>
        <time>2017-05-10T12:03:06Z</time>
      </trkpt>
      <trkpt lat="45.27238" lon="6.60678">
        <ele>2826</ele>
        <time>2017-05-10T12:03:07Z</time>
      </trkpt>
      <trkpt lat="45.27241" lon="6.60672">
        <ele>2824</ele>
        <time>2017-05-10T12:03:08Z</time>
      </trkpt>
      <trkpt lat="45.27245" lon="6.6067">
        <ele>2823</ele>
        <time>2017-05-10T12:03:09Z</time>
      </trkpt>
      <trkpt lat="45.27246" lon="6.60665">
        <ele>2822</ele>
        <time>2017-05-10T12:03:10Z</time>
      </trkpt>
      <trkpt lat="45.27245" lon="6.6066">
        <ele>2820</ele>
        <time>2017-05-10T12:03:13Z</time>
      </trkpt>
      <trkpt lat="45.27246" lon="6.6065">
        <ele>2819</ele>
        <time>2017-05-10T12:03:15Z</time>
      </trkpt>
      <trkpt lat="45.27243" lon="6.60621">
        <ele>2818</ele>
        <time>2017-05-10T12:03:19Z</time>
      </trkpt>
      <trkpt lat="45.27233" lon="6.60538">
        <ele>2813</ele>
        <time>2017-05-10T12:03:33Z</time>
      </trkpt>
      <trkpt lat="45.2723" lon="6.60535">
        <ele>2813</ele>
        <time>2017-05-10T12:03:35Z</time>
      </trkpt>
      <trkpt lat="45.27228" lon="6.60533">
        <ele>2813</ele>
        <time>2017-05-10T12:03:39Z</time>
      </trkpt>
      <trkpt lat="45.27221" lon="6.60536">
        <ele>2814</ele>
        <time>2017-05-10T12:03:49Z</time>
      </trkpt>
      <trkpt lat="45.27205" lon="6.60532">
        <ele>2811</ele>
        <time>2017-05-10T12:03:54Z</time>
      </trkpt>
      <trkpt lat="45.27178" lon="6.60512">
        <ele>2807</ele>
        <time>2017-05-10T12:03:59Z</time>
      </trkpt>
      <trkpt lat="45.27166" lon="6.6049">
        <ele>2806</ele>
        <time>2017-05-10T12:04:02Z</time>
      </trkpt>
      <trkpt lat="45.27156" lon="6.60454">
        <ele>2804</ele>
        <time>2017-05-10T12:04:06Z</time>
      </trkpt>
      <trkpt lat="45.2716" lon="6.60451">
        <ele>2803</ele>
        <time>2017-05-10T12:04:07Z</time>
      </trkpt>
      <trkpt lat="45.27163" lon="6.60452">
        <ele>2802</ele>
        <time>2017-05-10T12:04:08Z</time>
      </trkpt>
      <trkpt lat="45.27167" lon="6.60453">
        <ele>2801</ele>
        <time>2017-05-10T12:04:09Z</time>
      </trkpt>
      <trkpt lat="45.27171" lon="6.6045">
        <ele>2800</ele>
        <time>2017-05-10T12:04:10Z</time>
      </trkpt>
      <trkpt lat="45.27175" lon="6.60447">
        <ele>2799</ele>
        <time>2017-05-10T12:04:11Z</time>
      </trkpt>
      <trkpt lat="45.27173" lon="6.60438">
        <ele>2798</ele>
        <time>2017-05-10T12:04:12Z</time>
      </trkpt>
      <trkpt lat="45.27168" lon="6.60411">
        <ele>2795</ele>
        <time>2017-05-10T12:04:15Z</time>
      </trkpt>
      <trkpt lat="45.27148" lon="6.60347">
        <ele>2794</ele>
        <time>2017-05-10T12:04:24Z</time>
      </trkpt>
      <trkpt lat="45.27121" lon="6.60283">
        <ele>2787</ele>
        <time>2017-05-10T12:04:33Z</time>
      </trkpt>
      <trkpt lat="45.27101" lon="6.60207">
        <ele>2780</ele>
        <time>2017-05-10T12:04:46Z</time>
      </trkpt>
      <trkpt lat="45.27105" lon="6.60203">
        <ele>2778</ele>
        <time>2017-05-10T12:04:47Z</time>
      </trkpt>
      <trkpt lat="45.27111" lon="6.60203">
        <ele>2777</ele>
        <time>2017-05-10T12:04:48Z</time>
      </trkpt>
      <trkpt lat="45.27122" lon="6.60208">
        <ele>2773</ele>
        <time>2017-05-10T12:04:50Z</time>
      </trkpt>
      <trkpt lat="45.27128" lon="6.60204">
        <ele>2772</ele>
        <time>2017-05-10T12:04:51Z</time>
      </trkpt>
      <trkpt lat="45.2713" lon="6.60196">
        <ele>2770</ele>
        <time>2017-05-10T12:04:52Z</time>
      </trkpt>
      <trkpt lat="45.27131" lon="6.60176">
        <ele>2768</ele>
        <time>2017-05-10T12:04:54Z</time>
      </trkpt>
      <trkpt lat="45.27133" lon="6.60154">
        <ele>2765</ele>
        <time>2017-05-10T12:04:56Z</time>
      </trkpt>
      <trkpt lat="45.27138" lon="6.60147">
        <ele>2763</ele>
        <time>2017-05-10T12:04:57Z</time>
      </trkpt>
      <trkpt lat="45.27152" lon="6.60144">
        <ele>2760</ele>
        <time>2017-05-10T12:04:59Z</time>
      </trkpt>
      <trkpt lat="45.27159" lon="6.6014">
        <ele>2759</ele>
        <time>2017-05-10T12:05:00Z</time>
      </trkpt>
      <trkpt lat="45.27164" lon="6.60131">
        <ele>2758</ele>
        <time>2017-05-10T12:05:01Z</time>
      </trkpt>
      <trkpt lat="45.27163" lon="6.60118">
        <ele>2757</ele>
        <time>2017-05-10T12:05:02Z</time>
      </trkpt>
      <trkpt lat="45.27167" lon="6.60105">
        <ele>2754</ele>
        <time>2017-05-10T12:05:03Z</time>
      </trkpt>
      <trkpt lat="45.27172" lon="6.60092">
        <ele>2751</ele>
        <time>2017-05-10T12:05:04Z</time>
      </trkpt>
      <trkpt lat="45.27183" lon="6.60047">
        <ele>2747</ele>
        <time>2017-05-10T12:05:07Z</time>
      </trkpt>
      <trkpt lat="45.27179" lon="6.6001">
        <ele>2747</ele>
        <time>2017-05-10T12:05:10Z</time>
      </trkpt>
      <trkpt lat="45.27176" lon="6.59989">
        <ele>2747</ele>
        <time>2017-05-10T12:05:13Z</time>
      </trkpt>
      <trkpt lat="45.27175" lon="6.59988">
        <ele>2757</ele>
        <time>2017-05-10T12:07:32Z</time>
      </trkpt>
      <trkpt lat="45.27173" lon="6.59989">
        <ele>2754</ele>
        <time>2017-05-10T12:15:13Z</time>
      </trkpt>
      <trkpt lat="45.27174" lon="6.59988">
        <ele>2758</ele>
        <time>2017-05-10T12:22:09Z</time>
      </trkpt>
      <trkpt lat="45.27174" lon="6.59984">
        <ele>2758</ele>
        <time>2017-05-10T12:23:07Z</time>
      </trkpt>
      <trkpt lat="45.27173" lon="6.59978">
        <ele>2758</ele>
        <time>2017-05-10T12:23:36Z</time>
      </trkpt>
      <trkpt lat="45.27172" lon="6.59969">
        <ele>2755</ele>
        <time>2017-05-10T12:23:53Z</time>
      </trkpt>
      <trkpt lat="45.27171" lon="6.59965">
        <ele>2757</ele>
        <time>2017-05-10T12:24:00Z</time>
      </trkpt>
      <trkpt lat="45.27171" lon="6.59948">
        <ele>2759</ele>
        <time>2017-05-10T12:24:23Z</time>
      </trkpt>
      <trkpt lat="45.27172" lon="6.59935">
        <ele>2760</ele>
        <time>2017-05-10T12:24:38Z</time>
      </trkpt>
      <trkpt lat="45.27174" lon="6.59927">
        <ele>2762</ele>
        <time>2017-05-10T12:24:49Z</time>
      </trkpt>
      <trkpt lat="45.27176" lon="6.59915">
        <ele>2764</ele>
        <time>2017-05-10T12:25:10Z</time>
      </trkpt>
      <trkpt lat="45.2718" lon="6.59891">
        <ele>2770</ele>
        <time>2017-05-10T12:25:40Z</time>
      </trkpt>
      <trkpt lat="45.2718" lon="6.59871">
        <ele>2773</ele>
        <time>2017-05-10T12:26:13Z</time>
      </trkpt>
      <trkpt lat="45.27176" lon="6.5986">
        <ele>2772</ele>
        <time>2017-05-10T12:26:26Z</time>
      </trkpt>
      <trkpt lat="45.27174" lon="6.59856">
        <ele>2773</ele>
        <time>2017-05-10T12:27:31Z</time>
      </trkpt>
      <trkpt lat="45.27168" lon="6.5984">
        <ele>2776</ele>
        <time>2017-05-10T12:27:44Z</time>
      </trkpt>
      <trkpt lat="45.27161" lon="6.59811">
        <ele>2779</ele>
        <time>2017-05-10T12:28:15Z</time>
      </trkpt>
      <trkpt lat="45.27161" lon="6.59798">
        <ele>2779</ele>
        <time>2017-05-10T12:28:30Z</time>
      </trkpt>
      <trkpt lat="45.27162" lon="6.59794">
        <ele>2779</ele>
        <time>2017-05-10T12:28:35Z</time>
      </trkpt>
      <trkpt lat="45.27161" lon="6.59789">
        <ele>2780</ele>
        <time>2017-05-10T12:28:40Z</time>
      </trkpt>
      <trkpt lat="45.27161" lon="6.5978">
        <ele>2781</ele>
        <time>2017-05-10T12:28:48Z</time>
      </trkpt>
      <trkpt lat="45.27158" lon="6.59773">
        <ele>2783</ele>
        <time>2017-05-10T12:28:58Z</time>
      </trkpt>
      <trkpt lat="45.27152" lon="6.59748">
        <ele>2787</ele>
        <time>2017-05-10T12:29:31Z</time>
      </trkpt>
      <trkpt lat="45.27151" lon="6.59744">
        <ele>2786</ele>
        <time>2017-05-10T12:29:38Z</time>
      </trkpt>
      <trkpt lat="45.27152" lon="6.59736">
        <ele>2788</ele>
        <time>2017-05-10T12:29:48Z</time>
      </trkpt>
      <trkpt lat="45.27153" lon="6.59732">
        <ele>2790</ele>
        <time>2017-05-10T12:29:53Z</time>
      </trkpt>
      <trkpt lat="45.2715" lon="6.5973">
        <ele>2791</ele>
        <time>2017-05-10T12:30:02Z</time>
      </trkpt>
      <trkpt lat="45.27136" lon="6.59734">
        <ele>2793</ele>
        <time>2017-05-10T12:30:32Z</time>
      </trkpt>
      <trkpt lat="45.27121" lon="6.59738">
        <ele>2795</ele>
        <time>2017-05-10T12:31:04Z</time>
      </trkpt>
      <trkpt lat="45.27107" lon="6.59747">
        <ele>2800</ele>
        <time>2017-05-10T12:31:36Z</time>
      </trkpt>
      <trkpt lat="45.27101" lon="6.59751">
        <ele>2800</ele>
        <time>2017-05-10T12:31:47Z</time>
      </trkpt>
      <trkpt lat="45.27099" lon="6.59748">
        <ele>2800</ele>
        <time>2017-05-10T12:31:53Z</time>
      </trkpt>
      <trkpt lat="45.27098" lon="6.59743">
        <ele>2801</ele>
        <time>2017-05-10T12:32:00Z</time>
      </trkpt>
      <trkpt lat="45.27097" lon="6.59735">
        <ele>2800</ele>
        <time>2017-05-10T12:32:13Z</time>
      </trkpt>
      <trkpt lat="45.27097" lon="6.59731">
        <ele>2800</ele>
        <time>2017-05-10T12:32:19Z</time>
      </trkpt>
      <trkpt lat="45.27095" lon="6.59723">
        <ele>2803</ele>
        <time>2017-05-10T12:32:33Z</time>
      </trkpt>
      <trkpt lat="45.27092" lon="6.59723">
        <ele>2804</ele>
        <time>2017-05-10T12:32:42Z</time>
      </trkpt>
      <trkpt lat="45.27086" lon="6.59733">
        <ele>2805</ele>
        <time>2017-05-10T12:32:56Z</time>
      </trkpt>
      <trkpt lat="45.27075" lon="6.5974">
        <ele>2815</ele>
        <time>2017-05-10T12:33:23Z</time>
      </trkpt>
      <trkpt lat="45.27074" lon="6.59736">
        <ele>2815</ele>
        <time>2017-05-10T12:33:30Z</time>
      </trkpt>
      <trkpt lat="45.27073" lon="6.59733">
        <ele>2816</ele>
        <time>2017-05-10T12:33:37Z</time>
      </trkpt>
      <trkpt lat="45.2707" lon="6.59725">
        <ele>2817</ele>
        <time>2017-05-10T12:33:51Z</time>
      </trkpt>
      <trkpt lat="45.2707" lon="6.59717">
        <ele>2818</ele>
        <time>2017-05-10T12:34:02Z</time>
      </trkpt>
      <trkpt lat="45.27068" lon="6.59713">
        <ele>2819</ele>
        <time>2017-05-10T12:34:10Z</time>
      </trkpt>
      <trkpt lat="45.27066" lon="6.59712">
        <ele>2822</ele>
        <time>2017-05-10T12:34:18Z</time>
      </trkpt>
      <trkpt lat="45.27063" lon="6.59712">
        <ele>2823</ele>
        <time>2017-05-10T12:34:24Z</time>
      </trkpt>
      <trkpt lat="45.27058" lon="6.59715">
        <ele>2825</ele>
        <time>2017-05-10T12:34:35Z</time>
      </trkpt>
      <trkpt lat="45.27055" lon="6.59716">
        <ele>2826</ele>
        <time>2017-05-10T12:34:41Z</time>
      </trkpt>
      <trkpt lat="45.27053" lon="6.59714">
        <ele>2828</ele>
        <time>2017-05-10T12:34:48Z</time>
      </trkpt>
      <trkpt lat="45.27049" lon="6.59706">
        <ele>2831</ele>
        <time>2017-05-10T12:35:03Z</time>
      </trkpt>
      <trkpt lat="45.27049" lon="6.59694">
        <ele>2835</ele>
        <time>2017-05-10T12:35:21Z</time>
      </trkpt>
      <trkpt lat="45.27047" lon="6.59691">
        <ele>2836</ele>
        <time>2017-05-10T12:35:27Z</time>
      </trkpt>
      <trkpt lat="45.27047" lon="6.5967">
        <ele>2838</ele>
        <time>2017-05-10T12:35:58Z</time>
      </trkpt>
      <trkpt lat="45.27045" lon="6.59667">
        <ele>2838</ele>
        <time>2017-05-10T12:36:04Z</time>
      </trkpt>
      <trkpt lat="45.2704" lon="6.59663">
        <ele>2840</ele>
        <time>2017-05-10T12:36:14Z</time>
      </trkpt>
      <trkpt lat="45.2704" lon="6.59659">
        <ele>2842</ele>
        <time>2017-05-10T12:36:27Z</time>
      </trkpt>
      <trkpt lat="45.27026" lon="6.59644">
        <ele>2846</ele>
        <time>2017-05-10T12:37:03Z</time>
      </trkpt>
      <trkpt lat="45.27021" lon="6.5964">
        <ele>2849</ele>
        <time>2017-05-10T12:37:21Z</time>
      </trkpt>
      <trkpt lat="45.27019" lon="6.59636">
        <ele>2849</ele>
        <time>2017-05-10T12:37:25Z</time>
      </trkpt>
      <trkpt lat="45.27007" lon="6.59623">
        <ele>2848</ele>
        <time>2017-05-10T12:37:55Z</time>
      </trkpt>
      <trkpt lat="45.27005" lon="6.5962">
        <ele>2848</ele>
        <time>2017-05-10T12:38:00Z</time>
      </trkpt>
      <trkpt lat="45.27" lon="6.59617">
        <ele>2850</ele>
        <time>2017-05-10T12:38:14Z</time>
      </trkpt>
      <trkpt lat="45.26995" lon="6.59612">
        <ele>2852</ele>
        <time>2017-05-10T12:38:42Z</time>
      </trkpt>
      <trkpt lat="45.26991" lon="6.59607">
        <ele>2856</ele>
        <time>2017-05-10T12:38:54Z</time>
      </trkpt>
      <trkpt lat="45.26985" lon="6.59602">
        <ele>2861</ele>
        <time>2017-05-10T12:39:24Z</time>
      </trkpt>
      <trkpt lat="45.26981" lon="6.59597">
        <ele>2861</ele>
        <time>2017-05-10T12:39:35Z</time>
      </trkpt>
      <trkpt lat="45.26978" lon="6.59594">
        <ele>2863</ele>
        <time>2017-05-10T12:39:43Z</time>
      </trkpt>
      <trkpt lat="45.26964" lon="6.59585">
        <ele>2867</ele>
        <time>2017-05-10T12:40:15Z</time>
      </trkpt>
      <trkpt lat="45.26956" lon="6.5958">
        <ele>2868</ele>
        <time>2017-05-10T12:40:46Z</time>
      </trkpt>
      <trkpt lat="45.26946" lon="6.59572">
        <ele>2870</ele>
        <time>2017-05-10T12:41:11Z</time>
      </trkpt>
      <trkpt lat="45.26942" lon="6.59567">
        <ele>2873</ele>
        <time>2017-05-10T12:41:23Z</time>
      </trkpt>
      <trkpt lat="45.26926" lon="6.59559">
        <ele>2877</ele>
        <time>2017-05-10T12:41:55Z</time>
      </trkpt>
      <trkpt lat="45.26923" lon="6.59557">
        <ele>2877</ele>
        <time>2017-05-10T12:42:02Z</time>
      </trkpt>
      <trkpt lat="45.26921" lon="6.5956">
        <ele>2879</ele>
        <time>2017-05-10T12:42:21Z</time>
      </trkpt>
      <trkpt lat="45.26926" lon="6.59576">
        <ele>2883</ele>
        <time>2017-05-10T12:42:46Z</time>
      </trkpt>
      <trkpt lat="45.26928" lon="6.59581">
        <ele>2884</ele>
        <time>2017-05-10T12:42:51Z</time>
      </trkpt>
      <trkpt lat="45.26926" lon="6.59583">
        <ele>2890</ele>
        <time>2017-05-10T12:50:48Z</time>
      </trkpt>
      <trkpt lat="45.26923" lon="6.5958">
        <ele>2890</ele>
        <time>2017-05-10T12:50:52Z</time>
      </trkpt>
      <trkpt lat="45.26906" lon="6.59561">
        <ele>2886</ele>
        <time>2017-05-10T12:51:24Z</time>
      </trkpt>
      <trkpt lat="45.26897" lon="6.59545">
        <ele>2889</ele>
        <time>2017-05-10T12:51:49Z</time>
      </trkpt>
      <trkpt lat="45.26889" lon="6.59533">
        <ele>2888</ele>
        <time>2017-05-10T12:52:08Z</time>
      </trkpt>
      <trkpt lat="45.26884" lon="6.5953">
        <ele>2888</ele>
        <time>2017-05-10T12:52:19Z</time>
      </trkpt>
      <trkpt lat="45.26872" lon="6.59512">
        <ele>2891</ele>
        <time>2017-05-10T12:52:51Z</time>
      </trkpt>
      <trkpt lat="45.26863" lon="6.59501">
        <ele>2894</ele>
        <time>2017-05-10T12:53:17Z</time>
      </trkpt>
      <trkpt lat="45.26861" lon="6.59504">
        <ele>2894</ele>
        <time>2017-05-10T12:53:26Z</time>
      </trkpt>
      <trkpt lat="45.2686" lon="6.59517">
        <ele>2902</ele>
        <time>2017-05-10T12:53:46Z</time>
      </trkpt>
      <trkpt lat="45.26859" lon="6.59537">
        <ele>2908</ele>
        <time>2017-05-10T12:54:22Z</time>
      </trkpt>
      <trkpt lat="45.26857" lon="6.59558">
        <ele>2914</ele>
        <time>2017-05-10T12:54:56Z</time>
      </trkpt>
      <trkpt lat="45.26854" lon="6.59575">
        <ele>2919</ele>
        <time>2017-05-10T12:55:20Z</time>
      </trkpt>
      <trkpt lat="45.26851" lon="6.59583">
        <ele>2920</ele>
        <time>2017-05-10T12:55:37Z</time>
      </trkpt>
      <trkpt lat="45.26848" lon="6.59585">
        <ele>2921</ele>
        <time>2017-05-10T12:55:45Z</time>
      </trkpt>
      <trkpt lat="45.26845" lon="6.59584">
        <ele>2923</ele>
        <time>2017-05-10T12:55:51Z</time>
      </trkpt>
      <trkpt lat="45.26843" lon="6.59581">
        <ele>2924</ele>
        <time>2017-05-10T12:55:59Z</time>
      </trkpt>
      <trkpt lat="45.2684" lon="6.5958">
        <ele>2924</ele>
        <time>2017-05-10T12:56:05Z</time>
      </trkpt>
      <trkpt lat="45.26831" lon="6.59579">
        <ele>2928</ele>
        <time>2017-05-10T12:56:25Z</time>
      </trkpt>
      <trkpt lat="45.26829" lon="6.59578">
        <ele>2929</ele>
        <time>2017-05-10T12:56:31Z</time>
      </trkpt>
      <trkpt lat="45.26814" lon="6.59576">
        <ele>2932</ele>
        <time>2017-05-10T12:57:02Z</time>
      </trkpt>
      <trkpt lat="45.2681" lon="6.59575">
        <ele>2933</ele>
        <time>2017-05-10T12:57:17Z</time>
      </trkpt>
      <trkpt lat="45.26807" lon="6.59577">
        <ele>2936</ele>
        <time>2017-05-10T12:57:30Z</time>
      </trkpt>
      <trkpt lat="45.26803" lon="6.59572">
        <ele>2938</ele>
        <time>2017-05-10T12:57:43Z</time>
      </trkpt>
      <trkpt lat="45.26801" lon="6.59569">
        <ele>2938</ele>
        <time>2017-05-10T12:57:49Z</time>
      </trkpt>
      <trkpt lat="45.26798" lon="6.59569">
        <ele>2938</ele>
        <time>2017-05-10T12:57:56Z</time>
      </trkpt>
      <trkpt lat="45.26793" lon="6.59575">
        <ele>2939</ele>
        <time>2017-05-10T12:58:07Z</time>
      </trkpt>
      <trkpt lat="45.26785" lon="6.59586">
        <ele>2943</ele>
        <time>2017-05-10T12:58:33Z</time>
      </trkpt>
      <trkpt lat="45.26774" lon="6.59599">
        <ele>2947</ele>
        <time>2017-05-10T12:59:03Z</time>
      </trkpt>
      <trkpt lat="45.26771" lon="6.59601">
        <ele>2950</ele>
        <time>2017-05-10T12:59:09Z</time>
      </trkpt>
      <trkpt lat="45.26761" lon="6.59606">
        <ele>2954</ele>
        <time>2017-05-10T12:59:32Z</time>
      </trkpt>
      <trkpt lat="45.26758" lon="6.59608">
        <ele>2954</ele>
        <time>2017-05-10T12:59:38Z</time>
      </trkpt>
      <trkpt lat="45.26751" lon="6.59616">
        <ele>2954</ele>
        <time>2017-05-10T12:59:55Z</time>
      </trkpt>
      <trkpt lat="45.26748" lon="6.59616">
        <ele>2954</ele>
        <time>2017-05-10T13:00:03Z</time>
      </trkpt>
      <trkpt lat="45.26743" lon="6.59622">
        <ele>2956</ele>
        <time>2017-05-10T13:00:15Z</time>
      </trkpt>
      <trkpt lat="45.26737" lon="6.59621">
        <ele>2956</ele>
        <time>2017-05-10T13:00:26Z</time>
      </trkpt>
      <trkpt lat="45.26732" lon="6.59616">
        <ele>2955</ele>
        <time>2017-05-10T13:00:37Z</time>
      </trkpt>
      <trkpt lat="45.26725" lon="6.59609">
        <ele>2960</ele>
        <time>2017-05-10T13:00:55Z</time>
      </trkpt>
      <trkpt lat="45.26711" lon="6.59593">
        <ele>2960</ele>
        <time>2017-05-10T13:01:26Z</time>
      </trkpt>
      <trkpt lat="45.26703" lon="6.59587">
        <ele>2966</ele>
        <time>2017-05-10T13:01:42Z</time>
      </trkpt>
      <trkpt lat="45.2669" lon="6.59574">
        <ele>2968</ele>
        <time>2017-05-10T13:02:13Z</time>
      </trkpt>
      <trkpt lat="45.26677" lon="6.59566">
        <ele>2965</ele>
        <time>2017-05-10T13:02:38Z</time>
      </trkpt>
      <trkpt lat="45.26671" lon="6.59567">
        <ele>2967</ele>
        <time>2017-05-10T13:02:51Z</time>
      </trkpt>
      <trkpt lat="45.2666" lon="6.59563">
        <ele>2969</ele>
        <time>2017-05-10T13:03:12Z</time>
      </trkpt>
      <trkpt lat="45.26658" lon="6.59561">
        <ele>2969</ele>
        <time>2017-05-10T13:03:17Z</time>
      </trkpt>
      <trkpt lat="45.26656" lon="6.59558">
        <ele>2971</ele>
        <time>2017-05-10T13:03:22Z</time>
      </trkpt>
      <trkpt lat="45.26648" lon="6.59546">
        <ele>2973</ele>
        <time>2017-05-10T13:03:42Z</time>
      </trkpt>
      <trkpt lat="45.26645" lon="6.59538">
        <ele>2973</ele>
        <time>2017-05-10T13:03:56Z</time>
      </trkpt>
      <trkpt lat="45.26645" lon="6.59534">
        <ele>2974</ele>
        <time>2017-05-10T13:04:05Z</time>
      </trkpt>
      <trkpt lat="45.2664" lon="6.59519">
        <ele>2983</ele>
        <time>2017-05-10T13:04:43Z</time>
      </trkpt>
      <trkpt lat="45.26634" lon="6.5951">
        <ele>2985</ele>
        <time>2017-05-10T13:05:13Z</time>
      </trkpt>
      <trkpt lat="45.2663" lon="6.59504">
        <ele>2987</ele>
        <time>2017-05-10T13:05:27Z</time>
      </trkpt>
      <trkpt lat="45.26627" lon="6.59502">
        <ele>2987</ele>
        <time>2017-05-10T13:05:35Z</time>
      </trkpt>
      <trkpt lat="45.26618" lon="6.59485">
        <ele>2990</ele>
        <time>2017-05-10T13:06:06Z</time>
      </trkpt>
      <trkpt lat="45.26616" lon="6.59481">
        <ele>2991</ele>
        <time>2017-05-10T13:06:12Z</time>
      </trkpt>
      <trkpt lat="45.26612" lon="6.59475">
        <ele>2992</ele>
        <time>2017-05-10T13:06:27Z</time>
      </trkpt>
      <trkpt lat="45.2661" lon="6.59472">
        <ele>2995</ele>
        <time>2017-05-10T13:06:36Z</time>
      </trkpt>
      <trkpt lat="45.26607" lon="6.59469">
        <ele>2996</ele>
        <time>2017-05-10T13:06:45Z</time>
      </trkpt>
      <trkpt lat="45.26604" lon="6.59469">
        <ele>2997</ele>
        <time>2017-05-10T13:06:53Z</time>
      </trkpt>
      <trkpt lat="45.26603" lon="6.59472">
        <ele>2998</ele>
        <time>2017-05-10T13:06:59Z</time>
      </trkpt>
      <trkpt lat="45.26598" lon="6.59498">
        <ele>3004</ele>
        <time>2017-05-10T13:07:31Z</time>
      </trkpt>
      <trkpt lat="45.26593" lon="6.59508">
        <ele>3004</ele>
        <time>2017-05-10T13:07:48Z</time>
      </trkpt>
      <trkpt lat="45.26595" lon="6.59512">
        <ele>3004</ele>
        <time>2017-05-10T13:07:56Z</time>
      </trkpt>
      <trkpt lat="45.26597" lon="6.59515">
        <ele>3004</ele>
        <time>2017-05-10T13:08:02Z</time>
      </trkpt>
      <trkpt lat="45.26598" lon="6.59519">
        <ele>3005</ele>
        <time>2017-05-10T13:08:24Z</time>
      </trkpt>
      <trkpt lat="45.26601" lon="6.59518">
        <ele>3005</ele>
        <time>2017-05-10T13:18:13Z</time>
      </trkpt>
      <trkpt lat="45.26596" lon="6.59511">
        <ele>3005</ele>
        <time>2017-05-10T13:18:21Z</time>
      </trkpt>
      <trkpt lat="45.26593" lon="6.5951">
        <ele>3000</ele>
        <time>2017-05-10T13:21:01Z</time>
      </trkpt>
      <trkpt lat="45.26593" lon="6.59511">
        <ele>3004</ele>
        <time>2017-05-10T13:21:52Z</time>
      </trkpt>
      <trkpt lat="45.26593" lon="6.5951">
        <ele>3003</ele>
        <time>2017-05-10T13:25:58Z</time>
      </trkpt>
      <trkpt lat="45.266" lon="6.59509">
        <ele>3002</ele>
        <time>2017-05-10T13:26:09Z</time>
      </trkpt>
      <trkpt lat="45.26601" lon="6.59505">
        <ele>3002</ele>
        <time>2017-05-10T13:26:33Z</time>
      </trkpt>
      <trkpt lat="45.26599" lon="6.59503">
        <ele>3003</ele>
        <time>2017-05-10T13:26:40Z</time>
      </trkpt>
      <trkpt lat="45.26596" lon="6.59503">
        <ele>3003</ele>
        <time>2017-05-10T13:26:48Z</time>
      </trkpt>
      <trkpt lat="45.26595" lon="6.59507">
        <ele>3004</ele>
        <time>2017-05-10T13:26:59Z</time>
      </trkpt>
      <trkpt lat="45.26593" lon="6.5951">
        <ele>3004</ele>
        <time>2017-05-10T13:27:11Z</time>
      </trkpt>
      <trkpt lat="45.26595" lon="6.59512">
        <ele>3004</ele>
        <time>2017-05-10T13:29:10Z</time>
      </trkpt>
      <trkpt lat="45.26595" lon="6.5951">
        <ele>3002</ele>
        <time>2017-05-10T13:29:35Z</time>
      </trkpt>
      <trkpt lat="45.26594" lon="6.59509">
        <ele>3002</ele>
        <time>2017-05-10T13:33:01Z</time>
      </trkpt>
      <trkpt lat="45.26593" lon="6.59501">
        <ele>3003</ele>
        <time>2017-05-10T13:51:17Z</time>
      </trkpt>
      <trkpt lat="45.26593" lon="6.59496">
        <ele>3011</ele>
        <time>2017-05-10T13:51:38Z</time>
      </trkpt>
      <trkpt lat="45.2659" lon="6.59495">
        <ele>3020</ele>
        <time>2017-05-10T13:54:17Z</time>
      </trkpt>
      <trkpt lat="45.26595" lon="6.59507">
        <ele>3012</ele>
        <time>2017-05-10T13:54:31Z</time>
      </trkpt>
      <trkpt lat="45.26591" lon="6.59511">
        <ele>3011</ele>
        <time>2017-05-10T13:55:16Z</time>
      </trkpt>
      <trkpt lat="45.26593" lon="6.59512">
        <ele>3007</ele>
        <time>2017-05-10T13:56:35Z</time>
      </trkpt>
      <trkpt lat="45.26593" lon="6.59498">
        <ele>3006</ele>
        <time>2017-05-10T13:57:30Z</time>
      </trkpt>
      <trkpt lat="45.26593" lon="6.59494">
        <ele>3009</ele>
        <time>2017-05-10T13:59:20Z</time>
      </trkpt>
      <trkpt lat="45.26596" lon="6.59492">
        <ele>3009</ele>
        <time>2017-05-10T13:59:22Z</time>
      </trkpt>
      <trkpt lat="45.26611" lon="6.59445">
        <ele>2999</ele>
        <time>2017-05-10T13:59:31Z</time>
      </trkpt>
      <trkpt lat="45.26614" lon="6.59445">
        <ele>2998</ele>
        <time>2017-05-10T13:59:32Z</time>
      </trkpt>
      <trkpt lat="45.26611" lon="6.59451">
        <ele>2998</ele>
        <time>2017-05-10T13:59:33Z</time>
      </trkpt>
      <trkpt lat="45.26618" lon="6.59456">
        <ele>2997</ele>
        <time>2017-05-10T13:59:36Z</time>
      </trkpt>
      <trkpt lat="45.2662" lon="6.59461">
        <ele>2997</ele>
        <time>2017-05-10T13:59:37Z</time>
      </trkpt>
      <trkpt lat="45.26617" lon="6.59466">
        <ele>2996</ele>
        <time>2017-05-10T13:59:38Z</time>
      </trkpt>
      <trkpt lat="45.26621" lon="6.59484">
        <ele>2995</ele>
        <time>2017-05-10T13:59:41Z</time>
      </trkpt>
      <trkpt lat="45.26632" lon="6.59503">
        <ele>2994</ele>
        <time>2017-05-10T13:59:44Z</time>
      </trkpt>
      <trkpt lat="45.26634" lon="6.59512">
        <ele>2993</ele>
        <time>2017-05-10T13:59:46Z</time>
      </trkpt>
      <trkpt lat="45.26642" lon="6.59547">
        <ele>2989</ele>
        <time>2017-05-10T13:59:56Z</time>
      </trkpt>
      <trkpt lat="45.26653" lon="6.59565">
        <ele>2985</ele>
        <time>2017-05-10T13:59:59Z</time>
      </trkpt>
      <trkpt lat="45.2666" lon="6.59572">
        <ele>2984</ele>
        <time>2017-05-10T14:00:01Z</time>
      </trkpt>
      <trkpt lat="45.26669" lon="6.5957">
        <ele>2982</ele>
        <time>2017-05-10T14:00:03Z</time>
      </trkpt>
      <trkpt lat="45.26673" lon="6.59565">
        <ele>2980</ele>
        <time>2017-05-10T14:00:04Z</time>
      </trkpt>
      <trkpt lat="45.26678" lon="6.59564">
        <ele>2979</ele>
        <time>2017-05-10T14:00:05Z</time>
      </trkpt>
      <trkpt lat="45.26682" lon="6.59567">
        <ele>2977</ele>
        <time>2017-05-10T14:00:06Z</time>
      </trkpt>
      <trkpt lat="45.26682" lon="6.59572">
        <ele>2977</ele>
        <time>2017-05-10T14:00:08Z</time>
      </trkpt>
      <trkpt lat="45.26685" lon="6.59573">
        <ele>2977</ele>
        <time>2017-05-10T14:00:11Z</time>
      </trkpt>
      <trkpt lat="45.26693" lon="6.59576">
        <ele>2975</ele>
        <time>2017-05-10T14:00:16Z</time>
      </trkpt>
      <trkpt lat="45.267" lon="6.59582">
        <ele>2973</ele>
        <time>2017-05-10T14:00:18Z</time>
      </trkpt>
      <trkpt lat="45.26704" lon="6.59578">
        <ele>2972</ele>
        <time>2017-05-10T14:00:19Z</time>
      </trkpt>
      <trkpt lat="45.26705" lon="6.59574">
        <ele>2970</ele>
        <time>2017-05-10T14:00:20Z</time>
      </trkpt>
      <trkpt lat="45.26705" lon="6.59564">
        <ele>2967</ele>
        <time>2017-05-10T14:00:24Z</time>
      </trkpt>
      <trkpt lat="45.26709" lon="6.59563">
        <ele>2966</ele>
        <time>2017-05-10T14:00:26Z</time>
      </trkpt>
      <trkpt lat="45.26711" lon="6.59565">
        <ele>2965</ele>
        <time>2017-05-10T14:00:27Z</time>
      </trkpt>
      <trkpt lat="45.26718" lon="6.59577">
        <ele>2963</ele>
        <time>2017-05-10T14:00:30Z</time>
      </trkpt>
      <trkpt lat="45.26731" lon="6.59608">
        <ele>2960</ele>
        <time>2017-05-10T14:00:37Z</time>
      </trkpt>
      <trkpt lat="45.26737" lon="6.59624">
        <ele>2959</ele>
        <time>2017-05-10T14:00:41Z</time>
      </trkpt>
      <trkpt lat="45.26741" lon="6.59626">
        <ele>2958</ele>
        <time>2017-05-10T14:00:42Z</time>
      </trkpt>
      <trkpt lat="45.26744" lon="6.59623">
        <ele>2957</ele>
        <time>2017-05-10T14:00:43Z</time>
      </trkpt>
      <trkpt lat="45.26749" lon="6.59611">
        <ele>2955</ele>
        <time>2017-05-10T14:00:45Z</time>
      </trkpt>
      <trkpt lat="45.26753" lon="6.59605">
        <ele>2955</ele>
        <time>2017-05-10T14:00:46Z</time>
      </trkpt>
      <trkpt lat="45.26758" lon="6.59605">
        <ele>2954</ele>
        <time>2017-05-10T14:00:47Z</time>
      </trkpt>
      <trkpt lat="45.26771" lon="6.59607">
        <ele>2953</ele>
        <time>2017-05-10T14:00:49Z</time>
      </trkpt>
      <trkpt lat="45.26774" lon="6.596">
        <ele>2951</ele>
        <time>2017-05-10T14:00:50Z</time>
      </trkpt>
      <trkpt lat="45.26777" lon="6.59583">
        <ele>2949</ele>
        <time>2017-05-10T14:00:52Z</time>
      </trkpt>
      <trkpt lat="45.2678" lon="6.59578">
        <ele>2949</ele>
        <time>2017-05-10T14:00:53Z</time>
      </trkpt>
      <trkpt lat="45.26786" lon="6.59586">
        <ele>2948</ele>
        <time>2017-05-10T14:00:54Z</time>
      </trkpt>
      <trkpt lat="45.26787" lon="6.59583">
        <ele>2947</ele>
        <time>2017-05-10T14:00:55Z</time>
      </trkpt>
      <trkpt lat="45.2679" lon="6.59575">
        <ele>2944</ele>
        <time>2017-05-10T14:00:57Z</time>
      </trkpt>
      <trkpt lat="45.26793" lon="6.5957">
        <ele>2944</ele>
        <time>2017-05-10T14:00:58Z</time>
      </trkpt>
      <trkpt lat="45.26795" lon="6.59557">
        <ele>2941</ele>
        <time>2017-05-10T14:01:00Z</time>
      </trkpt>
      <trkpt lat="45.26798" lon="6.59554">
        <ele>2940</ele>
        <time>2017-05-10T14:01:01Z</time>
      </trkpt>
      <trkpt lat="45.26801" lon="6.59558">
        <ele>2939</ele>
        <time>2017-05-10T14:01:03Z</time>
      </trkpt>
      <trkpt lat="45.26819" lon="6.59583">
        <ele>2934</ele>
        <time>2017-05-10T14:01:09Z</time>
      </trkpt>
      <trkpt lat="45.26823" lon="6.59584">
        <ele>2932</ele>
        <time>2017-05-10T14:01:10Z</time>
      </trkpt>
      <trkpt lat="45.26828" lon="6.59581">
        <ele>2932</ele>
        <time>2017-05-10T14:01:11Z</time>
      </trkpt>
      <trkpt lat="45.2683" lon="6.59574">
        <ele>2930</ele>
        <time>2017-05-10T14:01:12Z</time>
      </trkpt>
      <trkpt lat="45.26834" lon="6.59571">
        <ele>2929</ele>
        <time>2017-05-10T14:01:13Z</time>
      </trkpt>
      <trkpt lat="45.26839" lon="6.59576">
        <ele>2928</ele>
        <time>2017-05-10T14:01:14Z</time>
      </trkpt>
      <trkpt lat="45.26858" lon="6.59592">
        <ele>2925</ele>
        <time>2017-05-10T14:01:18Z</time>
      </trkpt>
      <trkpt lat="45.26863" lon="6.59585">
        <ele>2923</ele>
        <time>2017-05-10T14:01:19Z</time>
      </trkpt>
      <trkpt lat="45.26863" lon="6.59575">
        <ele>2921</ele>
        <time>2017-05-10T14:01:20Z</time>
      </trkpt>
      <trkpt lat="45.26868" lon="6.59572">
        <ele>2920</ele>
        <time>2017-05-10T14:01:21Z</time>
      </trkpt>
      <trkpt lat="45.26872" lon="6.59574">
        <ele>2917</ele>
        <time>2017-05-10T14:01:22Z</time>
      </trkpt>
      <trkpt lat="45.26885" lon="6.59586">
        <ele>2913</ele>
        <time>2017-05-10T14:01:25Z</time>
      </trkpt>
      <trkpt lat="45.26898" lon="6.59603">
        <ele>2909</ele>
        <time>2017-05-10T14:01:28Z</time>
      </trkpt>
      <trkpt lat="45.26901" lon="6.59609">
        <ele>2908</ele>
        <time>2017-05-10T14:01:30Z</time>
      </trkpt>
      <trkpt lat="45.26905" lon="6.59608">
        <ele>2906</ele>
        <time>2017-05-10T14:01:31Z</time>
      </trkpt>
      <trkpt lat="45.26908" lon="6.59607">
        <ele>2905</ele>
        <time>2017-05-10T14:01:32Z</time>
      </trkpt>
      <trkpt lat="45.26907" lon="6.59596">
        <ele>2902</ele>
        <time>2017-05-10T14:01:33Z</time>
      </trkpt>
      <trkpt lat="45.26907" lon="6.59578">
        <ele>2899</ele>
        <time>2017-05-10T14:01:35Z</time>
      </trkpt>
      <trkpt lat="45.26909" lon="6.59574">
        <ele>2898</ele>
        <time>2017-05-10T14:01:36Z</time>
      </trkpt>
      <trkpt lat="45.26913" lon="6.59571">
        <ele>2896</ele>
        <time>2017-05-10T14:01:37Z</time>
      </trkpt>
      <trkpt lat="45.26916" lon="6.59573">
        <ele>2894</ele>
        <time>2017-05-10T14:01:39Z</time>
      </trkpt>
      <trkpt lat="45.26922" lon="6.59577">
        <ele>2891</ele>
        <time>2017-05-10T14:02:12Z</time>
      </trkpt>
      <trkpt lat="45.26925" lon="6.59577">
        <ele>2885</ele>
        <time>2017-05-10T14:04:03Z</time>
      </trkpt>
      <trkpt lat="45.26929" lon="6.59574">
        <ele>2884</ele>
        <time>2017-05-10T14:04:06Z</time>
      </trkpt>
      <trkpt lat="45.26931" lon="6.59562">
        <ele>2882</ele>
        <time>2017-05-10T14:04:08Z</time>
      </trkpt>
      <trkpt lat="45.26936" lon="6.59558">
        <ele>2880</ele>
        <time>2017-05-10T14:04:09Z</time>
      </trkpt>
      <trkpt lat="45.26942" lon="6.5956">
        <ele>2878</ele>
        <time>2017-05-10T14:04:10Z</time>
      </trkpt>
      <trkpt lat="45.26952" lon="6.59567">
        <ele>2875</ele>
        <time>2017-05-10T14:04:12Z</time>
      </trkpt>
      <trkpt lat="45.26964" lon="6.59587">
        <ele>2872</ele>
        <time>2017-05-10T14:04:15Z</time>
      </trkpt>
      <trkpt lat="45.26974" lon="6.59601">
        <ele>2868</ele>
        <time>2017-05-10T14:04:18Z</time>
      </trkpt>
      <trkpt lat="45.26981" lon="6.59593">
        <ele>2867</ele>
        <time>2017-05-10T14:04:19Z</time>
      </trkpt>
      <trkpt lat="45.26987" lon="6.59593">
        <ele>2866</ele>
        <time>2017-05-10T14:04:20Z</time>
      </trkpt>
      <trkpt lat="45.2699" lon="6.59595">
        <ele>2865</ele>
        <time>2017-05-10T14:04:21Z</time>
      </trkpt>
      <trkpt lat="45.26992" lon="6.596">
        <ele>2865</ele>
        <time>2017-05-10T14:04:22Z</time>
      </trkpt>
      <trkpt lat="45.26991" lon="6.59609">
        <ele>2864</ele>
        <time>2017-05-10T14:04:23Z</time>
      </trkpt>
      <trkpt lat="45.26999" lon="6.5964">
        <ele>2862</ele>
        <time>2017-05-10T14:04:28Z</time>
      </trkpt>
      <trkpt lat="45.27004" lon="6.59641">
        <ele>2860</ele>
        <time>2017-05-10T14:04:29Z</time>
      </trkpt>
      <trkpt lat="45.27007" lon="6.59641">
        <ele>2860</ele>
        <time>2017-05-10T14:04:30Z</time>
      </trkpt>
      <trkpt lat="45.27012" lon="6.59631">
        <ele>2858</ele>
        <time>2017-05-10T14:04:31Z</time>
      </trkpt>
      <trkpt lat="45.27018" lon="6.5963">
        <ele>2856</ele>
        <time>2017-05-10T14:04:32Z</time>
      </trkpt>
      <trkpt lat="45.27023" lon="6.59631">
        <ele>2855</ele>
        <time>2017-05-10T14:04:33Z</time>
      </trkpt>
      <trkpt lat="45.2703" lon="6.59641">
        <ele>2854</ele>
        <time>2017-05-10T14:04:35Z</time>
      </trkpt>
      <trkpt lat="45.27032" lon="6.59646">
        <ele>2853</ele>
        <time>2017-05-10T14:04:36Z</time>
      </trkpt>
      <trkpt lat="45.27032" lon="6.59653">
        <ele>2853</ele>
        <time>2017-05-10T14:04:37Z</time>
      </trkpt>
      <trkpt lat="45.27036" lon="6.59656">
        <ele>2853</ele>
        <time>2017-05-10T14:04:38Z</time>
      </trkpt>
      <trkpt lat="45.27049" lon="6.59652">
        <ele>2852</ele>
        <time>2017-05-10T14:04:40Z</time>
      </trkpt>
      <trkpt lat="45.27055" lon="6.59655">
        <ele>2850</ele>
        <time>2017-05-10T14:04:41Z</time>
      </trkpt>
      <trkpt lat="45.27055" lon="6.59659">
        <ele>2849</ele>
        <time>2017-05-10T14:04:42Z</time>
      </trkpt>
      <trkpt lat="45.27052" lon="6.59666">
        <ele>2848</ele>
        <time>2017-05-10T14:04:44Z</time>
      </trkpt>
      <trkpt lat="45.27052" lon="6.59675">
        <ele>2846</ele>
        <time>2017-05-10T14:04:46Z</time>
      </trkpt>
      <trkpt lat="45.27056" lon="6.59675">
        <ele>2845</ele>
        <time>2017-05-10T14:04:47Z</time>
      </trkpt>
      <trkpt lat="45.27077" lon="6.59668">
        <ele>2843</ele>
        <time>2017-05-10T14:04:52Z</time>
      </trkpt>
      <trkpt lat="45.27081" lon="6.59671">
        <ele>2843</ele>
        <time>2017-05-10T14:04:53Z</time>
      </trkpt>
      <trkpt lat="45.27083" lon="6.59679">
        <ele>2842</ele>
        <time>2017-05-10T14:04:55Z</time>
      </trkpt>
      <trkpt lat="45.27077" lon="6.59684">
        <ele>2842</ele>
        <time>2017-05-10T14:04:56Z</time>
      </trkpt>
      <trkpt lat="45.27077" lon="6.59692">
        <ele>2839</ele>
        <time>2017-05-10T14:04:58Z</time>
      </trkpt>
      <trkpt lat="45.27079" lon="6.59696">
        <ele>2839</ele>
        <time>2017-05-10T14:04:59Z</time>
      </trkpt>
      <trkpt lat="45.27087" lon="6.59696">
        <ele>2836</ele>
        <time>2017-05-10T14:05:01Z</time>
      </trkpt>
      <trkpt lat="45.27097" lon="6.59706">
        <ele>2834</ele>
        <time>2017-05-10T14:05:03Z</time>
      </trkpt>
      <trkpt lat="45.27101" lon="6.59719">
        <ele>2833</ele>
        <time>2017-05-10T14:05:05Z</time>
      </trkpt>
      <trkpt lat="45.27106" lon="6.59712">
        <ele>2828</ele>
        <time>2017-05-10T14:05:08Z</time>
      </trkpt>
      <trkpt lat="45.27125" lon="6.59707">
        <ele>2823</ele>
        <time>2017-05-10T14:05:11Z</time>
      </trkpt>
      <trkpt lat="45.2713" lon="6.59712">
        <ele>2821</ele>
        <time>2017-05-10T14:05:12Z</time>
      </trkpt>
      <trkpt lat="45.2713" lon="6.59724">
        <ele>2819</ele>
        <time>2017-05-10T14:05:14Z</time>
      </trkpt>
      <trkpt lat="45.27127" lon="6.59734">
        <ele>2817</ele>
        <time>2017-05-10T14:05:15Z</time>
      </trkpt>
      <trkpt lat="45.27138" lon="6.59733">
        <ele>2815</ele>
        <time>2017-05-10T14:05:16Z</time>
      </trkpt>
      <trkpt lat="45.27142" lon="6.59727">
        <ele>2814</ele>
        <time>2017-05-10T14:05:17Z</time>
      </trkpt>
      <trkpt lat="45.27154" lon="6.59727">
        <ele>2810</ele>
        <time>2017-05-10T14:05:19Z</time>
      </trkpt>
      <trkpt lat="45.27161" lon="6.59731">
        <ele>2810</ele>
        <time>2017-05-10T14:05:20Z</time>
      </trkpt>
      <trkpt lat="45.2716" lon="6.59741">
        <ele>2809</ele>
        <time>2017-05-10T14:05:21Z</time>
      </trkpt>
      <trkpt lat="45.27161" lon="6.59767">
        <ele>2808</ele>
        <time>2017-05-10T14:05:24Z</time>
      </trkpt>
      <trkpt lat="45.2716" lon="6.59777">
        <ele>2807</ele>
        <time>2017-05-10T14:05:25Z</time>
      </trkpt>
      <trkpt lat="45.27173" lon="6.59782">
        <ele>2804</ele>
        <time>2017-05-10T14:05:28Z</time>
      </trkpt>
      <trkpt lat="45.27182" lon="6.59797">
        <ele>2801</ele>
        <time>2017-05-10T14:05:30Z</time>
      </trkpt>
      <trkpt lat="45.27194" lon="6.59804">
        <ele>2799</ele>
        <time>2017-05-10T14:05:32Z</time>
      </trkpt>
      <trkpt lat="45.27197" lon="6.59793">
        <ele>2797</ele>
        <time>2017-05-10T14:05:33Z</time>
      </trkpt>
      <trkpt lat="45.27224" lon="6.59777">
        <ele>2786</ele>
        <time>2017-05-10T14:05:37Z</time>
      </trkpt>
      <trkpt lat="45.27232" lon="6.59779">
        <ele>2785</ele>
        <time>2017-05-10T14:05:38Z</time>
      </trkpt>
      <trkpt lat="45.2723" lon="6.59802">
        <ele>2782</ele>
        <time>2017-05-10T14:05:40Z</time>
      </trkpt>
      <trkpt lat="45.2723" lon="6.5981">
        <ele>2782</ele>
        <time>2017-05-10T14:05:41Z</time>
      </trkpt>
      <trkpt lat="45.27228" lon="6.59814">
        <ele>2780</ele>
        <time>2017-05-10T14:05:43Z</time>
      </trkpt>
      <trkpt lat="45.27225" lon="6.59814">
        <ele>2777</ele>
        <time>2017-05-10T14:05:48Z</time>
      </trkpt>
      <trkpt lat="45.27226" lon="6.59813">
        <ele>2771</ele>
        <time>2017-05-10T14:08:03Z</time>
      </trkpt>
      <trkpt lat="45.27227" lon="6.59807">
        <ele>2769</ele>
        <time>2017-05-10T14:08:05Z</time>
      </trkpt>
      <trkpt lat="45.2723" lon="6.59804">
        <ele>2765</ele>
        <time>2017-05-10T14:08:30Z</time>
      </trkpt>
      <trkpt lat="45.27241" lon="6.59798">
        <ele>2762</ele>
        <time>2017-05-10T14:08:33Z</time>
      </trkpt>
      <trkpt lat="45.27247" lon="6.59802">
        <ele>2761</ele>
        <time>2017-05-10T14:08:35Z</time>
      </trkpt>
      <trkpt lat="45.27258" lon="6.59826">
        <ele>2761</ele>
        <time>2017-05-10T14:08:40Z</time>
      </trkpt>
      <trkpt lat="45.27279" lon="6.59813">
        <ele>2760</ele>
        <time>2017-05-10T14:08:44Z</time>
      </trkpt>
      <trkpt lat="45.27284" lon="6.59813">
        <ele>2759</ele>
        <time>2017-05-10T14:08:45Z</time>
      </trkpt>
      <trkpt lat="45.27289" lon="6.59824">
        <ele>2756</ele>
        <time>2017-05-10T14:08:46Z</time>
      </trkpt>
      <trkpt lat="45.27295" lon="6.59826">
        <ele>2754</ele>
        <time>2017-05-10T14:08:47Z</time>
      </trkpt>
      <trkpt lat="45.27299" lon="6.59822">
        <ele>2753</ele>
        <time>2017-05-10T14:08:48Z</time>
      </trkpt>
      <trkpt lat="45.27304" lon="6.5982">
        <ele>2751</ele>
        <time>2017-05-10T14:08:49Z</time>
      </trkpt>
      <trkpt lat="45.27309" lon="6.59823">
        <ele>2749</ele>
        <time>2017-05-10T14:08:50Z</time>
      </trkpt>
      <trkpt lat="45.27312" lon="6.59827">
        <ele>2748</ele>
        <time>2017-05-10T14:08:51Z</time>
      </trkpt>
      <trkpt lat="45.27311" lon="6.59835">
        <ele>2747</ele>
        <time>2017-05-10T14:08:52Z</time>
      </trkpt>
      <trkpt lat="45.27326" lon="6.59887">
        <ele>2739</ele>
        <time>2017-05-10T14:09:01Z</time>
      </trkpt>
      <trkpt lat="45.2734" lon="6.59911">
        <ele>2737</ele>
        <time>2017-05-10T14:09:06Z</time>
      </trkpt>
      <trkpt lat="45.27347" lon="6.59928">
        <ele>2735</ele>
        <time>2017-05-10T14:09:09Z</time>
      </trkpt>
      <trkpt lat="45.27359" lon="6.59951">
        <ele>2735</ele>
        <time>2017-05-10T14:09:13Z</time>
      </trkpt>
      <trkpt lat="45.27369" lon="6.59947">
        <ele>2731</ele>
        <time>2017-05-10T14:09:15Z</time>
      </trkpt>
      <trkpt lat="45.27374" lon="6.59942">
        <ele>2728</ele>
        <time>2017-05-10T14:09:16Z</time>
      </trkpt>
      <trkpt lat="45.27377" lon="6.59933">
        <ele>2724</ele>
        <time>2017-05-10T14:09:17Z</time>
      </trkpt>
      <trkpt lat="45.2738" lon="6.59918">
        <ele>2722</ele>
        <time>2017-05-10T14:09:19Z</time>
      </trkpt>
      <trkpt lat="45.27381" lon="6.59911">
        <ele>2721</ele>
        <time>2017-05-10T14:09:20Z</time>
      </trkpt>
      <trkpt lat="45.27389" lon="6.59902">
        <ele>2719</ele>
        <time>2017-05-10T14:09:22Z</time>
      </trkpt>
      <trkpt lat="45.27401" lon="6.59896">
        <ele>2716</ele>
        <time>2017-05-10T14:09:24Z</time>
      </trkpt>
      <trkpt lat="45.27406" lon="6.59884">
        <ele>2714</ele>
        <time>2017-05-10T14:09:26Z</time>
      </trkpt>
      <trkpt lat="45.2741" lon="6.59882">
        <ele>2713</ele>
        <time>2017-05-10T14:09:27Z</time>
      </trkpt>
      <trkpt lat="45.27413" lon="6.59886">
        <ele>2712</ele>
        <time>2017-05-10T14:09:28Z</time>
      </trkpt>
      <trkpt lat="45.27414" lon="6.5989">
        <ele>2712</ele>
        <time>2017-05-10T14:09:29Z</time>
      </trkpt>
      <trkpt lat="45.27418" lon="6.59909">
        <ele>2709</ele>
        <time>2017-05-10T14:09:35Z</time>
      </trkpt>
      <trkpt lat="45.27423" lon="6.59936">
        <ele>2707</ele>
        <time>2017-05-10T14:09:39Z</time>
      </trkpt>
      <trkpt lat="45.27426" lon="6.5994">
        <ele>2707</ele>
        <time>2017-05-10T14:09:40Z</time>
      </trkpt>
      <trkpt lat="45.2743" lon="6.59938">
        <ele>2706</ele>
        <time>2017-05-10T14:09:41Z</time>
      </trkpt>
      <trkpt lat="45.27551" lon="6.59847">
        <ele>2692</ele>
        <time>2017-05-10T14:10:05Z</time>
      </trkpt>
      <trkpt lat="45.27561" lon="6.59865">
        <ele>2689</ele>
        <time>2017-05-10T14:10:10Z</time>
      </trkpt>
      <trkpt lat="45.27569" lon="6.59877">
        <ele>2687</ele>
        <time>2017-05-10T14:10:12Z</time>
      </trkpt>
      <trkpt lat="45.27586" lon="6.599">
        <ele>2685</ele>
        <time>2017-05-10T14:10:16Z</time>
      </trkpt>
      <trkpt lat="45.27595" lon="6.59907">
        <ele>2683</ele>
        <time>2017-05-10T14:10:18Z</time>
      </trkpt>
      <trkpt lat="45.27637" lon="6.59897">
        <ele>2677</ele>
        <time>2017-05-10T14:10:24Z</time>
      </trkpt>
      <trkpt lat="45.27641" lon="6.59891">
        <ele>2676</ele>
        <time>2017-05-10T14:10:25Z</time>
      </trkpt>
      <trkpt lat="45.27652" lon="6.5989">
        <ele>2674</ele>
        <time>2017-05-10T14:10:27Z</time>
      </trkpt>
      <trkpt lat="45.27657" lon="6.59888">
        <ele>2673</ele>
        <time>2017-05-10T14:10:28Z</time>
      </trkpt>
      <trkpt lat="45.27657" lon="6.59882">
        <ele>2671</ele>
        <time>2017-05-10T14:10:29Z</time>
      </trkpt>
      <trkpt lat="45.27654" lon="6.59865">
        <ele>2667</ele>
        <time>2017-05-10T14:10:31Z</time>
      </trkpt>
      <trkpt lat="45.27653" lon="6.59825">
        <ele>2664</ele>
        <time>2017-05-10T14:10:35Z</time>
      </trkpt>
      <trkpt lat="45.27661" lon="6.59795">
        <ele>2662</ele>
        <time>2017-05-10T14:10:39Z</time>
      </trkpt>
      <trkpt lat="45.27675" lon="6.59769">
        <ele>2656</ele>
        <time>2017-05-10T14:10:43Z</time>
      </trkpt>
      <trkpt lat="45.27718" lon="6.59663">
        <ele>2641</ele>
        <time>2017-05-10T14:10:57Z</time>
      </trkpt>
      <trkpt lat="45.27722" lon="6.59663">
        <ele>2639</ele>
        <time>2017-05-10T14:10:58Z</time>
      </trkpt>
      <trkpt lat="45.27737" lon="6.59675">
        <ele>2637</ele>
        <time>2017-05-10T14:11:01Z</time>
      </trkpt>
      <trkpt lat="45.2774" lon="6.59671">
        <ele>2636</ele>
        <time>2017-05-10T14:11:02Z</time>
      </trkpt>
      <trkpt lat="45.27745" lon="6.59651">
        <ele>2633</ele>
        <time>2017-05-10T14:11:04Z</time>
      </trkpt>
      <trkpt lat="45.27751" lon="6.59615">
        <ele>2629</ele>
        <time>2017-05-10T14:11:08Z</time>
      </trkpt>
      <trkpt lat="45.2776" lon="6.59605">
        <ele>2626</ele>
        <time>2017-05-10T14:11:10Z</time>
      </trkpt>
      <trkpt lat="45.27768" lon="6.59607">
        <ele>2626</ele>
        <time>2017-05-10T14:11:11Z</time>
      </trkpt>
      <trkpt lat="45.27775" lon="6.59612">
        <ele>2625</ele>
        <time>2017-05-10T14:11:12Z</time>
      </trkpt>
      <trkpt lat="45.27781" lon="6.5961">
        <ele>2623</ele>
        <time>2017-05-10T14:11:13Z</time>
      </trkpt>
      <trkpt lat="45.27783" lon="6.59605">
        <ele>2621</ele>
        <time>2017-05-10T14:11:14Z</time>
      </trkpt>
      <trkpt lat="45.27786" lon="6.5959">
        <ele>2617</ele>
        <time>2017-05-10T14:11:16Z</time>
      </trkpt>
      <trkpt lat="45.27804" lon="6.59498">
        <ele>2604</ele>
        <time>2017-05-10T14:11:28Z</time>
      </trkpt>
      <trkpt lat="45.2781" lon="6.59496">
        <ele>2603</ele>
        <time>2017-05-10T14:11:29Z</time>
      </trkpt>
      <trkpt lat="45.27827" lon="6.59499">
        <ele>2600</ele>
        <time>2017-05-10T14:11:31Z</time>
      </trkpt>
      <trkpt lat="45.27828" lon="6.59487">
        <ele>2598</ele>
        <time>2017-05-10T14:11:32Z</time>
      </trkpt>
      <trkpt lat="45.27847" lon="6.59444">
        <ele>2593</ele>
        <time>2017-05-10T14:11:37Z</time>
      </trkpt>
      <trkpt lat="45.27852" lon="6.59442">
        <ele>2592</ele>
        <time>2017-05-10T14:11:38Z</time>
      </trkpt>
      <trkpt lat="45.2788" lon="6.59454">
        <ele>2590</ele>
        <time>2017-05-10T14:11:43Z</time>
      </trkpt>
      <trkpt lat="45.27886" lon="6.59447">
        <ele>2586</ele>
        <time>2017-05-10T14:11:45Z</time>
      </trkpt>
      <trkpt lat="45.27903" lon="6.59423">
        <ele>2579</ele>
        <time>2017-05-10T14:11:49Z</time>
      </trkpt>
      <trkpt lat="45.27902" lon="6.59417">
        <ele>2578</ele>
        <time>2017-05-10T14:11:50Z</time>
      </trkpt>
      <trkpt lat="45.27902" lon="6.59411">
        <ele>2576</ele>
        <time>2017-05-10T14:11:51Z</time>
      </trkpt>
      <trkpt lat="45.27909" lon="6.59394">
        <ele>2572</ele>
        <time>2017-05-10T14:11:54Z</time>
      </trkpt>
      <trkpt lat="45.27924" lon="6.59361">
        <ele>2567</ele>
        <time>2017-05-10T14:11:59Z</time>
      </trkpt>
      <trkpt lat="45.27929" lon="6.59349">
        <ele>2565</ele>
        <time>2017-05-10T14:12:01Z</time>
      </trkpt>
      <trkpt lat="45.27933" lon="6.59345">
        <ele>2564</ele>
        <time>2017-05-10T14:12:02Z</time>
      </trkpt>
      <trkpt lat="45.27944" lon="6.59345">
        <ele>2563</ele>
        <time>2017-05-10T14:12:04Z</time>
      </trkpt>
      <trkpt lat="45.27945" lon="6.59352">
        <ele>2563</ele>
        <time>2017-05-10T14:12:06Z</time>
      </trkpt>
      <trkpt lat="45.27943" lon="6.59357">
        <ele>2561</ele>
        <time>2017-05-10T14:13:15Z</time>
      </trkpt>
      <trkpt lat="45.27941" lon="6.59359">
        <ele>2559</ele>
        <time>2017-05-10T14:13:38Z</time>
      </trkpt>
      <trkpt lat="45.27934" lon="6.59363">
        <ele>2555</ele>
        <time>2017-05-10T14:16:18Z</time>
      </trkpt>
      <trkpt lat="45.27939" lon="6.59358">
        <ele>2555</ele>
        <time>2017-05-10T14:16:45Z</time>
      </trkpt>
      <trkpt lat="45.27941" lon="6.59362">
        <ele>2558</ele>
        <time>2017-05-10T14:18:23Z</time>
      </trkpt>
      <trkpt lat="45.27944" lon="6.5936">
        <ele>2558</ele>
        <time>2017-05-10T14:18:25Z</time>
      </trkpt>
      <trkpt lat="45.27944" lon="6.59356">
        <ele>2557</ele>
        <time>2017-05-10T14:18:27Z</time>
      </trkpt>
      <trkpt lat="45.27947" lon="6.59353">
        <ele>2557</ele>
        <time>2017-05-10T14:18:44Z</time>
      </trkpt>
      <trkpt lat="45.27965" lon="6.59342">
        <ele>2553</ele>
        <time>2017-05-10T14:18:49Z</time>
      </trkpt>
      <trkpt lat="45.27968" lon="6.59336">
        <ele>2551</ele>
        <time>2017-05-10T14:18:50Z</time>
      </trkpt>
      <trkpt lat="45.27973" lon="6.59322">
        <ele>2548</ele>
        <time>2017-05-10T14:18:52Z</time>
      </trkpt>
      <trkpt lat="45.27984" lon="6.59316">
        <ele>2545</ele>
        <time>2017-05-10T14:18:54Z</time>
      </trkpt>
      <trkpt lat="45.27985" lon="6.59309">
        <ele>2544</ele>
        <time>2017-05-10T14:18:55Z</time>
      </trkpt>
      <trkpt lat="45.27984" lon="6.59297">
        <ele>2543</ele>
        <time>2017-05-10T14:18:57Z</time>
      </trkpt>
      <trkpt lat="45.27984" lon="6.59293">
        <ele>2543</ele>
        <time>2017-05-10T14:18:59Z</time>
      </trkpt>
      <trkpt lat="45.27988" lon="6.59291">
        <ele>2544</ele>
        <time>2017-05-10T14:22:09Z</time>
      </trkpt>
      <trkpt lat="45.27991" lon="6.5929">
        <ele>2542</ele>
        <time>2017-05-10T14:22:10Z</time>
      </trkpt>
      <trkpt lat="45.28016" lon="6.59278">
        <ele>2537</ele>
        <time>2017-05-10T14:22:16Z</time>
      </trkpt>
      <trkpt lat="45.2802" lon="6.59272">
        <ele>2535</ele>
        <time>2017-05-10T14:22:17Z</time>
      </trkpt>
      <trkpt lat="45.28021" lon="6.59256">
        <ele>2533</ele>
        <time>2017-05-10T14:22:19Z</time>
      </trkpt>
      <trkpt lat="45.28025" lon="6.59236">
        <ele>2531</ele>
        <time>2017-05-10T14:22:22Z</time>
      </trkpt>
      <trkpt lat="45.28029" lon="6.59234">
        <ele>2529</ele>
        <time>2017-05-10T14:22:23Z</time>
      </trkpt>
      <trkpt lat="45.28034" lon="6.59236">
        <ele>2528</ele>
        <time>2017-05-10T14:22:24Z</time>
      </trkpt>
      <trkpt lat="45.28039" lon="6.59237">
        <ele>2526</ele>
        <time>2017-05-10T14:22:25Z</time>
      </trkpt>
      <trkpt lat="45.28044" lon="6.59233">
        <ele>2524</ele>
        <time>2017-05-10T14:22:26Z</time>
      </trkpt>
      <trkpt lat="45.28049" lon="6.59218">
        <ele>2521</ele>
        <time>2017-05-10T14:22:28Z</time>
      </trkpt>
      <trkpt lat="45.28053" lon="6.59204">
        <ele>2518</ele>
        <time>2017-05-10T14:22:30Z</time>
      </trkpt>
      <trkpt lat="45.28056" lon="6.59203">
        <ele>2517</ele>
        <time>2017-05-10T14:22:31Z</time>
      </trkpt>
      <trkpt lat="45.28059" lon="6.59204">
        <ele>2515</ele>
        <time>2017-05-10T14:22:32Z</time>
      </trkpt>
      <trkpt lat="45.28065" lon="6.59203">
        <ele>2514</ele>
        <time>2017-05-10T14:22:33Z</time>
      </trkpt>
      <trkpt lat="45.28067" lon="6.59197">
        <ele>2512</ele>
        <time>2017-05-10T14:22:34Z</time>
      </trkpt>
      <trkpt lat="45.28072" lon="6.59177">
        <ele>2509</ele>
        <time>2017-05-10T14:22:37Z</time>
      </trkpt>
      <trkpt lat="45.28076" lon="6.59173">
        <ele>2507</ele>
        <time>2017-05-10T14:22:38Z</time>
      </trkpt>
      <trkpt lat="45.2808" lon="6.59172">
        <ele>2507</ele>
        <time>2017-05-10T14:22:39Z</time>
      </trkpt>
      <trkpt lat="45.28091" lon="6.59181">
        <ele>2502</ele>
        <time>2017-05-10T14:22:42Z</time>
      </trkpt>
      <trkpt lat="45.28096" lon="6.59178">
        <ele>2501</ele>
        <time>2017-05-10T14:22:43Z</time>
      </trkpt>
      <trkpt lat="45.28099" lon="6.59174">
        <ele>2500</ele>
        <time>2017-05-10T14:22:44Z</time>
      </trkpt>
      <trkpt lat="45.28099" lon="6.59159">
        <ele>2497</ele>
        <time>2017-05-10T14:22:46Z</time>
      </trkpt>
      <trkpt lat="45.28101" lon="6.59144">
        <ele>2495</ele>
        <time>2017-05-10T14:22:48Z</time>
      </trkpt>
      <trkpt lat="45.28104" lon="6.59139">
        <ele>2493</ele>
        <time>2017-05-10T14:22:49Z</time>
      </trkpt>
      <trkpt lat="45.28109" lon="6.59139">
        <ele>2491</ele>
        <time>2017-05-10T14:22:50Z</time>
      </trkpt>
      <trkpt lat="45.28125" lon="6.59142">
        <ele>2487</ele>
        <time>2017-05-10T14:22:53Z</time>
      </trkpt>
      <trkpt lat="45.28129" lon="6.59138">
        <ele>2486</ele>
        <time>2017-05-10T14:22:54Z</time>
      </trkpt>
      <trkpt lat="45.28132" lon="6.59131">
        <ele>2485</ele>
        <time>2017-05-10T14:22:55Z</time>
      </trkpt>
      <trkpt lat="45.2813" lon="6.59121">
        <ele>2483</ele>
        <time>2017-05-10T14:22:56Z</time>
      </trkpt>
      <trkpt lat="45.28133" lon="6.59095">
        <ele>2478</ele>
        <time>2017-05-10T14:22:59Z</time>
      </trkpt>
      <trkpt lat="45.28136" lon="6.59089">
        <ele>2477</ele>
        <time>2017-05-10T14:23:00Z</time>
      </trkpt>
      <trkpt lat="45.2814" lon="6.59087">
        <ele>2475</ele>
        <time>2017-05-10T14:23:01Z</time>
      </trkpt>
      <trkpt lat="45.28161" lon="6.59079">
        <ele>2468</ele>
        <time>2017-05-10T14:23:05Z</time>
      </trkpt>
      <trkpt lat="45.28163" lon="6.59071">
        <ele>2467</ele>
        <time>2017-05-10T14:23:06Z</time>
      </trkpt>
      <trkpt lat="45.28164" lon="6.59063">
        <ele>2465</ele>
        <time>2017-05-10T14:23:07Z</time>
      </trkpt>
      <trkpt lat="45.28168" lon="6.59057">
        <ele>2463</ele>
        <time>2017-05-10T14:23:08Z</time>
      </trkpt>
      <trkpt lat="45.28179" lon="6.59052">
        <ele>2460</ele>
        <time>2017-05-10T14:23:10Z</time>
      </trkpt>
      <trkpt lat="45.2819" lon="6.59044">
        <ele>2457</ele>
        <time>2017-05-10T14:23:12Z</time>
      </trkpt>
      <trkpt lat="45.28194" lon="6.59029">
        <ele>2453</ele>
        <time>2017-05-10T14:23:14Z</time>
      </trkpt>
      <trkpt lat="45.28204" lon="6.59007">
        <ele>2449</ele>
        <time>2017-05-10T14:23:17Z</time>
      </trkpt>
      <trkpt lat="45.28284" lon="6.58865">
        <ele>2430</ele>
        <time>2017-05-10T14:23:47Z</time>
      </trkpt>
      <trkpt lat="45.28299" lon="6.58834">
        <ele>2431</ele>
        <time>2017-05-10T14:24:18Z</time>
      </trkpt>
      <trkpt lat="45.28299" lon="6.5883">
        <ele>2432</ele>
        <time>2017-05-10T14:24:58Z</time>
      </trkpt>
      <trkpt lat="45.28303" lon="6.58822">
        <ele>2431</ele>
        <time>2017-05-10T14:25:03Z</time>
      </trkpt>
      <trkpt lat="45.2833" lon="6.5877">
        <ele>2427</ele>
        <time>2017-05-10T14:25:25Z</time>
      </trkpt>
      <trkpt lat="45.28342" lon="6.58744">
        <ele>2426</ele>
        <time>2017-05-10T14:25:35Z</time>
      </trkpt>
      <trkpt lat="45.28367" lon="6.58688">
        <ele>2421</ele>
        <time>2017-05-10T14:25:53Z</time>
      </trkpt>
      <trkpt lat="45.2842" lon="6.58575">
        <ele>2410</ele>
        <time>2017-05-10T14:26:23Z</time>
      </trkpt>
      <trkpt lat="45.28429" lon="6.58557">
        <ele>2407</ele>
        <time>2017-05-10T14:26:28Z</time>
      </trkpt>
      <trkpt lat="45.28499" lon="6.58475">
        <ele>2393</ele>
        <time>2017-05-10T14:26:47Z</time>
      </trkpt>
      <trkpt lat="45.28513" lon="6.5847">
        <ele>2389</ele>
        <time>2017-05-10T14:26:53Z</time>
      </trkpt>
      <trkpt lat="45.28583" lon="6.58473">
        <ele>2379</ele>
        <time>2017-05-10T14:27:23Z</time>
      </trkpt>
      <trkpt lat="45.28651" lon="6.58476">
        <ele>2373</ele>
        <time>2017-05-10T14:27:56Z</time>
      </trkpt>
      <trkpt lat="45.28713" lon="6.58466">
        <ele>2367</ele>
        <time>2017-05-10T14:28:26Z</time>
      </trkpt>
      <trkpt lat="45.28762" lon="6.58449">
        <ele>2366</ele>
        <time>2017-05-10T14:28:57Z</time>
      </trkpt>
      <trkpt lat="45.28837" lon="6.58413">
        <ele>2359</ele>
        <time>2017-05-10T14:29:28Z</time>
      </trkpt>
      <trkpt lat="45.2887" lon="6.58399">
        <ele>2356</ele>
        <time>2017-05-10T14:29:39Z</time>
      </trkpt>
      <trkpt lat="45.28902" lon="6.58385">
        <ele>2354</ele>
        <time>2017-05-10T14:29:48Z</time>
      </trkpt>
      <trkpt lat="45.28939" lon="6.58366">
        <ele>2350</ele>
        <time>2017-05-10T14:29:59Z</time>
      </trkpt>
      <trkpt lat="45.28977" lon="6.58359">
        <ele>2347</ele>
        <time>2017-05-10T14:30:11Z</time>
      </trkpt>
      <trkpt lat="45.29046" lon="6.58355">
        <ele>2344</ele>
        <time>2017-05-10T14:30:42Z</time>
      </trkpt>
      <trkpt lat="45.29102" lon="6.58348">
        <ele>2345</ele>
        <time>2017-05-10T14:31:13Z</time>
      </trkpt>
      <trkpt lat="45.29132" lon="6.58349">
        <ele>2348</ele>
        <time>2017-05-10T14:31:44Z</time>
      </trkpt>
      <trkpt lat="45.292" lon="6.5834">
        <ele>2341</ele>
        <time>2017-05-10T14:32:14Z</time>
      </trkpt>
      <trkpt lat="45.29252" lon="6.5833">
        <ele>2338</ele>
        <time>2017-05-10T14:32:35Z</time>
      </trkpt>
      <trkpt lat="45.29317" lon="6.58329">
        <ele>2335</ele>
        <time>2017-05-10T14:33:06Z</time>
      </trkpt>
      <trkpt lat="45.29331" lon="6.5834">
        <ele>2334</ele>
        <time>2017-05-10T14:33:14Z</time>
      </trkpt>
      <trkpt lat="45.29351" lon="6.58358">
        <ele>2331</ele>
        <time>2017-05-10T14:33:24Z</time>
      </trkpt>
      <trkpt lat="45.29391" lon="6.58407">
        <ele>2326</ele>
        <time>2017-05-10T14:33:47Z</time>
      </trkpt>
      <trkpt lat="45.29402" lon="6.5844">
        <ele>2324</ele>
        <time>2017-05-10T14:33:58Z</time>
      </trkpt>
      <trkpt lat="45.29412" lon="6.58458">
        <ele>2323</ele>
        <time>2017-05-10T14:34:06Z</time>
      </trkpt>
      <trkpt lat="45.29437" lon="6.58498">
        <ele>2323</ele>
        <time>2017-05-10T14:34:37Z</time>
      </trkpt>
      <trkpt lat="45.29467" lon="6.58528">
        <ele>2324</ele>
        <time>2017-05-10T14:35:09Z</time>
      </trkpt>
      <trkpt lat="45.29475" lon="6.58536">
        <ele>2325</ele>
        <time>2017-05-10T14:35:18Z</time>
      </trkpt>
      <trkpt lat="45.29485" lon="6.58543">
        <ele>2325</ele>
        <time>2017-05-10T14:35:27Z</time>
      </trkpt>
      <trkpt lat="45.29489" lon="6.5854">
        <ele>2322</ele>
        <time>2017-05-10T14:36:58Z</time>
      </trkpt>
    </trkseg>
  </trk>
</gpx>